Provisional Data: Blockhouse Creek near English Center, PA


Please select a monitoring station.
Please select start date.
Please select start date.

Toggle Unit: C/F Toggle Unit: C/F
Sample Time Temperature (C) Temperature (F) Specific Conductivity (mS/cm) pH   Turbidity (NTU+) DO (mg/L)
12/11/2021 12:00:00 AM 3.7 38.66 0.106 7.32 10.76 13.09
12/11/2021 12:15:00 AM 3.71 38.678 0.106 7.32 10.2 13.09
12/11/2021 12:30:00 AM 3.72 38.696 0.106 7.32 10.16 13.09
12/11/2021 12:45:00 AM 3.73 38.714 0.106 7.32 10.24 13.08
12/11/2021 1:00:00 AM 3.73 38.714 0.106 7.31 10.14 13.08
12/11/2021 1:15:00 AM 3.74 38.732 0.106 7.32 10.21 13.07
12/11/2021 1:30:00 AM 3.74 38.732 0.106 7.32 10.1 13.07
12/11/2021 1:45:00 AM 3.75 38.75 0.106 7.32 10.07 13.06
12/11/2021 2:00:00 AM 3.76 38.768 0.106 7.32 11.02 13.05
12/11/2021 2:15:00 AM 3.77 38.786 0.106 7.32 10.16 13.05
12/11/2021 2:30:00 AM 3.78 38.804 0.106 7.32 10.43 13.04
12/11/2021 2:45:00 AM 3.8 38.84 0.106 7.32 10.53 13.03
12/11/2021 3:00:00 AM 3.81 38.858 0.106 7.32 10.32 13.02
12/11/2021 3:15:00 AM 3.82 38.876 0.106 7.31 10.13 13.01
12/11/2021 3:30:00 AM 3.84 38.912 0.106 7.32 10.17 13
12/11/2021 3:45:00 AM 3.85 38.93 0.106 7.32 10.24 12.99
12/11/2021 4:00:00 AM 3.86 38.948 0.106 7.31 10.18 12.98
12/11/2021 4:15:00 AM 3.88 38.984 0.105 7.31 10.31 12.97
12/11/2021 4:30:00 AM 3.89 39.002 0.105 7.32 10.34 12.97
12/11/2021 4:45:00 AM 3.91 39.038 0.104 7.32 10.11 12.96
12/11/2021 5:00:00 AM 3.93 39.074 0.104 7.32 10.2 12.94
12/11/2021 5:15:00 AM 3.95 39.11 0.104 7.32 10.63 12.93
12/11/2021 5:30:00 AM 3.97 39.146 0.103 7.32 10.32 12.9
12/11/2021 5:45:00 AM 3.99 39.182 0.104 7.31 10.18 12.89
12/11/2021 6:00:00 AM 4.01 39.218 0.103 7.31 10.3 12.89
12/11/2021 6:15:00 AM 4.03 39.254 0.103 7.31 10.27 12.88
12/11/2021 6:30:00 AM 4.06 39.308 0.103 7.31 10.28 12.87
12/11/2021 6:45:00 AM 4.08 39.344 0.103 7.31 10.68 12.86
12/11/2021 7:00:00 AM 4.11 39.398 0.102 7.31 11.41 12.84
12/11/2021 7:15:00 AM 4.13 39.434 0.102 7.31 11.6 12.83
12/11/2021 7:30:00 AM 4.16 39.488 0.102 7.31 11.54 12.83
12/11/2021 7:45:00 AM 4.19 39.542 0.102 7.31 11.63 12.82
12/11/2021 8:00:00 AM 4.21 39.578 0.101 7.31 12.47 12.84
12/11/2021 8:15:00 AM 4.23 39.614 0.101 7.31 12.43 12.87
12/11/2021 8:30:00 AM 4.26 39.668 0.1 7.32 12.4 12.9
12/11/2021 8:45:00 AM 4.28 39.704 0.1 7.32 12.59 12.92
12/11/2021 9:00:00 AM 4.31 39.758 0.099 7.32 12.67 12.95
12/11/2021 9:15:00 AM 4.33 39.794 0.099 7.33 12.74 12.98
12/11/2021 9:30:00 AM 4.36 39.848 0.098 7.34 12.4 13.02
12/11/2021 9:45:00 AM 4.38 39.884 0.098 7.35 12.62 13.04
12/11/2021 10:00:00 AM 4.41 39.938 0.097 7.35 12.32 13.09
12/11/2021 10:15:00 AM 4.45 40.01 0.097 7.36 13.7 13.1
12/11/2021 10:30:00 AM 4.48 40.064 0.097 7.35 13.75 13.12
12/11/2021 10:45:00 AM 4.52 40.136 0.098 7.37 14.78 13.14
12/11/2021 11:00:00 AM 4.55 40.19 0.096 7.37 15.61 13.14
12/11/2021 11:15:00 AM 4.58 40.244 0.097 7.38 16.86 13.11
12/11/2021 11:30:00 AM 4.62 40.316 0.099 7.38 17.41 13.06
12/11/2021 11:45:00 AM 4.68 40.424 0.103 7.39 17.87 13.03
12/11/2021 12:00:00 PM 4.72 40.496 0.107 7.39 17.32 12.99
12/11/2021 12:15:00 PM 4.77 40.586 0.11 7.4 17.65 12.94
12/11/2021 12:30:00 PM 4.82 40.676 0.115 7.4 17.67 12.9
12/11/2021 12:45:00 PM 4.87 40.766 0.121 7.4 15.46 12.88
12/11/2021 1:00:00 PM 4.92 40.856 0.126 7.41 17.1 12.86
12/11/2021 1:15:00 PM 4.96 40.928 0.13 7.43 17.81 12.84
12/11/2021 1:30:00 PM 4.99 40.982 0.13 7.42 16.83 12.82
12/11/2021 1:45:00 PM 5.03 41.054 0.128 7.42 16.97 12.8
12/11/2021 2:00:00 PM 5.07 41.126 0.126 7.42 16.2 12.82
12/11/2021 2:15:00 PM 5.1 41.18 0.124 7.45 16.77 12.83
12/11/2021 2:30:00 PM 5.14 41.252 0.122 7.43 17.08 12.79
12/11/2021 2:45:00 PM 5.17 41.306 0.121 7.44 17.6 12.76
12/11/2021 3:00:00 PM 5.21 41.378 0.122 7.45 17.85 12.72
12/11/2021 3:15:00 PM 5.25 41.45 0.124 7.44 18.42 12.66
12/11/2021 3:30:00 PM 5.29 41.522 0.127 7.44 18.92 12.6
12/11/2021 3:45:00 PM 5.33 41.594 0.131 7.42 18.81 12.56
12/11/2021 4:00:00 PM 5.36 41.648 0.133 7.42 22.24 12.52
12/11/2021 4:15:00 PM 5.38 41.684 0.135 7.41 20.52 12.47
12/11/2021 4:30:00 PM 5.4 41.72 0.136 7.41 19.43 12.43
12/11/2021 4:45:00 PM 5.43 41.774 0.137 7.4 19.68 12.39
12/11/2021 5:00:00 PM 5.47 41.846 0.137 7.39 19.62 12.36
12/11/2021 5:15:00 PM 5.51 41.918 0.137 7.39 19.24 12.32
12/11/2021 5:30:00 PM 5.55 41.99 0.136 7.38 19.79 12.3
12/11/2021 5:45:00 PM 5.59 42.062 0.136 7.38 19.42 12.27
12/11/2021 6:00:00 PM 5.65 42.17 0.134 7.38 18.86 12.24
12/11/2021 6:15:00 PM 5.77 42.386 0.133 7.38 18.69 12.23
12/11/2021 6:30:00 PM 5.86 42.548 0.132 7.37 18.27 12.19
12/11/2021 6:45:00 PM 5.9 42.62 0.132 7.37 18.09 12.18
12/11/2021 7:00:00 PM 5.92 42.656 0.132 7.36 17.54 12.17
12/11/2021 7:15:00 PM 5.93 42.674 0.133 7.35 17.85 12.16
12/11/2021 7:30:00 PM 5.92 42.656 0.133 7.37 17.16 12.17
12/11/2021 7:45:00 PM 5.89 42.602 0.134 7.36 16.8 12.17
12/11/2021 8:00:00 PM 5.87 42.566 0.134 7.36 16.43 12.18
12/11/2021 8:15:00 PM 5.84 42.512 0.135 7.36 16.57 12.2
12/11/2021 8:30:00 PM 5.8 42.44 0.135 7.36 16.16 12.22
12/11/2021 8:45:00 PM 5.75 42.35 0.134 7.37 15.84 12.23
12/11/2021 9:00:00 PM 5.71 42.278 0.134 7.34 16.02 12.25
12/11/2021 9:15:00 PM 5.66 42.188 0.133 7.35 15.75 12.27
12/11/2021 9:30:00 PM 5.63 42.134 0.132 7.36 15.39 12.29
12/11/2021 9:45:00 PM 5.59 42.062 0.13 7.35 15.51 12.31
12/11/2021 10:00:00 PM 5.56 42.008 0.129 7.36 15.36 12.32
12/11/2021 10:15:00 PM 5.53 41.954 0.128 7.35 15.53 12.35
12/11/2021 10:30:00 PM 5.51 41.918 0.127 7.36 15.38 12.36
12/11/2021 10:45:00 PM 5.48 41.864 0.127 7.35 15.2 12.38
12/11/2021 11:00:00 PM 5.45 41.81 0.127 7.35 15.16 12.4
12/11/2021 11:15:00 PM 5.42 41.756 0.127 7.35 15.17 12.42
12/11/2021 11:30:00 PM 5.38 41.684 0.127 7.35 15.32 12.44
12/11/2021 11:45:00 PM 5.34 41.612 0.127 7.35 15.37 12.46
12/12/2021 12:00:00 AM 5.3 41.54 0.127 7.35 15.33 12.48
12/12/2021 12:15:00 AM 5.27 41.486 0.127 7.35 15.02 12.5
12/12/2021 12:30:00 AM 5.23 41.414 0.127 7.36 14.98 12.52
12/12/2021 12:45:00 AM 5.19 41.342 0.127 7.35 14.82 12.53
12/12/2021 1:00:00 AM 5.16 41.288 0.126 7.35 14.43 12.54
12/12/2021 1:15:00 AM 5.12 41.216 0.126 7.35 14.54 12.56
12/12/2021 1:30:00 AM 5.09 41.162 0.125 7.35 14.43 12.58
12/12/2021 1:45:00 AM 5.07 41.126 0.124 7.35 14.54 12.59
12/12/2021 2:00:00 AM 5.05 41.09 0.124 7.35 14.42 12.6
12/12/2021 2:15:00 AM 5.02 41.036 0.123 7.35 14.48 12.61
12/12/2021 2:30:00 AM 5 41 0.123 7.35 14.45 12.62
12/12/2021 2:45:00 AM 4.98 40.964 0.123 7.34 14.39 12.64
12/12/2021 3:00:00 AM 4.95 40.91 0.123 7.34 14.4 12.65
12/12/2021 3:15:00 AM 4.91 40.838 0.123 7.35 14.26 12.67
12/12/2021 3:30:00 AM 4.87 40.766 0.123 7.34 14.08 12.69
12/12/2021 3:45:00 AM 4.81 40.658 0.123 7.35 14.25 12.7
12/12/2021 4:00:00 AM 4.75 40.55 0.124 7.34 14.19 12.73
12/12/2021 4:15:00 AM 4.71 40.478 0.124 7.34 14.14 12.75
12/12/2021 4:30:00 AM 4.66 40.388 0.124 7.34 14.06 12.76
12/12/2021 4:45:00 AM 4.61 40.298 0.124 7.34 14.1 12.78
12/12/2021 5:00:00 AM 4.56 40.208 0.124 7.34 14.13 12.81
12/12/2021 5:15:00 AM 4.51 40.118 0.123 7.34 14.1 12.82
12/12/2021 5:30:00 AM 4.46 40.028 0.123 7.33 14.12 12.84
12/12/2021 5:45:00 AM 4.41 39.938 0.123 7.34 13.98 12.86
12/12/2021 6:00:00 AM 4.38 39.884 0.123 7.33 14.03 12.88
12/12/2021 6:15:00 AM 4.34 39.812 0.122 7.33 14.07 12.89
12/12/2021 6:30:00 AM 4.29 39.722 0.122 7.33 14.13 12.92
12/12/2021 6:45:00 AM 4.25 39.65 0.122 7.33 13.64 12.93
12/12/2021 7:00:00 AM 4.21 39.578 0.122 7.32 13.75 12.95
12/12/2021 7:15:00 AM 4.18 39.524 0.121 7.32 13.79 12.97
12/12/2021 7:30:00 AM 4.17 39.506 0.121 7.32 13.62 12.99
12/12/2021 7:45:00 AM 4.14 39.452 0.121 7.32 13.7 13.02
12/12/2021 8:00:00 AM 4.11 39.398 0.121 7.32 13.33 13.08
12/12/2021 8:15:00 AM 4.09 39.362 0.12 7.33 13.38 13.16
12/12/2021 8:30:00 AM 4.06 39.308 0.12 7.34 13.39 13.23
12/12/2021 8:45:00 AM 4.03 39.254 0.119 7.34 13.22 13.29
12/12/2021 9:00:00 AM 4.01 39.218 0.119 7.35 13.37 13.33
12/12/2021 9:15:00 AM 3.99 39.182 0.118 7.37 13.96 13.4
12/12/2021 9:30:00 AM 4 39.2 0.118 7.39 13.62 13.53
12/12/2021 9:45:00 AM 4 39.2 0.117 7.4 13.19 13.62
12/12/2021 10:00:00 AM 4 39.2 0.116 7.42 13.18 13.69
12/12/2021 10:15:00 AM 4.01 39.218 0.116 7.44 13 13.71
12/12/2021 10:30:00 AM 4.02 39.236 0.115 7.45 13.3 13.73
12/12/2021 10:45:00 AM 4.03 39.254 0.115 7.46 12.96 13.75
12/12/2021 11:00:00 AM 4.06 39.308 0.114 7.47 12.86 13.76
12/12/2021 11:15:00 AM 4.09 39.362 0.114 7.49 12.93 13.78
12/12/2021 11:30:00 AM 4.12 39.416 0.113 7.49 12.76 13.81
12/12/2021 11:45:00 AM 4.16 39.488 0.113 7.5 12.72 13.83
12/12/2021 12:00:00 PM 4.2 39.56 0.113 7.52 12.68 13.83
12/12/2021 12:15:00 PM 4.24 39.632 0.112 7.52 12.33 13.85
12/12/2021 12:30:00 PM 4.28 39.704 0.112 7.53 12.41 13.86
12/12/2021 12:45:00 PM 4.31 39.758 0.112 7.54 12.52 13.87
12/12/2021 1:00:00 PM 4.34 39.812 0.111 7.54 12.47 13.88
12/12/2021 1:15:00 PM 4.37 39.866 0.111 7.55 12.42 13.79
12/12/2021 1:30:00 PM 4.41 39.938 0.111 7.55 12.27 13.76
12/12/2021 1:45:00 PM 4.44 39.992 0.11 7.56 12.39 13.73
12/12/2021 2:00:00 PM 4.47 40.046 0.11 7.56 12.38 13.69
12/12/2021 2:15:00 PM 4.5 40.1 0.11 7.55 12.18 13.67
12/12/2021 2:30:00 PM 4.51 40.118 0.109 7.55 12.25 13.64
12/12/2021 2:45:00 PM 4.52 40.136 0.109 7.54 12.41 13.61
12/12/2021 3:00:00 PM 4.52 40.136 0.109 7.54 12.03 13.57
12/12/2021 3:15:00 PM 4.53 40.154 0.109 7.53 12.22 13.54
12/12/2021 3:30:00 PM 4.52 40.136 0.108 7.52 12.26 13.5
12/12/2021 3:45:00 PM 4.5 40.1 0.108 7.51 12.17 13.45
12/12/2021 4:00:00 PM 4.48 40.064 0.108 7.49 12.34 13.42
12/12/2021 4:15:00 PM 4.46 40.028 0.108 7.48 12.25 13.37
12/12/2021 4:30:00 PM 4.42 39.956 0.108 7.45 12.38 13.31
12/12/2021 4:45:00 PM 4.39 39.902 0.108 7.43 12.15 13.24
12/12/2021 5:00:00 PM 4.34 39.812 0.108 7.41 12.36 13.18
12/12/2021 5:15:00 PM 4.3 39.74 0.108 7.39 12.25 13.14
12/12/2021 5:30:00 PM 4.25 39.65 0.107 7.37 12.49 13.11
12/12/2021 5:45:00 PM 4.21 39.578 0.107 7.36 12.58 13.1
12/12/2021 6:00:00 PM 4.16 39.488 0.107 7.34 12.14 13.1
12/12/2021 6:15:00 PM 4.11 39.398 0.107 7.33 12.29 13.1
12/12/2021 6:30:00 PM 4.06 39.308 0.107 7.32 12.25 13.1
12/12/2021 6:45:00 PM 4.02 39.236 0.107 7.33 12.24 13.11
12/12/2021 7:00:00 PM 3.97 39.146 0.106 7.31 12.29 13.13
12/12/2021 7:15:00 PM 3.93 39.074 0.106 7.3 12.39 13.13
12/12/2021 7:30:00 PM 3.88 38.984 0.106 7.3 12.32 13.15
12/12/2021 7:45:00 PM 3.83 38.894 0.106 7.29 12.33 13.17
12/12/2021 8:00:00 PM 3.78 38.804 0.106 7.28 12.36 13.19
12/12/2021 8:15:00 PM 3.73 38.714 0.106 7.28 12.53 13.2
12/12/2021 8:30:00 PM 3.68 38.624 0.106 7.28 12.28 13.22
12/12/2021 8:45:00 PM 3.64 38.552 0.106 7.28 12.63 13.24
12/12/2021 9:00:00 PM 3.59 38.462 0.105 7.27 12.58 13.26
12/12/2021 9:15:00 PM 3.55 38.39 0.105 7.27 12.56 13.27
12/12/2021 9:30:00 PM 3.51 38.318 0.105 7.27 12.71 13.28
12/12/2021 9:45:00 PM 3.47 38.246 0.105 7.26 12.8 13.3
12/12/2021 10:00:00 PM 3.43 38.174 0.105 7.26 12.45 13.32
12/12/2021 10:15:00 PM 3.39 38.102 0.105 7.26 12.54 13.33
12/12/2021 10:30:00 PM 3.35 38.03 0.104 7.25 12.74 13.35
12/12/2021 10:45:00 PM 3.31 37.958 0.104 7.25 12.71 13.37
12/12/2021 11:00:00 PM 3.26 37.868 0.104 7.25 12.66 13.38
12/12/2021 11:15:00 PM 3.22 37.796 0.104 7.25 13.8 13.39
12/12/2021 11:30:00 PM 3.18 37.724 0.104 7.24 12.65 13.41
12/12/2021 11:45:00 PM 3.14 37.652 0.104 7.25 13.05 13.42
12/13/2021 12:00:00 AM 3.1 37.58 0.104 7.25 12.84 13.44
12/13/2021 12:15:00 AM 3.06 37.508 0.104 7.24 13.27 13.46
12/13/2021 12:30:00 AM 3.04 37.472 0.104 7.24 13.32 13.47
12/13/2021 12:45:00 AM 3.01 37.418 0.103 7.24 12.69 13.49
12/13/2021 1:00:00 AM 2.98 37.364 0.103 7.24 13.87 13.5
12/13/2021 1:15:00 AM 2.95 37.31 0.103 7.24 12.8 13.52
12/13/2021 1:30:00 AM 2.92 37.256 0.103 7.16 12.72 13.53
12/13/2021 1:45:00 AM 2.9 37.22 0.103 7.17 13.83 13.54
12/13/2021 2:00:00 AM 2.88 37.184 0.103 7.24 12.68 13.56
12/13/2021 2:15:00 AM 2.85 37.13 0.103 7.25 12.58 13.57
12/13/2021 2:30:00 AM 2.84 37.112 0.103 7.25 12.6 13.57
12/13/2021 2:45:00 AM 2.83 37.094 0.102 7.25 12.62 13.59
12/13/2021 3:00:00 AM 2.81 37.058 0.102 7.24 13.21 13.6
12/13/2021 3:15:00 AM 2.81 37.058 0.102 7.24 12.87 13.61
12/13/2021 3:30:00 AM 2.8 37.04 0.102 7.24 12.61 13.61
12/13/2021 3:45:00 AM 2.8 37.04 0.102 7.25 12.93 13.61
12/13/2021 4:00:00 AM 2.8 37.04 0.102 7.24 12.75 13.61
12/13/2021 4:15:00 AM 2.8 37.04 0.102 7.24 12.98 13.61
12/13/2021 4:30:00 AM 2.79 37.022 0.101 7.24 13.13 13.61
12/13/2021 4:45:00 AM 2.79 37.022 0.101 7.24 12.7 13.62
12/13/2021 5:00:00 AM 2.79 37.022 0.101 7.23 12.92 13.62
12/13/2021 5:15:00 AM 2.8 37.04 0.101 7.23 12.95 13.62
12/13/2021 5:30:00 AM 2.8 37.04 0.101 7.22 12.85 13.62
12/13/2021 5:45:00 AM 2.8 37.04 0.101 7.23 13.6 13.62
12/13/2021 6:00:00 AM 2.8 37.04 0.101 7.23 12.89 13.62
12/13/2021 6:15:00 AM 2.81 37.058 0.101 7.23 12.93 13.62
12/13/2021 6:30:00 AM 2.81 37.058 0.1 7.23 12.98 13.62
12/13/2021 6:45:00 AM 2.81 37.058 0.1 7.22 12.8 13.62
12/13/2021 7:00:00 AM 2.81 37.058 0.1 7.22 12.83 13.62
12/13/2021 7:15:00 AM 2.82 37.076 0.1 7.23 12.97 13.62
12/13/2021 7:30:00 AM 2.83 37.094 0.1 7.22 12.97 13.62
12/13/2021 7:45:00 AM 2.84 37.112 0.1 7.23 13.22 13.64
12/13/2021 8:00:00 AM 2.85 37.13 0.1 7.23 13.03 13.68
12/13/2021 8:15:00 AM 2.87 37.166 0.099 7.24 13.16 13.74
12/13/2021 8:30:00 AM 2.9 37.22 0.099 7.26 13 13.79
12/13/2021 8:45:00 AM 2.94 37.292 0.099 7.27 12.82 13.9
12/13/2021 9:00:00 AM 2.97 37.346 0.099 7.28 13.56 13.97
12/13/2021 9:15:00 AM 2.98 37.364 0.099 7.29 12.98 13.98
12/13/2021 9:30:00 AM 2.99 37.382 0.098 7.3 13.21 13.98
12/13/2021 9:45:00 AM 3 37.4 0.098 7.31 12.93 14
12/13/2021 10:00:00 AM 3.02 37.436 0.098 7.33 12.69 14.03
12/13/2021 10:15:00 AM 3.08 37.544 0.098 7.34 12.7 14.08
12/13/2021 10:30:00 AM 3.14 37.652 0.098 7.35 12.83 14.11
12/13/2021 10:45:00 AM 3.21 37.778 0.097 7.37 12.89 14.14
12/13/2021 11:00:00 AM 3.28 37.904 0.097 7.39 12.76 14.14
12/13/2021 11:15:00 AM 3.35 38.03 0.097 7.4 12.74 14.15
12/13/2021 11:30:00 AM 3.43 38.174 0.097 7.41 13.74 14.17
12/13/2021 11:45:00 AM 3.51 38.318 0.097 7.43 12.78 14.16
12/13/2021 12:00:00 PM 3.59 38.462 0.097 7.44 12.98 14.15
12/13/2021 12:15:00 PM 3.67 38.606 0.096 7.46 12.52 14.15
12/13/2021 12:30:00 PM 3.74 38.732 0.096 7.46 12.82 14.13
12/13/2021 12:45:00 PM 3.8 38.84 0.096 7.48 12.93 14.13
12/13/2021 1:00:00 PM 3.86 38.948 0.096 7.49 12.65 14.11
12/13/2021 1:15:00 PM 3.92 39.056 0.096 7.5 12.88 14.03
12/13/2021 1:30:00 PM 3.99 39.182 0.096 7.5 12.74 13.99
12/13/2021 1:45:00 PM 4.06 39.308 0.096 7.5 12.84 13.94
12/13/2021 2:00:00 PM 4.12 39.416 0.095 7.5 12.57 13.88
12/13/2021 2:15:00 PM 4.17 39.506 0.095 7.5 12.6 13.83
12/13/2021 2:30:00 PM 4.23 39.614 0.095 7.49 13.04 13.79
12/13/2021 2:45:00 PM 4.27 39.686 0.095 7.49 12.37 13.74
12/13/2021 3:00:00 PM 4.3 39.74 0.095 7.48 13.68 13.7
12/13/2021 3:15:00 PM 4.33 39.794 0.095 7.48 13.32 13.66
12/13/2021 3:30:00 PM 4.34 39.812 0.095 7.47 12.61 13.61
12/13/2021 3:45:00 PM 4.35 39.83 0.095 7.46 13.02 13.55
12/13/2021 4:00:00 PM 4.36 39.848 0.095 7.45 13.04 13.5
12/13/2021 4:15:00 PM 4.35 39.83 0.095 7.44 12.77 13.45
12/13/2021 4:30:00 PM 4.34 39.812 0.095 7.42 13.81 13.38
12/13/2021 4:45:00 PM 4.32 39.776 0.095 7.4 13.06 13.3
12/13/2021 5:00:00 PM 4.3 39.74 0.095 7.37 12.63 13.22
12/13/2021 5:15:00 PM 4.27 39.686 0.095 7.36 12.61 13.19
12/13/2021 5:30:00 PM 4.24 39.632 0.095 7.34 12.64 13.15
12/13/2021 5:45:00 PM 4.21 39.578 0.095 7.33 12.66 13.13
12/13/2021 6:00:00 PM 4.18 39.524 0.095 7.32 12.95 13.12
12/13/2021 6:15:00 PM 4.14 39.452 0.095 7.3 12.7 13.12
12/13/2021 6:30:00 PM 4.11 39.398 0.095 7.29 12.77 13.12
12/13/2021 6:45:00 PM 4.07 39.326 0.094 7.28 13.12 13.12
12/13/2021 7:00:00 PM 4.04 39.272 0.094 7.28 13.06 13.13
12/13/2021 7:15:00 PM 4 39.2 0.094 7.27 12.82 13.14
12/13/2021 7:30:00 PM 3.96 39.128 0.094 7.26 13.03 13.15
12/13/2021 7:45:00 PM 3.92 39.056 0.094 7.26 13.06 13.16
12/13/2021 8:00:00 PM 3.88 38.984 0.094 7.25 12.94 13.17
12/13/2021 8:15:00 PM 3.84 38.912 0.094 7.25 13.19 13.19
12/13/2021 8:30:00 PM 3.8 38.84 0.094 7.24 13.09 13.21
12/13/2021 8:45:00 PM 3.76 38.768 0.094 7.23 13 13.22
12/13/2021 9:00:00 PM 3.72 38.696 0.094 7.23 13.01 13.23
12/13/2021 9:15:00 PM 3.69 38.642 0.094 7.23 13.21 13.24
12/13/2021 9:30:00 PM 3.65 38.57 0.094 7.23 12.89 13.26
12/13/2021 9:45:00 PM 3.62 38.516 0.094 7.23 12.98 13.28
12/13/2021 10:00:00 PM 3.58 38.444 0.094 7.22 13.13 13.29
12/13/2021 10:15:00 PM 3.54 38.372 0.094 7.22 13.12 13.31
12/13/2021 10:30:00 PM 3.51 38.318 0.094 7.22 12.92 13.32
12/13/2021 10:45:00 PM 3.47 38.246 0.094 7.22 13.48 13.34
12/13/2021 11:00:00 PM 3.43 38.174 0.094 7.22 13.11 13.36
12/13/2021 11:15:00 PM 3.4 38.12 0.094 7.22 13.2 13.37
12/13/2021 11:30:00 PM 3.35 38.03 0.094 7.22 14.01 13.39
12/13/2021 11:45:00 PM 3.31 37.958 0.094 7.22 13.7 13.4
12/14/2021 12:00:00 AM 3.29 37.922 0.094 7.22 14.68 13.41
12/14/2021 12:15:00 AM 3.26 37.868 0.094 7.21 12.95 13.43
12/14/2021 12:30:00 AM 3.24 37.832 0.094 7.21 13.2 13.44
12/14/2021 12:45:00 AM 3.21 37.778 0.094 7.21 13.19 13.46
12/14/2021 1:00:00 AM 3.18 37.724 0.094 7.21 13.33 13.47
12/14/2021 1:15:00 AM 3.14 37.652 0.094 7.21 13.18 13.48
12/14/2021 1:30:00 AM 3.11 37.598 0.094 7.21 13.11 13.5
12/14/2021 1:45:00 AM 3.08 37.544 0.094 7.21 13.56 13.52
12/14/2021 2:00:00 AM 3.05 37.49 0.094 7.2 13.32 13.53
12/14/2021 2:15:00 AM 3.01 37.418 0.094 7.21 13.93 13.55
12/14/2021 2:30:00 AM 2.98 37.364 0.094 7.21 13.09 13.56
12/14/2021 2:45:00 AM 2.95 37.31 0.094 7.2 13.48 13.58
12/14/2021 3:00:00 AM 2.92 37.256 0.094 7.2 13.18 13.59
12/14/2021 3:15:00 AM 2.89 37.202 0.094 7.2 13.26 13.6
12/14/2021 3:30:00 AM 2.86 37.148 0.094 7.2 13.41 13.62
12/14/2021 3:45:00 AM 2.83 37.094 0.094 7.2 13.53 13.63
12/14/2021 4:00:00 AM 2.8 37.04 0.094 7.12 13.24 13.64
12/14/2021 4:15:00 AM 2.77 36.986 0.093 7.14 13.21 13.65
12/14/2021 4:30:00 AM 2.74 36.932 0.093 7.2 13.27 13.67
12/14/2021 4:45:00 AM 2.71 36.878 0.093 7.2 13.22 13.68
12/14/2021 5:00:00 AM 2.68 36.824 0.093 7.2 13.32 13.7
12/14/2021 5:15:00 AM 2.66 36.788 0.093 7.2 13.25 13.71
12/14/2021 5:30:00 AM 2.63 36.734 0.093 7.2 13.94 13.72
12/14/2021 5:45:00 AM 2.6 36.68 0.093 7.19 13.21 13.74
12/14/2021 6:00:00 AM 2.57 36.626 0.093 7.19 13.35 13.75
12/14/2021 6:15:00 AM 2.55 36.59 0.093 7.19 14.06 13.77
12/14/2021 6:30:00 AM 2.52 36.536 0.093 7.2 13.33 13.78
12/14/2021 6:45:00 AM 2.5 36.5 0.093 7.2 13.67 13.79
12/14/2021 7:00:00 AM 2.47 36.446 0.093 7.2 13.23 13.81
12/14/2021 7:15:00 AM 2.44 36.392 0.093 7.2 13.56 13.82
12/14/2021 7:30:00 AM 2.42 36.356 0.093 7.2 13.27 13.85
12/14/2021 7:45:00 AM 2.39 36.302 0.093 7.2 13.48 13.89
12/14/2021 8:00:00 AM 2.37 36.266 0.093 7.21 13.78 13.96
12/14/2021 8:15:00 AM 2.35 36.23 0.093 7.22 13.26 14.04
12/14/2021 8:30:00 AM 2.34 36.212 0.092 7.23 13.4 14.12
12/14/2021 8:45:00 AM 2.33 36.194 0.092 7.24 13 14.21
12/14/2021 9:00:00 AM 2.32 36.176 0.092 7.25 13.57 14.26
12/14/2021 9:15:00 AM 2.31 36.158 0.092 7.27 13.17 14.32
12/14/2021 9:30:00 AM 2.31 36.158 0.092 7.28 13.7 14.38
12/14/2021 9:45:00 AM 2.32 36.176 0.092 7.3 13.84 14.42
12/14/2021 10:00:00 AM 2.34 36.212 0.092 7.32 13.26 14.48
12/14/2021 10:15:00 AM 2.4 36.32 0.092 7.33 13.25 14.53
12/14/2021 10:30:00 AM 2.46 36.428 0.091 7.35 13.07 14.58
12/14/2021 10:45:00 AM 2.55 36.59 0.091 7.37 13.46 14.65
12/14/2021 11:00:00 AM 2.62 36.716 0.091 7.39 13.37 14.66
12/14/2021 11:15:00 AM 2.71 36.878 0.091 7.4 13.09 14.64
12/14/2021 11:30:00 AM 2.8 37.04 0.091 7.41 13.21 14.62
12/14/2021 11:45:00 AM 2.86 37.148 0.091 7.42 13.21 14.6
12/14/2021 12:00:00 PM 2.93 37.274 0.091 7.43 13.21 14.6
12/14/2021 12:15:00 PM 3.03 37.454 0.091 7.44 13.07 14.59
12/14/2021 12:30:00 PM 3.15 37.67 0.09 7.46 13.2 14.6
12/14/2021 12:45:00 PM 3.24 37.832 0.09 7.47 12.96 14.58
12/14/2021 1:00:00 PM 3.35 38.03 0.09 7.48 12.8 14.57
12/14/2021 1:15:00 PM 3.41 38.138 0.09 7.49 12.93 14.47
12/14/2021 1:30:00 PM 3.46 38.228 0.09 7.49 12.87 14.41
12/14/2021 1:45:00 PM 3.54 38.372 0.09 7.49 13.15 14.35
12/14/2021 2:00:00 PM 3.61 38.498 0.09 7.49 12.92 14.26
12/14/2021 2:15:00 PM 3.68 38.624 0.09 7.48 14.25 14.19
12/14/2021 2:30:00 PM 3.74 38.732 0.09 7.48 12.87 14.15
12/14/2021 2:45:00 PM 3.79 38.822 0.089 7.47 12.72 14.1
12/14/2021 3:00:00 PM 3.83 38.894 0.089 7.47 14.09 14.06
12/14/2021 3:15:00 PM 3.86 38.948 0.089 7.46 13.06 14.01
12/14/2021 3:30:00 PM 3.89 39.002 0.089 7.45 13.66 13.96
12/14/2021 3:45:00 PM 3.91 39.038 0.089 7.44 12.83 13.9
12/14/2021 4:00:00 PM 3.91 39.038 0.089 7.43 13.24 13.84
12/14/2021 4:15:00 PM 3.9 39.02 0.089 7.41 13.45 13.79
12/14/2021 4:30:00 PM 3.88 38.984 0.089 7.39 13.49 13.72
12/14/2021 4:45:00 PM 3.86 38.948 0.089 7.37 13.89 13.64
12/14/2021 5:00:00 PM 3.83 38.894 0.089 7.34 13.17 13.56
12/14/2021 5:15:00 PM 3.8 38.84 0.089 7.33 13.23 13.52
12/14/2021 5:30:00 PM 3.77 38.786 0.089 7.32 13.04 13.49
12/14/2021 5:45:00 PM 3.75 38.75 0.089 7.3 12.93 13.47
12/14/2021 6:00:00 PM 3.72 38.696 0.089 7.29 13.17 13.45
12/14/2021 6:15:00 PM 3.69 38.642 0.09 7.28 13.53 13.44
12/14/2021 6:30:00 PM 3.66 38.588 0.09 7.27 13.19 13.44
12/14/2021 6:45:00 PM 3.63 38.534 0.09 7.27 13.33 13.44
12/14/2021 7:00:00 PM 3.6 38.48 0.09 7.25 13.31 13.44
12/14/2021 7:15:00 PM 3.58 38.444 0.09 7.25 13.24 13.45
12/14/2021 7:30:00 PM 3.56 38.408 0.09 7.25 13.44 13.46
12/14/2021 7:45:00 PM 3.53 38.354 0.09 7.24 13.73 13.47
12/14/2021 8:00:00 PM 3.5 38.3 0.09 7.24 13.15 13.48
12/14/2021 8:15:00 PM 3.47 38.246 0.09 7.23 13.4 13.49
12/14/2021 8:30:00 PM 3.44 38.192 0.09 7.23 13.32 13.5
12/14/2021 8:45:00 PM 3.41 38.138 0.09 7.22 13.77 13.51
12/14/2021 9:00:00 PM 3.38 38.084 0.09 7.22 13.46 13.52
12/14/2021 9:15:00 PM 3.35 38.03 0.09 7.22 13.65 13.53
12/14/2021 9:30:00 PM 3.33 37.994 0.09 7.22 13.43 13.54
12/14/2021 9:45:00 PM 3.3 37.94 0.09 7.21 13.72 13.55
12/14/2021 10:00:00 PM 3.27 37.886 0.09 7.21 13.51 13.56
12/14/2021 10:15:00 PM 3.24 37.832 0.09 7.21 13.43 13.57
12/14/2021 10:30:00 PM 3.21 37.778 0.09 7.2 13.38 13.57
12/14/2021 10:45:00 PM 3.19 37.742 0.09 7.21 13.45 13.59
12/14/2021 11:00:00 PM 3.17 37.706 0.09 7.2 13.64 13.59
12/14/2021 11:15:00 PM 3.15 37.67 0.09 7.21 13.48 13.61
12/14/2021 11:30:00 PM 3.12 37.616 0.09 7.2 13.56 13.62
12/14/2021 11:45:00 PM 3.11 37.598 0.09 7.2 13.7 13.62
12/15/2021 12:00:00 AM 3.09 37.562 0.09 7.2 13.59 13.63
12/15/2021 12:15:00 AM 3.07 37.526 0.09 7.2 13.6 13.64
12/15/2021 12:30:00 AM 3.05 37.49 0.09 7.2 14.71 13.65
12/15/2021 12:45:00 AM 3.02 37.436 0.09 7.2 13.51 13.66
12/15/2021 1:00:00 AM 3 37.4 0.09 7.2 13.61 13.66
12/15/2021 1:15:00 AM 2.97 37.346 0.09 7.2 13.73 13.67
12/15/2021 1:30:00 AM 2.94 37.292 0.09 7.2 13.56 13.69
12/15/2021 1:45:00 AM 2.9 37.22 0.09 7.2 13.62 13.69
12/15/2021 2:00:00 AM 2.87 37.166 0.09 7.2 13.66 13.7
12/15/2021 2:15:00 AM 2.84 37.112 0.09 7.2 13.79 13.71
12/15/2021 2:30:00 AM 2.8 37.04 0.09 7.19 13.76 13.73
12/15/2021 2:45:00 AM 2.77 36.986 0.09 7.19 13.71 13.74
12/15/2021 3:00:00 AM 2.74 36.932 0.09 7.2 13.47 13.75
12/15/2021 3:15:00 AM 2.71 36.878 0.09 7.19 13.68 13.76
12/15/2021 3:30:00 AM 2.68 36.824 0.09 7.19 14.01 13.78
12/15/2021 3:45:00 AM 2.65 36.77 0.09 7.19 14.01 13.79
12/15/2021 4:00:00 AM 2.62 36.716 0.09 7.19 14.2 13.8
12/15/2021 4:15:00 AM 2.59 36.662 0.09 7.19 13.73 13.81
12/15/2021 4:30:00 AM 2.57 36.626 0.09 7.19 13.52 13.82
12/15/2021 4:45:00 AM 2.55 36.59 0.09 7.19 13.62 13.83
12/15/2021 5:00:00 AM 2.54 36.572 0.09 7.19 13.72 13.84
12/15/2021 5:15:00 AM 2.53 36.554 0.09 7.19 13.65 13.84
12/15/2021 5:30:00 AM 2.51 36.518 0.09 7.19 13.61 13.85
12/15/2021 5:45:00 AM 2.51 36.518 0.09 7.19 13.5 13.85
12/15/2021 6:00:00 AM 2.5 36.5 0.09 7.19 13.86 13.86
12/15/2021 6:15:00 AM 2.49 36.482 0.09 7.19 13.93 13.86
12/15/2021 6:30:00 AM 2.49 36.482 0.09 7.19 13.68 13.86
12/15/2021 6:45:00 AM 2.48 36.464 0.09 7.19 13.79 13.86
12/15/2021 7:00:00 AM 2.49 36.482 0.09 7.2 13.86 13.86
12/15/2021 7:15:00 AM 2.49 36.482 0.09 7.19 14.39 13.87
12/15/2021 7:30:00 AM 2.5 36.5 0.09 7.2 14.07 13.87
12/15/2021 7:45:00 AM 2.52 36.536 0.09 7.2 13.62 13.91
12/15/2021 8:00:00 AM 2.54 36.572 0.09 7.21 13.6 13.98
12/15/2021 8:15:00 AM 2.57 36.626 0.089 7.22 13.81 14.09
12/15/2021 8:30:00 AM 2.6 36.68 0.089 7.24 13.9 14.19
12/15/2021 8:45:00 AM 2.63 36.734 0.089 7.26 13.66 14.3
12/15/2021 9:00:00 AM 2.66 36.788 0.089 7.29 13.61 14.39
12/15/2021 9:15:00 AM 2.7 36.86 0.089 7.3 14.48 14.47
12/15/2021 9:30:00 AM 2.75 36.95 0.089 7.33 13.62 14.54
12/15/2021 9:45:00 AM 2.81 37.058 0.089 7.36 13.66 14.57
12/15/2021 10:00:00 AM 2.86 37.148 0.089 7.38 13.93 14.58
12/15/2021 10:15:00 AM 2.94 37.292 0.088 7.4 13.61 14.62
12/15/2021 10:30:00 AM 3.01 37.418 0.088 7.42 13.04 14.61
12/15/2021 10:45:00 AM 3.1 37.58 0.088 7.45 13.68 14.62
12/15/2021 11:00:00 AM 3.18 37.724 0.088 7.45 13.52 14.6
12/15/2021 11:15:00 AM 3.25 37.85 0.088 7.48 13.32 14.58
12/15/2021 11:30:00 AM 3.31 37.958 0.088 7.49 13.62 14.53
12/15/2021 11:45:00 AM 3.38 38.084 0.088 7.48 13.8 14.48
12/15/2021 12:00:00 PM 3.44 38.192 0.088 7.5 13.48 14.46
12/15/2021 12:15:00 PM 3.5 38.3 0.088 7.5 13.68 14.42
12/15/2021 12:30:00 PM 3.56 38.408 0.088 7.51 13.66 14.4
12/15/2021 12:45:00 PM 3.62 38.516 0.088 7.52 13.64 14.34
12/15/2021 1:00:00 PM 3.67 38.606 0.088 7.51 13.35 14.3
12/15/2021 1:15:00 PM 3.71 38.678 0.088 7.51 12.72 14.22
12/15/2021 1:30:00 PM 3.76 38.768 0.087 7.5 13.49 14.18
12/15/2021 1:45:00 PM 3.8 38.84 0.087 7.5 13.5 14.14
12/15/2021 2:00:00 PM 3.84 38.912 0.087 7.5 13.39 14.07
12/15/2021 2:15:00 PM 3.88 38.984 0.087 7.48 13.29 14
12/15/2021 2:30:00 PM 3.92 39.056 0.087 7.47 13.91 13.93
12/15/2021 2:45:00 PM 3.96 39.128 0.087 7.47 13.49 13.91
12/15/2021 3:00:00 PM 3.99 39.182 0.087 7.45 13.75 13.84
12/15/2021 3:15:00 PM 4.02 39.236 0.087 7.44 13.48 13.78
12/15/2021 3:30:00 PM 4.06 39.308 0.087 7.43 13.49 13.71
12/15/2021 3:45:00 PM 4.09 39.362 0.087 7.41 13.61 13.66
12/15/2021 4:00:00 PM 4.12 39.416 0.087 7.39 13.7 13.57
12/15/2021 4:15:00 PM 4.15 39.47 0.087 7.37 13.52 13.5
12/15/2021 4:30:00 PM 4.18 39.524 0.087 7.36 13.48 13.42
12/15/2021 4:45:00 PM 4.2 39.56 0.087 7.34 13.64 13.34
12/15/2021 5:00:00 PM 4.23 39.614 0.087 7.32 13.35 13.28
12/15/2021 5:15:00 PM 4.25 39.65 0.087 7.31 13.76 13.23
12/15/2021 5:30:00 PM 4.28 39.704 0.087 7.3 13.94 13.2
12/15/2021 5:45:00 PM 4.29 39.722 0.087 7.29 13.52 13.17
12/15/2021 6:00:00 PM 4.32 39.776 0.087 7.28 14.2 13.14
12/15/2021 6:15:00 PM 4.35 39.83 0.088 7.27 13.89 13.12
12/15/2021 6:30:00 PM 4.37 39.866 0.088 7.28 13.72 13.09
12/15/2021 6:45:00 PM 4.39 39.902 0.088 7.26 13.88 13.08
12/15/2021 7:00:00 PM 4.42 39.956 0.088 7.26 13.85 13.06
12/15/2021 7:15:00 PM 4.44 39.992 0.088 7.25 13.88 13.05
12/15/2021 7:30:00 PM 4.46 40.028 0.088 7.25 13.86 13.04
12/15/2021 7:45:00 PM 4.48 40.064 0.088 7.23 14.28 13.02
12/15/2021 8:00:00 PM 4.49 40.082 0.088 7.24 14.06 13
12/15/2021 8:15:00 PM 4.51 40.118 0.088 7.23 13.94 12.99
12/15/2021 8:30:00 PM 4.52 40.136 0.088 7.22 14.31 12.99
12/15/2021 8:45:00 PM 4.55 40.19 0.088 7.22 13.69 12.97
12/15/2021 9:00:00 PM 4.57 40.226 0.088 7.22 13.7 12.96
12/15/2021 9:15:00 PM 4.59 40.262 0.088 7.22 13.71 12.95
12/15/2021 9:30:00 PM 4.62 40.316 0.088 7.22 14.16 12.94
12/15/2021 9:45:00 PM 4.62 40.316 0.088 7.23 13.77 12.93
12/15/2021 10:00:00 PM 4.63 40.334 0.088 7.22 13.89 12.92
12/15/2021 10:15:00 PM 4.62 40.316 0.088 7.22 13.87 12.92
12/15/2021 10:30:00 PM 4.62 40.316 0.088 7.22 13.87 12.91
12/15/2021 10:45:00 PM 4.64 40.352 0.088 7.22 14.07 12.9
12/15/2021 11:00:00 PM 4.67 40.406 0.088 7.21 14 12.89
12/15/2021 11:15:00 PM 4.7 40.46 0.088 7.21 13.89 12.88
12/15/2021 11:30:00 PM 4.72 40.496 0.088 7.21 13.89 12.87
12/15/2021 11:45:00 PM 4.75 40.55 0.088 7.21 13.97 12.86
12/16/2021 12:00:00 AM 4.77 40.586 0.088 7.21 14 12.84
12/16/2021 12:15:00 AM 4.8 40.64 0.088 7.21 13.99 12.84
12/16/2021 12:30:00 AM 4.82 40.676 0.088 7.21 15.19 12.83
12/16/2021 12:45:00 AM 4.83 40.694 0.088 7.21 13.85 12.82
12/16/2021 1:00:00 AM 4.82 40.676 0.088 7.21 14.27 12.81
12/16/2021 1:15:00 AM 4.82 40.676 0.088 7.21 14.1 12.81
12/16/2021 1:30:00 AM 4.82 40.676 0.088 7.21 14.2 12.8
12/16/2021 1:45:00 AM 4.83 40.694 0.088 7.21 14.3 12.8
12/16/2021 2:00:00 AM 4.85 40.73 0.088 7.21 13.85 12.8
12/16/2021 2:15:00 AM 4.87 40.766 0.088 7.21 13.92 12.79
12/16/2021 2:30:00 AM 4.89 40.802 0.088 7.21 14.64 12.78
12/16/2021 2:45:00 AM 4.92 40.856 0.088 7.21 14.97 12.77
12/16/2021 3:00:00 AM 4.94 40.892 0.088 7.21 14.17 12.76
12/16/2021 3:15:00 AM 4.95 40.91 0.088 7.22 14.18 12.75
12/16/2021 3:30:00 AM 4.95 40.91 0.088 7.22 14.08 12.74
12/16/2021 3:45:00 AM 4.96 40.928 0.088 7.21 14.24 12.74
12/16/2021 4:00:00 AM 4.97 40.946 0.088 7.21 14.28 12.73
12/16/2021 4:15:00 AM 4.98 40.964 0.088 7.21 14.2 12.73
12/16/2021 4:30:00 AM 4.98 40.964 0.088 7.21 14.13 12.73
12/16/2021 4:45:00 AM 4.99 40.982 0.088 7.2 14.06 12.72
12/16/2021 5:00:00 AM 4.99 40.982 0.088 7.21 14.29 12.72
12/16/2021 5:15:00 AM 4.99 40.982 0.088 7.21 14.8 12.71
12/16/2021 5:30:00 AM 4.99 40.982 0.088 7.21 14.18 12.7
12/16/2021 5:45:00 AM 4.99 40.982 0.088 7.21 14.4 12.7
12/16/2021 6:00:00 AM 4.99 40.982 0.089 7.21 14.64 12.71
12/16/2021 6:15:00 AM 4.98 40.964 0.089 7.21 14.27 12.71
12/16/2021 6:30:00 AM 4.96 40.928 0.088 7.21 15.45 12.7
12/16/2021 6:45:00 AM 4.95 40.91 0.089 7.21 14.31 12.71
12/16/2021 7:00:00 AM 4.93 40.874 0.088 7.21 14.17 12.71
12/16/2021 7:15:00 AM 4.92 40.856 0.088 7.21 14.62 12.71
12/16/2021 7:30:00 AM 4.91 40.838 0.088 7.21 14.58 12.72
12/16/2021 7:45:00 AM 4.9 40.82 0.088 7.22 14.38 12.76
12/16/2021 8:00:00 AM 4.88 40.784 0.088 7.22 14.53 12.81
12/16/2021 8:15:00 AM 4.88 40.784 0.088 7.23 14.34 12.9
12/16/2021 8:30:00 AM 4.89 40.802 0.088 7.25 14.15 13.02
12/16/2021 8:45:00 AM 4.89 40.802 0.088 7.27 14.13 13.1
12/16/2021 9:00:00 AM 4.91 40.838 0.088 7.28 14.51 13.19
12/16/2021 9:15:00 AM 4.94 40.892 0.088 7.32 14.08 13.28
12/16/2021 9:30:00 AM 4.97 40.946 0.088 7.34 14.3 13.34
12/16/2021 9:45:00 AM 4.99 40.982 0.088 7.35 14.06 13.37
12/16/2021 10:00:00 AM 5.02 41.036 0.088 7.38 14.31 13.41
12/16/2021 10:15:00 AM 5.06 41.108 0.088 7.39 14.15 13.43
12/16/2021 10:30:00 AM 5.11 41.198 0.088 7.42 14.04 13.46
12/16/2021 10:45:00 AM 5.16 41.288 0.087 7.44 14.47 13.5
12/16/2021 11:00:00 AM 5.22 41.396 0.087 7.46 14.81 13.5
12/16/2021 11:15:00 AM 5.3 41.54 0.087 7.47 14.05 13.5
12/16/2021 11:30:00 AM 5.38 41.684 0.087 7.49 14.37 13.49
12/16/2021 11:45:00 AM 5.48 41.864 0.087 7.5 13.93 13.51
12/16/2021 12:00:00 PM 5.58 42.044 0.087 7.53 13.96 13.54
12/16/2021 12:15:00 PM 5.73 42.314 0.087 7.57 14.16 13.55
12/16/2021 12:30:00 PM 5.83 42.494 0.087 7.59 14.48 13.51
12/16/2021 12:45:00 PM 5.88 42.584 0.087 7.6 13.93 13.48
12/16/2021 1:00:00 PM 5.94 42.692 0.087 7.62 13.94 13.5
12/16/2021 1:15:00 PM 5.99 42.782 0.087 7.64 14.07 13.48
12/16/2021 1:30:00 PM 6.04 42.872 0.087 7.65 13.93 13.42
12/16/2021 1:45:00 PM 6.13 43.034 0.086 7.66 13.99 13.42
12/16/2021 2:00:00 PM 6.21 43.178 0.086 7.67 14.25 13.38
12/16/2021 2:15:00 PM 6.26 43.268 0.086 7.67 13.96 13.32
12/16/2021 2:30:00 PM 6.31 43.358 0.086 7.67 13.69 13.27
12/16/2021 2:45:00 PM 6.38 43.484 0.086 7.67 14.1 13.22
12/16/2021 3:00:00 PM 6.46 43.628 0.086 7.66 14.23 13.11
12/16/2021 3:15:00 PM 6.54 43.772 0.086 7.64 13.91 13.04
12/16/2021 3:30:00 PM 6.6 43.88 0.086 7.62 14.19 12.93
12/16/2021 3:45:00 PM 6.66 43.988 0.086 7.58 13.94 12.77
12/16/2021 4:00:00 PM 6.72 44.096 0.086 7.55 13.93 12.66
12/16/2021 4:15:00 PM 6.77 44.186 0.086 7.52 14.33 12.51
12/16/2021 4:30:00 PM 6.79 44.222 0.086 7.48 14.1 12.37
12/16/2021 4:45:00 PM 6.82 44.276 0.086 7.44 14.69 12.26
12/16/2021 5:00:00 PM 6.85 44.33 0.087 7.41 14.2 12.19
12/16/2021 5:15:00 PM 6.85 44.33 0.087 7.38 14.32 12.14
12/16/2021 5:30:00 PM 6.86 44.348 0.087 7.36 14.45 12.09
12/16/2021 5:45:00 PM 6.87 44.366 0.087 7.34 14.53 12.06
12/16/2021 6:00:00 PM 6.89 44.402 0.087 7.32 14.41 12.03
12/16/2021 6:15:00 PM 6.91 44.438 0.087 7.31 14.6 12.01
12/16/2021 6:30:00 PM 6.92 44.456 0.087 7.3 14.52 11.99
12/16/2021 6:45:00 PM 6.93 44.474 0.087 7.29 14.49 11.98
12/16/2021 7:00:00 PM 6.94 44.492 0.087 7.29 14.4 11.97
12/16/2021 7:15:00 PM 6.94 44.492 0.087 7.28 14.5 11.96
12/16/2021 7:30:00 PM 6.94 44.492 0.087 7.27 14.48 11.96
12/16/2021 7:45:00 PM 6.96 44.528 0.087 7.27 14.58 11.95
12/16/2021 8:00:00 PM 7.02 44.636 0.087 7.26 14.78 11.93
12/16/2021 8:15:00 PM 7.07 44.726 0.087 7.26 14.44 11.92
12/16/2021 8:30:00 PM 7.12 44.816 0.087 7.25 14.44 11.9
12/16/2021 8:45:00 PM 7.15 44.87 0.087 7.25 14.57 11.88
12/16/2021 9:00:00 PM 7.19 44.942 0.087 7.24 14.33 11.87
12/16/2021 9:15:00 PM 7.23 45.014 0.087 7.25 14.73 11.86
12/16/2021 9:30:00 PM 7.28 45.104 0.087 7.24 14.4 11.85
12/16/2021 9:45:00 PM 7.36 45.248 0.087 7.25 14.43 11.82
12/16/2021 10:00:00 PM 7.42 45.356 0.087 7.25 14.79 11.8
12/16/2021 10:15:00 PM 7.46 45.428 0.087 7.25 15.25 11.78
12/16/2021 10:30:00 PM 7.51 45.518 0.087 7.24 14.31 11.76
12/16/2021 10:45:00 PM 7.56 45.608 0.087 7.24 14.44 11.74
12/16/2021 11:00:00 PM 7.63 45.734 0.087 7.24 14.27 11.72
12/16/2021 11:15:00 PM 7.66 45.788 0.087 7.24 14.52 11.71
12/16/2021 11:30:00 PM 7.67 45.806 0.087 7.23 14.61 11.7
12/16/2021 11:45:00 PM 7.7 45.86 0.087 7.24 14.65 11.68
12/17/2021 12:00:00 AM 7.71 45.878 0.087 7.24 14.73 11.67
12/17/2021 12:15:00 AM 7.68 45.824 0.087 7.24 15 11.68
12/17/2021 12:30:00 AM 7.64 45.752 0.087 7.25 14.27 11.69
12/17/2021 12:45:00 AM 7.59 45.662 0.087 7.24 14.62 11.69
12/17/2021 1:00:00 AM 7.55 45.59 0.087 7.23 14.45 11.71
12/17/2021 1:15:00 AM 7.51 45.518 0.087 7.23 14.64 11.72
12/17/2021 1:30:00 AM 7.46 45.428 0.088 7.24 14.55 11.74
12/17/2021 1:45:00 AM 7.41 45.338 0.088 7.24 14.48 11.75
12/17/2021 2:00:00 AM 7.37 45.266 0.088 7.24 14.7 11.76
12/17/2021 2:15:00 AM 7.31 45.158 0.088 7.24 14.97 11.78
12/17/2021 2:30:00 AM 7.25 45.05 0.088 7.24 14.61 11.81
12/17/2021 2:45:00 AM 7.19 44.942 0.088 7.24 14.59 11.82
12/17/2021 3:00:00 AM 7.13 44.834 0.088 7.24 14.49 11.85
12/17/2021 3:15:00 AM 7.07 44.726 0.088 7.24 14.78 11.87
12/17/2021 3:30:00 AM 6.98 44.564 0.088 7.23 14.56 11.9
12/17/2021 3:45:00 AM 6.9 44.42 0.088 7.24 14.78 11.92
12/17/2021 4:00:00 AM 6.83 44.294 0.088 7.25 14.85 11.95
12/17/2021 4:15:00 AM 6.76 44.168 0.088 7.25 14.69 11.98
12/17/2021 4:30:00 AM 6.7 44.06 0.088 7.24 14.71 12
12/17/2021 4:45:00 AM 6.64 43.952 0.088 7.24 14.55 12.02
12/17/2021 5:00:00 AM 6.57 43.826 0.088 7.24 14.9 12.05
12/17/2021 5:15:00 AM 6.51 43.718 0.088 7.24 14.87 12.07
12/17/2021 5:30:00 AM 6.45 43.61 0.088 7.24 14.59 12.09
12/17/2021 5:45:00 AM 6.39 43.502 0.088 7.24 14.99 12.12
12/17/2021 6:00:00 AM 6.33 43.394 0.088 7.24 14.9 12.14
12/17/2021 6:15:00 AM 6.27 43.286 0.089 7.23 14.75 12.16
12/17/2021 6:30:00 AM 6.21 43.178 0.089 7.23 14.75 12.19
12/17/2021 6:45:00 AM 6.14 43.052 0.089 7.23 15.08 12.21
12/17/2021 7:00:00 AM 6.07 42.926 0.089 7.24 15.19 12.23
12/17/2021 7:15:00 AM 6 42.8 0.089 7.23 14.76 12.26
12/17/2021 7:30:00 AM 5.94 42.692 0.089 7.23 15.04 12.3
12/17/2021 7:45:00 AM 5.88 42.584 0.089 7.24 15.03 12.34
12/17/2021 8:00:00 AM 5.82 42.476 0.089 7.24 15.3 12.41
12/17/2021 8:15:00 AM 5.77 42.386 0.089 7.25 14.7 12.48
12/17/2021 8:30:00 AM 5.7 42.26 0.089 7.25 14.95 12.59
12/17/2021 8:45:00 AM 5.64 42.152 0.089 7.28 15.46 12.68
12/17/2021 9:00:00 AM 5.59 42.062 0.089 7.28 14.86 12.76
12/17/2021 9:15:00 AM 5.53 41.954 0.089 7.3 15.23 12.84
12/17/2021 9:30:00 AM 5.48 41.864 0.089 7.32 15.02 12.91
12/17/2021 9:45:00 AM 5.43 41.774 0.089 7.33 14.83 12.97
12/17/2021 10:00:00 AM 5.41 41.738 0.088 7.34 14.92 13.04
12/17/2021 10:15:00 AM 5.42 41.756 0.088 7.36 14.76 13.13
12/17/2021 10:30:00 AM 5.44 41.792 0.088 7.38 14.72 13.2
12/17/2021 10:45:00 AM 5.47 41.846 0.088 7.4 14.99 13.26
12/17/2021 11:00:00 AM 5.5 41.9 0.088 7.43 14.62 13.31
12/17/2021 11:15:00 AM 5.52 41.936 0.088 7.45 14.74 13.34
12/17/2021 11:30:00 AM 5.55 41.99 0.088 7.46 14.93 13.38
12/17/2021 11:45:00 AM 5.59 42.062 0.088 7.48 14.87 13.4
12/17/2021 12:00:00 PM 5.61 42.098 0.088 7.5 14.62 13.42
12/17/2021 12:15:00 PM 5.65 42.17 0.088 7.53 14.68 13.45
12/17/2021 12:30:00 PM 5.66 42.188 0.088 7.54 14.73 13.48
12/17/2021 12:45:00 PM 5.67 42.206 0.088 7.55 15.12 13.47
12/17/2021 1:00:00 PM 5.68 42.224 0.088 7.57 14.99 13.47
12/17/2021 1:15:00 PM 5.7 42.26 0.087 7.58 14.5 13.5
12/17/2021 1:30:00 PM 5.71 42.278 0.087 7.6 14.98 13.52
12/17/2021 1:45:00 PM 5.74 42.332 0.087 7.61 14.75 13.55
12/17/2021 2:00:00 PM 5.79 42.422 0.087 7.64 14.64 13.58
12/17/2021 2:15:00 PM 5.85 42.53 0.087 7.66 14.5 13.58
12/17/2021 2:30:00 PM 5.89 42.602 0.087 7.68 15.3 13.56
12/17/2021 2:45:00 PM 5.9 42.62 0.087 7.69 14.88 13.53
12/17/2021 3:00:00 PM 5.9 42.62 0.087 7.69 14.67 13.49
12/17/2021 3:15:00 PM 5.89 42.602 0.087 7.68 14.64 13.45
12/17/2021 3:30:00 PM 5.87 42.566 0.087 7.67 15.14 13.38
12/17/2021 3:45:00 PM 5.86 42.548 0.087 7.65 14.73 13.3
12/17/2021 4:00:00 PM 5.85 42.53 0.087 7.62 14.41 13.2
12/17/2021 4:15:00 PM 5.84 42.512 0.087 7.58 14.52 13.09
12/17/2021 4:30:00 PM 5.83 42.494 0.087 7.54 14.42 12.95
12/17/2021 4:45:00 PM 5.82 42.476 0.087 7.5 14.36 12.81
12/17/2021 5:00:00 PM 5.8 42.44 0.087 7.45 14.7 12.71
12/17/2021 5:15:00 PM 5.78 42.404 0.087 7.42 15.64 12.63
12/17/2021 5:30:00 PM 5.75 42.35 0.087 7.39 14.96 12.59
12/17/2021 5:45:00 PM 5.72 42.296 0.087 7.37 14.9 12.55
12/17/2021 6:00:00 PM 5.69 42.242 0.087 7.34 14.83 12.54
12/17/2021 6:15:00 PM 5.65 42.17 0.088 7.33 15.19 12.54
12/17/2021 6:30:00 PM 5.61 42.098 0.088 7.31 14.88 12.53
12/17/2021 6:45:00 PM 5.57 42.026 0.088 7.3 14.99 12.53
12/17/2021 7:00:00 PM 5.53 41.954 0.088 7.29 14.89 12.54
12/17/2021 7:15:00 PM 5.48 41.864 0.088 7.28 14.93 12.55
12/17/2021 7:30:00 PM 5.44 41.792 0.088 7.28 15.03 12.56
12/17/2021 7:45:00 PM 5.4 41.72 0.088 7.27 15 12.58
12/17/2021 8:00:00 PM 5.36 41.648 0.088 7.26 15.12 12.58
12/17/2021 8:15:00 PM 5.31 41.558 0.088 7.26 15.03 12.6
12/17/2021 8:30:00 PM 5.27 41.486 0.088 7.25 15.11 12.61
12/17/2021 8:45:00 PM 5.23 41.414 0.088 7.25 15.56 12.62
12/17/2021 9:00:00 PM 5.19 41.342 0.088 7.24 15.04 12.64
12/17/2021 9:15:00 PM 5.14 41.252 0.088 7.24 15.13 12.65
12/17/2021 9:30:00 PM 5.1 41.18 0.088 7.24 15.09 12.66
12/17/2021 9:45:00 PM 5.06 41.108 0.088 7.24 15.98 12.68
12/17/2021 10:00:00 PM 5.02 41.036 0.088 7.24 15.23 12.69
12/17/2021 10:15:00 PM 4.99 40.982 0.088 7.24 15.94 12.7
12/17/2021 10:30:00 PM 4.97 40.946 0.089 7.23 16.07 12.72
12/17/2021 10:45:00 PM 4.95 40.91 0.089 7.23 15.64 12.72
12/17/2021 11:00:00 PM 4.93 40.874 0.089 7.23 15.51 12.73
12/17/2021 11:15:00 PM 4.92 40.856 0.089 7.23 15.69 12.74
12/17/2021 11:30:00 PM 4.9 40.82 0.089 7.23 15.3 12.75
12/17/2021 11:45:00 PM 4.89 40.802 0.089 7.23 15.52 12.75
12/18/2021 12:00:00 AM 4.87 40.766 0.089 7.23 15.5 12.75
12/18/2021 12:15:00 AM 4.86 40.748 0.089 7.22 15.31 12.76
12/18/2021 12:30:00 AM 4.85 40.73 0.089 7.22 15.58 12.76
12/18/2021 12:45:00 AM 4.85 40.73 0.089 7.22 15.57 12.76
12/18/2021 1:00:00 AM 4.84 40.712 0.089 7.22 14.74 12.77
12/18/2021 1:15:00 AM 4.83 40.694 0.089 7.23 15.49 12.77
12/18/2021 1:30:00 AM 4.82 40.676 0.089 7.22 15.36 12.77
12/18/2021 1:45:00 AM 4.81 40.658 0.089 7.22 15.18 12.77
12/18/2021 2:00:00 AM 4.8 40.64 0.089 7.22 15.42 12.77
12/18/2021 2:15:00 AM 4.8 40.64 0.089 7.22 15.33 12.78
12/18/2021 2:30:00 AM 4.79 40.622 0.089 7.22 15.46 12.78
12/18/2021 2:45:00 AM 4.78 40.604 0.089 7.22 15.4 12.79
12/18/2021 3:00:00 AM 4.77 40.586 0.089 7.22 15.64 12.78
12/18/2021 3:15:00 AM 4.77 40.586 0.089 7.22 15.59 12.78
12/18/2021 3:30:00 AM 4.76 40.568 0.089 7.22 15.65 12.79
12/18/2021 3:45:00 AM 4.76 40.568 0.089 7.22 15.34 12.79
12/18/2021 4:00:00 AM 4.76 40.568 0.089 7.22 15.67 12.79
12/18/2021 4:15:00 AM 4.76 40.568 0.089 7.22 15.58 12.79
12/18/2021 4:30:00 AM 4.76 40.568 0.089 7.22 15.51 12.79
12/18/2021 4:45:00 AM 4.76 40.568 0.089 7.22 15.38 12.79
12/18/2021 5:00:00 AM 4.75 40.55 0.089 7.22 15.49 12.79
12/18/2021 5:15:00 AM 4.75 40.55 0.089 7.22 15.73 12.79
12/18/2021 5:30:00 AM 4.75 40.55 0.089 7.22 16.18 12.79
12/18/2021 5:45:00 AM 4.75 40.55 0.089 7.22 15.81 12.79
12/18/2021 6:00:00 AM 4.75 40.55 0.089 7.22 16.15 12.79
12/18/2021 6:15:00 AM 4.75 40.55 0.089 7.22 17.25 12.79
12/18/2021 6:30:00 AM 4.74 40.532 0.089 7.22 16.3 12.78
12/18/2021 6:45:00 AM 4.74 40.532 0.089 7.23 16.34 12.78
12/18/2021 7:00:00 AM 4.73 40.514 0.09 7.23 16.6 12.79
12/18/2021 7:15:00 AM 4.73 40.514 0.09 7.23 17.92 12.79
12/18/2021 7:30:00 AM 4.72 40.496 0.09 7.23 17.46 12.79
12/18/2021 7:45:00 AM 4.71 40.478 0.09 7.23 16.84 12.81
12/18/2021 8:00:00 AM 4.7 40.46 0.089 7.23 16.37 12.83
12/18/2021 8:15:00 AM 4.7 40.46 0.089 7.24 16.29 12.88
12/18/2021 8:30:00 AM 4.7 40.46 0.089 7.25 17.03 12.95
12/18/2021 8:45:00 AM 4.7 40.46 0.089 7.26 16.43 13
12/18/2021 9:00:00 AM 4.7 40.46 0.089 7.28 16.39 13.08
12/18/2021 9:15:00 AM 4.7 40.46 0.089 7.29 16.14 13.16
12/18/2021 9:30:00 AM 4.71 40.478 0.089 7.31 16.81 13.24
12/18/2021 9:45:00 AM 4.72 40.496 0.089 7.33 16.51 13.33
12/18/2021 10:00:00 AM 4.73 40.514 0.089 7.35 17.34 13.35
12/18/2021 10:15:00 AM 4.73 40.514 0.089 7.36 16.66 13.34
12/18/2021 10:30:00 AM 4.74 40.532 0.088 7.37 15.71 13.38
12/18/2021 10:45:00 AM 4.76 40.568 0.088 7.39 16.1 13.48
12/18/2021 11:00:00 AM 4.77 40.586 0.088 7.41 16.04 13.49
12/18/2021 11:15:00 AM 4.78 40.604 0.088 7.43 15.67 13.53
12/18/2021 11:30:00 AM 4.79 40.622 0.088 7.44 15.91 13.47
12/18/2021 11:45:00 AM 4.8 40.64 0.088 7.44 16.09 13.46
12/18/2021 12:00:00 PM 4.82 40.676 0.088 7.46 15.78 13.55
12/18/2021 12:15:00 PM 4.83 40.694 0.088 7.49 15.42 13.6
12/18/2021 12:30:00 PM 4.83 40.694 0.087 7.49 16.02 13.54
12/18/2021 12:45:00 PM 4.83 40.694 0.087 7.49 15.63 13.49
12/18/2021 1:00:00 PM 4.84 40.712 0.087 7.49 15.85 13.46
12/18/2021 1:15:00 PM 4.84 40.712 0.087 7.48 15.89 13.39
12/18/2021 1:30:00 PM 4.84 40.712 0.087 7.47 15.7 13.35
12/18/2021 1:45:00 PM 4.84 40.712 0.087 7.46 15.85 13.29
12/18/2021 2:00:00 PM 4.84 40.712 0.087 7.45 15.64 13.27
12/18/2021 2:15:00 PM 4.84 40.712 0.087 7.44 15.87 13.25
12/18/2021 2:30:00 PM 4.85 40.73 0.087 7.44 16.01 13.26
12/18/2021 2:45:00 PM 4.86 40.748 0.087 7.45 16.07 13.32
12/18/2021 3:00:00 PM 4.87 40.766 0.087 7.44 15.92 13.27
12/18/2021 3:15:00 PM 4.87 40.766 0.087 7.43 15.98 13.18
12/18/2021 3:30:00 PM 4.87 40.766 0.087 7.42 16.21 13.12
12/18/2021 3:45:00 PM 4.87 40.766 0.087 7.4 15.87 13.03
12/18/2021 4:00:00 PM 4.86 40.748 0.087 7.38 16.22 12.97
12/18/2021 4:15:00 PM 4.87 40.766 0.087 7.37 16.1 12.9
12/18/2021 4:30:00 PM 4.87 40.766 0.087 7.35 16.03 12.84
12/18/2021 4:45:00 PM 4.87 40.766 0.087 7.33 16.38 12.79
12/18/2021 5:00:00 PM 4.88 40.784 0.087 7.31 16.52 12.74
12/18/2021 5:15:00 PM 4.88 40.784 0.087 7.3 16.55 12.72
12/18/2021 5:30:00 PM 4.89 40.802 0.088 7.29 16.51 12.69
12/18/2021 5:45:00 PM 4.89 40.802 0.088 7.28 16.23 12.67
12/18/2021 6:00:00 PM 4.9 40.82 0.088 7.27 16.5 12.67
12/18/2021 6:15:00 PM 4.9 40.82 0.088 7.27 18.04 12.66
12/18/2021 6:30:00 PM 4.91 40.838 0.088 7.26 16.08 12.65
12/18/2021 6:45:00 PM 4.91 40.838 0.088 7.26 16.46 12.64
12/18/2021 7:00:00 PM 4.92 40.856 0.088 7.25 16.56 12.64
12/18/2021 7:15:00 PM 4.92 40.856 0.089 7.25 16.84 12.63
12/18/2021 7:30:00 PM 4.93 40.874 0.089 7.25 16.58 12.63
12/18/2021 7:45:00 PM 4.94 40.892 0.089 7.24 16.39 12.63
12/18/2021 8:00:00 PM 4.95 40.91 0.089 7.24 15.66 12.62
12/18/2021 8:15:00 PM 4.95 40.91 0.09 7.24 16.53 12.62
12/18/2021 8:30:00 PM 4.96 40.928 0.09 7.23 16.52 12.61
12/18/2021 8:45:00 PM 4.97 40.946 0.09 7.24 16.66 12.61
12/18/2021 9:00:00 PM 4.97 40.946 0.09 7.24 16.86 12.61
12/18/2021 9:15:00 PM 4.98 40.964 0.09 7.24 16.81 12.6
12/18/2021 9:30:00 PM 4.99 40.982 0.091 7.23 16.75 12.6
12/18/2021 9:45:00 PM 4.99 40.982 0.091 7.23 16.37 12.6
12/18/2021 10:00:00 PM 4.99 40.982 0.091 7.23 16.87 12.6
12/18/2021 10:15:00 PM 5 41 0.091 7.23 16.79 12.6
12/18/2021 10:30:00 PM 5 41 0.092 7.23 16.72 12.6
12/18/2021 10:45:00 PM 5 41 0.092 7.23 16.77 12.6
12/18/2021 11:00:00 PM 5.01 41.018 0.093 7.24 16.89 12.61
12/18/2021 11:15:00 PM 5.01 41.018 0.093 7.23 16.52 12.6
12/18/2021 11:30:00 PM 5.02 41.036 0.094 7.23 16.65 12.6
12/18/2021 11:45:00 PM 5.02 41.036 0.094 7.23 16.88 12.6
12/19/2021 12:00:00 AM 5.02 41.036 0.095 7.23 16.8 12.59
12/19/2021 12:15:00 AM 5.03 41.054 0.095 7.23 17.25 12.6
12/19/2021 12:30:00 AM 5.03 41.054 0.095 7.23 16.37 12.6
12/19/2021 12:45:00 AM 5.02 41.036 0.096 7.24 16.79 12.6
12/19/2021 1:00:00 AM 5.01 41.018 0.096 7.24 17.2 12.61
12/19/2021 1:15:00 AM 5 41 0.096 7.23 17.12 12.62
12/19/2021 1:30:00 AM 4.98 40.964 0.096 7.24 16.64 12.63
12/19/2021 1:45:00 AM 4.97 40.946 0.097 7.24 16.67 12.63
12/19/2021 2:00:00 AM 4.95 40.91 0.097 7.24 17.24 12.64
12/19/2021 2:15:00 AM 4.92 40.856 0.097 7.24 31.57 12.65
12/19/2021 2:30:00 AM 4.91 40.838 0.097 7.25 16.96 12.67
12/19/2021 2:45:00 AM 4.88 40.784 0.097 7.25 17.07 12.68
12/19/2021 3:00:00 AM 4.85 40.73 0.097 7.24 16.77 12.69
12/19/2021 3:15:00 AM 4.8 40.64 0.097 7.24 17.23 12.71
12/19/2021 3:30:00 AM 4.77 40.586 0.098 7.25 16.67 12.72
12/19/2021 3:45:00 AM 4.73 40.514 0.098 7.25 16.87 12.74
12/19/2021 4:00:00 AM 4.67 40.406 0.098 7.25 16.69 12.76
12/19/2021 4:15:00 AM 4.63 40.334 0.098 7.25 16.54 12.77
12/19/2021 4:30:00 AM 4.61 40.298 0.099 7.25 17.19 12.78
12/19/2021 4:45:00 AM 4.58 40.244 0.099 7.24 16.98 12.8
12/19/2021 5:00:00 AM 4.55 40.19 0.099 7.25 17.8 12.81
12/19/2021 5:15:00 AM 4.52 40.136 0.099 7.26 17.08 12.83
12/19/2021 5:30:00 AM 4.5 40.1 0.1 7.26 16.97 12.84
12/19/2021 5:45:00 AM 4.48 40.064 0.1 7.25 16.65 12.85
12/19/2021 6:00:00 AM 4.45 40.01 0.101 7.25 17.36 12.86
12/19/2021 6:15:00 AM 4.43 39.974 0.101 7.26 16.86 12.87
12/19/2021 6:30:00 AM 4.4 39.92 0.102 7.25 17.42 12.88
12/19/2021 6:45:00 AM 4.38 39.884 0.102 7.25 16.26 12.89
12/19/2021 7:00:00 AM 4.36 39.848 0.102 7.26 17.03 12.91
12/19/2021 7:15:00 AM 4.32 39.776 0.103 7.26 17.21 12.92
12/19/2021 7:30:00 AM 4.3 39.74 0.103 7.26 17.85 12.93
12/19/2021 7:45:00 AM 4.28 39.704 0.103 7.27 17.29 12.95
12/19/2021 8:00:00 AM 4.25 39.65 0.104 7.26 17.43 12.98
12/19/2021 8:15:00 AM 4.23 39.614 0.104 7.27 16.95 13.01
12/19/2021 8:30:00 AM 4.2 39.56 0.104 7.28 16.88 13.04
12/19/2021 8:45:00 AM 4.18 39.524 0.104 7.28 16.75 13.07
12/19/2021 9:00:00 AM 4.16 39.488 0.104 7.28 16.88 13.18
12/19/2021 9:15:00 AM 4.16 39.488 0.104 7.31 17.07 13.33
12/19/2021 9:30:00 AM 4.14 39.452 0.104 7.33 16.41 13.44
12/19/2021 9:45:00 AM 4.12 39.416 0.103 7.36 16.83 13.56
12/19/2021 10:00:00 AM 4.1 39.38 0.103 7.38 16.63 13.67
12/19/2021 10:15:00 AM 4.09 39.362 0.103 7.41 16.5 13.76
12/19/2021 10:30:00 AM 4.11 39.398 0.103 7.44 16.82 13.84
12/19/2021 10:45:00 AM 4.12 39.416 0.103 7.46 17.09 13.93
12/19/2021 11:00:00 AM 4.12 39.416 0.102 7.49 16.74 13.98
12/19/2021 11:15:00 AM 4.16 39.488 0.102 7.52 16.76 14.04
12/19/2021 11:30:00 AM 4.17 39.506 0.102 7.54 16.96 14.06
12/19/2021 11:45:00 AM 4.21 39.578 0.102 7.56 16.55 14.07
12/19/2021 12:00:00 PM 4.25 39.65 0.102 7.58 16.33 14.09
12/19/2021 12:15:00 PM 4.31 39.758 0.102 7.6 16.41 14.11
12/19/2021 12:30:00 PM 4.3 39.74 0.102 7.61 16.9 14.09
12/19/2021 12:45:00 PM 4.3 39.74 0.102 7.62 16.45 14.04
12/19/2021 1:00:00 PM 4.38 39.884 0.102 7.63 16.34 14.06
12/19/2021 1:15:00 PM 4.39 39.902 0.102 7.64 16.41 14.01
12/19/2021 1:30:00 PM 4.4 39.92 0.102 7.64 16.25 14
12/19/2021 1:45:00 PM 4.41 39.938 0.102 7.65 16.48 13.97
12/19/2021 2:00:00 PM 4.42 39.956 0.102 7.65 16.05 13.95
12/19/2021 2:15:00 PM 4.44 39.992 0.102 7.66 16.43 13.95
12/19/2021 2:30:00 PM 4.45 40.01 0.101 7.65 16.27 13.91
12/19/2021 2:45:00 PM 4.49 40.082 0.101 7.65 16.43 13.9
12/19/2021 3:00:00 PM 4.5 40.1 0.101 7.64 16.64 13.84
12/19/2021 3:15:00 PM 4.47 40.046 0.101 7.63 16.34 13.78
12/19/2021 3:30:00 PM 4.42 39.956 0.101 7.61 29.18 13.74
12/19/2021 3:45:00 PM 4.34 39.812 0.101 7.6 16.2 13.69
12/19/2021 4:00:00 PM 4.27 39.686 0.101 7.57 16.52 13.63
12/19/2021 4:15:00 PM 4.17 39.506 0.101 7.54 16.56 13.57
12/19/2021 4:30:00 PM 4.07 39.326 0.101 7.51 16.26 13.51
12/19/2021 4:45:00 PM 3.99 39.182 0.101 7.48 16.73 13.44
12/19/2021 5:00:00 PM 3.9 39.02 0.101 7.45 16.27 13.39
12/19/2021 5:15:00 PM 3.83 38.894 0.101 7.42 16.5 13.35
12/19/2021 5:30:00 PM 3.76 38.768 0.101 7.4 16.55 13.33
12/19/2021 5:45:00 PM 3.69 38.642 0.101 7.38 16.54 13.31
12/19/2021 6:00:00 PM 3.62 38.516 0.101 7.36 16.52 13.32
12/19/2021 6:15:00 PM 3.56 38.408 0.101 7.35 16.65 13.33
12/19/2021 6:30:00 PM 3.49 38.282 0.1 7.34 16.45 13.33
12/19/2021 6:45:00 PM 3.44 38.192 0.1 7.33 16.67 13.35
12/19/2021 7:00:00 PM 3.4 38.12 0.1 7.32 16.61 13.36
12/19/2021 7:15:00 PM 3.36 38.048 0.1 7.32 16.77 13.37
12/19/2021 7:30:00 PM 3.31 37.958 0.1 7.31 16.92 13.38
12/19/2021 7:45:00 PM 3.28 37.904 0.1 7.3 16.55 13.4
12/19/2021 8:00:00 PM 3.24 37.832 0.1 7.3 16.76 13.41
12/19/2021 8:15:00 PM 3.19 37.742 0.1 7.29 16.77 13.43
12/19/2021 8:30:00 PM 3.14 37.652 0.1 7.29 16.95 13.45
12/19/2021 8:45:00 PM 3.08 37.544 0.1 7.28 16.95 13.47
12/19/2021 9:00:00 PM 3.02 37.436 0.1 7.28 16.58 13.49
12/19/2021 9:15:00 PM 2.97 37.346 0.099 7.27 16.93 13.5
12/19/2021 9:30:00 PM 2.92 37.256 0.099 7.27 17.28 13.52
12/19/2021 9:45:00 PM 2.87 37.166 0.099 7.27 16.78 13.54
12/19/2021 10:00:00 PM 2.82 37.076 0.099 7.26 17 13.56
12/19/2021 10:15:00 PM 2.76 36.968 0.099 7.27 16.99 13.58
12/19/2021 10:30:00 PM 2.71 36.878 0.099 7.26 17.24 13.6
12/19/2021 10:45:00 PM 2.67 36.806 0.099 7.26 16.75 13.62
12/19/2021 11:00:00 PM 2.62 36.716 0.099 7.26 16.77 13.64
12/19/2021 11:15:00 PM 2.57 36.626 0.099 7.25 16.8 13.67
12/19/2021 11:30:00 PM 2.51 36.518 0.099 7.26 17.62 13.69
12/19/2021 11:45:00 PM 2.47 36.446 0.099 7.25 17.13 13.7
12/20/2021 12:00:00 AM 2.42 36.356 0.099 7.25 16.99 13.72
12/20/2021 12:15:00 AM 2.38 36.284 0.099 7.25 17.01 13.74
12/20/2021 12:30:00 AM 2.33 36.194 0.099 7.24 16.73 13.76
12/20/2021 12:45:00 AM 2.28 36.104 0.099 7.25 17.31 13.78
12/20/2021 1:00:00 AM 2.23 36.014 0.099 7.24 16.84 13.8
12/20/2021 1:15:00 AM 2.18 35.924 0.099 7.25 17.35 13.82
12/20/2021 1:30:00 AM 2.13 35.834 0.099 7.25 17.03 13.84
12/20/2021 1:45:00 AM 2.08 35.744 0.099 7.25 16.91 13.86
12/20/2021 2:00:00 AM 2.05 35.69 0.099 7.24 16.7 13.87
12/20/2021 2:15:00 AM 2 35.6 0.099 7.24 17.04 13.9
12/20/2021 2:30:00 AM 1.96 35.528 0.099 7.24 16.89 13.92
12/20/2021 2:45:00 AM 1.92 35.456 0.099 7.24 17.01 13.93
12/20/2021 3:00:00 AM 1.87 35.366 0.098 7.24 17.23 13.95
12/20/2021 3:15:00 AM 1.82 35.276 0.098 7.24 17.04 13.97
12/20/2021 3:30:00 AM 1.78 35.204 0.098 7.24 16.67 13.99
12/20/2021 3:45:00 AM 1.74 35.132 0.098 7.24 16.93 14
12/20/2021 4:00:00 AM 1.69 35.042 0.098 7.24 17.21 14.03
12/20/2021 4:15:00 AM 1.64 34.952 0.098 7.23 17.06 14.05
12/20/2021 4:30:00 AM 1.6 34.88 0.098 7.24 16.81 14.06
12/20/2021 4:45:00 AM 1.55 34.79 0.098 7.24 16.83 14.09
12/20/2021 5:00:00 AM 1.51 34.718 0.098 7.23 17.16 14.11
12/20/2021 5:15:00 AM 1.47 34.646 0.098 7.23 17.6 14.12
12/20/2021 5:30:00 AM 1.43 34.574 0.098 7.23 17.2 14.14
12/20/2021 5:45:00 AM 1.4 34.52 0.098 7.24 17.02 14.15
12/20/2021 6:00:00 AM 1.36 34.448 0.098 7.24 16.9 14.17
12/20/2021 6:15:00 AM 1.32 34.376 0.098 7.23 17.65 14.19
12/20/2021 6:30:00 AM 1.28 34.304 0.098 7.23 17.27 14.21
12/20/2021 6:45:00 AM 1.25 34.25 0.098 7.23 17.23 14.23
12/20/2021 7:00:00 AM 1.21 34.178 0.098 7.23 17.72 14.24
12/20/2021 7:15:00 AM 1.17 34.106 0.098 7.23 16.75 14.26
12/20/2021 7:30:00 AM 1.14 34.052 0.098 7.23 18.09 14.29
12/20/2021 7:45:00 AM 1.1 33.98 0.098 7.24 17.12 14.33
12/20/2021 8:00:00 AM 1.07 33.926 0.098 7.24 17.59 14.4
12/20/2021 8:15:00 AM 1.04 33.872 0.098 7.25 17.12 14.48
12/20/2021 8:30:00 AM 1.01 33.818 0.098 7.26 17.13 14.57
12/20/2021 8:45:00 AM 0.98 33.764 0.098 7.27 17.28 14.65
12/20/2021 9:00:00 AM 0.97 33.746 0.098 7.29 17.12 14.73
12/20/2021 9:15:00 AM 0.96 33.728 0.097 7.31 17.37 14.8
12/20/2021 9:30:00 AM 0.95 33.71 0.097 7.32 16.98 14.86
12/20/2021 9:45:00 AM 0.94 33.692 0.097 7.33 16.98 14.91
12/20/2021 10:00:00 AM 0.95 33.71 0.097 7.34 17.24 14.94
12/20/2021 10:15:00 AM 0.98 33.764 0.097 7.35 17.33 14.99
12/20/2021 10:30:00 AM 1.02 33.836 0.097 7.37 17.9 15.02
12/20/2021 10:45:00 AM 1.07 33.926 0.097 7.38 17.19 15.05
12/20/2021 11:00:00 AM 1.14 34.052 0.097 7.39 17.13 15.05
12/20/2021 11:15:00 AM 1.19 34.142 0.096 7.39 17.04 15.06
12/20/2021 11:30:00 AM 1.26 34.268 0.096 7.36 16.85 15.06
12/20/2021 11:45:00 AM 1.34 34.412 0.096 7.42 16.99 15.05
12/20/2021 12:00:00 PM 1.42 34.556 0.096 7.44 17.11 15.04
12/20/2021 12:15:00 PM 1.5 34.7 0.096 7.45 17.25 15.02
12/20/2021 12:30:00 PM 1.58 34.844 0.096 7.45 16.95 15
12/20/2021 12:45:00 PM 1.65 34.97 0.095 7.46 17.02 14.98
12/20/2021 1:00:00 PM 1.72 35.096 0.095 7.46 16.82 14.96
12/20/2021 1:15:00 PM 1.78 35.204 0.095 7.47 17.46 14.88
12/20/2021 1:30:00 PM 1.83 35.294 0.095 7.47 17.16 14.84
12/20/2021 1:45:00 PM 1.88 35.384 0.095 7.47 16.95 14.8
12/20/2021 2:00:00 PM 1.94 35.492 0.095 7.47 16.71 14.75
12/20/2021 2:15:00 PM 2 35.6 0.095 7.48 16.92 14.69
12/20/2021 2:30:00 PM 2.05 35.69 0.094 7.47 17.09 14.64
12/20/2021 2:45:00 PM 2.11 35.798 0.094 7.47 17.06 14.59
12/20/2021 3:00:00 PM 2.15 35.87 0.094 7.46 16.88 14.54
12/20/2021 3:15:00 PM 2.18 35.924 0.094 7.46 16.7 14.51
12/20/2021 3:30:00 PM 2.19 35.942 0.094 7.45 17.33 14.46
12/20/2021 3:45:00 PM 2.19 35.942 0.094 7.45 17.24 14.41
12/20/2021 4:00:00 PM 2.19 35.942 0.094 7.45 16.89 14.36
12/20/2021 4:15:00 PM 2.18 35.924 0.094 7.43 16.68 14.31
12/20/2021 4:30:00 PM 2.16 35.888 0.094 7.42 17.15 14.24
12/20/2021 4:45:00 PM 2.14 35.852 0.094 7.4 17.21 14.16
12/20/2021 5:00:00 PM 2.12 35.816 0.094 7.38 17.02 14.08
12/20/2021 5:15:00 PM 2.09 35.762 0.094 7.37 17.37 14.03
12/20/2021 5:30:00 PM 2.06 35.708 0.094 7.33 17 13.98
12/20/2021 5:45:00 PM 2.05 35.69 0.094 7.33 17.48 13.96
12/20/2021 6:00:00 PM 2.03 35.654 0.094 7.32 17.21 13.93
12/20/2021 6:15:00 PM 2.02 35.636 0.094 7.31 17.23 13.92
12/20/2021 6:30:00 PM 2 35.6 0.094 7.3 17.03 13.9
12/20/2021 6:45:00 PM 1.98 35.564 0.094 7.29 17.05 13.9
12/20/2021 7:00:00 PM 1.97 35.546 0.095 7.3 17.45 13.9
12/20/2021 7:15:00 PM 1.95 35.51 0.095 7.28 17.12 13.9
12/20/2021 7:30:00 PM 1.94 35.492 0.095 7.29 17.55 13.9
12/20/2021 7:45:00 PM 1.93 35.474 0.095 7.27 17 13.89
12/20/2021 8:00:00 PM 1.91 35.438 0.095 7.27 17.4 13.89
12/20/2021 8:15:00 PM 1.89 35.402 0.095 7.27 17.83 13.9
12/20/2021 8:30:00 PM 1.87 35.366 0.095 7.27 17.09 13.9
12/20/2021 8:45:00 PM 1.85 35.33 0.095 7.26 17.19 13.92
12/20/2021 9:00:00 PM 1.82 35.276 0.095 7.26 17.48 13.92
12/20/2021 9:15:00 PM 1.79 35.222 0.095 7.25 17.32 13.94
12/20/2021 9:30:00 PM 1.76 35.168 0.095 7.25 17.81 13.95
12/20/2021 9:45:00 PM 1.73 35.114 0.095 7.26 17.52 13.96
12/20/2021 10:00:00 PM 1.69 35.042 0.095 7.25 17.45 13.97
12/20/2021 10:15:00 PM 1.66 34.988 0.095 7.26 17.56 13.99
12/20/2021 10:30:00 PM 1.62 34.916 0.095 7.25 17.72 14
12/20/2021 10:45:00 PM 1.58 34.844 0.095 7.25 17.58 14.01
12/20/2021 11:00:00 PM 1.55 34.79 0.095 7.24 17.41 14.02
12/20/2021 11:15:00 PM 1.52 34.736 0.095 7.24 17.32 14.03
12/20/2021 11:30:00 PM 1.48 34.664 0.095 7.24 17.75 14.05
12/20/2021 11:45:00 PM 1.45 34.61 0.095 7.24 17.46 14.06
12/21/2021 12:00:00 AM 1.41 34.538 0.095 7.24 17.17 14.07
12/21/2021 12:15:00 AM 1.38 34.484 0.095 7.24 17.78 14.08
12/21/2021 12:30:00 AM 1.35 34.43 0.095 7.24 17.54 14.09
12/21/2021 12:45:00 AM 1.32 34.376 0.095 7.24 17.14 14.11
12/21/2021 1:00:00 AM 1.29 34.322 0.095 7.24 17.53 14.13
12/21/2021 1:15:00 AM 1.26 34.268 0.095 7.24 17.66 14.14
12/21/2021 1:30:00 AM 1.23 34.214 0.095 7.24 18.16 14.14
12/21/2021 1:45:00 AM 1.2 34.16 0.095 7.24 17.46 14.15
12/21/2021 2:00:00 AM 1.18 34.124 0.095 7.24 17.39 14.17
12/21/2021 2:15:00 AM 1.15 34.07 0.095 7.24 17.59 14.17
12/21/2021 2:30:00 AM 1.12 34.016 0.095 7.23 17.23 14.18
12/21/2021 2:45:00 AM 1.09 33.962 0.095 7.23 17.78 14.19
12/21/2021 3:00:00 AM 1.07 33.926 0.095 7.24 17.37 14.21
12/21/2021 3:15:00 AM 1.04 33.872 0.095 7.23 17.72 14.22
12/21/2021 3:30:00 AM 1.02 33.836 0.095 7.23 17.8 14.23
12/21/2021 3:45:00 AM 0.99 33.782 0.095 7.23 17.4 14.24
12/21/2021 4:00:00 AM 0.97 33.746 0.095 7.23 17.39 14.25
12/21/2021 4:15:00 AM 0.94 33.692 0.095 7.23 17.21 14.27
12/21/2021 4:30:00 AM 0.91 33.638 0.095 7.23 17.25 14.27
12/21/2021 4:45:00 AM 0.89 33.602 0.095 7.24 17.27 14.29
12/21/2021 5:00:00 AM 0.86 33.548 0.095 7.23 17.4 14.3
12/21/2021 5:15:00 AM 0.83 33.494 0.095 7.24 17.88 14.31
12/21/2021 5:30:00 AM 0.81 33.458 0.095 7.23 17.23 14.32
12/21/2021 5:45:00 AM 0.79 33.422 0.095 7.23 17.35 14.32
12/21/2021 6:00:00 AM 0.77 33.386 0.095 7.23 17.54 14.33
12/21/2021 6:15:00 AM 0.78 33.404 0.095 7.23 17.6 14.34
12/21/2021 6:30:00 AM 0.8 33.44 0.095 7.23 17.66 14.35
12/21/2021 6:45:00 AM 0.82 33.476 0.095 7.23 17.5 14.35
12/21/2021 7:00:00 AM 0.83 33.494 0.095 7.23 17.36 14.34
12/21/2021 7:15:00 AM 0.85 33.53 0.096 7.23 17.37 14.34
12/21/2021 7:30:00 AM 0.86 33.548 0.095 7.23 17.58 14.34
12/21/2021 7:45:00 AM 0.88 33.584 0.095 7.23 17.83 14.35
12/21/2021 8:00:00 AM 0.9 33.62 0.095 7.23 17.26 14.38
12/21/2021 8:15:00 AM 0.92 33.656 0.095 7.24 17.39 14.43
12/21/2021 8:30:00 AM 0.95 33.71 0.095 7.25 17.73 14.46
12/21/2021 8:45:00 AM 0.98 33.764 0.095 7.26 17.31 14.49
12/21/2021 9:00:00 AM 1.01 33.818 0.095 7.27 17.54 14.55
12/21/2021 9:15:00 AM 1.04 33.872 0.095 7.28 17.63 14.62
12/21/2021 9:30:00 AM 1.08 33.944 0.095 7.3 17.37 14.72
12/21/2021 9:45:00 AM 1.13 34.034 0.095 7.31 17.28 14.79
12/21/2021 10:00:00 AM 1.19 34.142 0.094 7.33 17.59 14.89
12/21/2021 10:15:00 AM 1.28 34.304 0.094 7.36 17.58 14.97
12/21/2021 10:30:00 AM 1.38 34.484 0.094 7.38 17.53 15.02
12/21/2021 10:45:00 AM 1.46 34.628 0.094 7.41 17.75 15.03
12/21/2021 11:00:00 AM 1.55 34.79 0.094 7.42 17.32 15.03
12/21/2021 11:15:00 AM 1.67 35.006 0.093 7.45 17.12 15.02
12/21/2021 11:30:00 AM 1.75 35.15 0.093 7.45 17.13 14.99
12/21/2021 11:45:00 AM 1.84 35.312 0.093 7.47 17.04 14.96
12/21/2021 12:00:00 PM 1.94 35.492 0.093 7.48 17.13 14.95
12/21/2021 12:15:00 PM 2.05 35.69 0.093 7.49 17 14.91
12/21/2021 12:30:00 PM 2.22 35.996 0.093 7.51 17 14.9
12/21/2021 12:45:00 PM 2.32 36.176 0.092 7.52 17.23 14.82
12/21/2021 1:00:00 PM 2.37 36.266 0.092 7.53 17.05 14.77
12/21/2021 1:15:00 PM 2.47 36.446 0.092 7.54 17.96 14.72
12/21/2021 1:30:00 PM 2.55 36.59 0.092 7.55 16.95 14.66
12/21/2021 1:45:00 PM 2.58 36.644 0.092 7.55 17.37 14.58
12/21/2021 2:00:00 PM 2.57 36.626 0.092 7.54 17.28 14.52
12/21/2021 2:15:00 PM 2.55 36.59 0.092 7.53 17.14 14.46
12/21/2021 2:30:00 PM 2.57 36.626 0.092 7.53 16.79 14.4
12/21/2021 2:45:00 PM 2.63 36.734 0.092 7.53 17.11 14.36
12/21/2021 3:00:00 PM 2.69 36.842 0.092 7.51 17.09 14.32
12/21/2021 3:15:00 PM 2.72 36.896 0.092 7.52 16.9 14.27
12/21/2021 3:30:00 PM 2.75 36.95 0.092 7.51 16.88 14.23
12/21/2021 3:45:00 PM 2.76 36.968 0.092 7.51 17.4 14.21
12/21/2021 4:00:00 PM 2.75 36.95 0.092 7.5 17.95 14.13
12/21/2021 4:15:00 PM 2.73 36.914 0.092 7.48 17.74 14.04
12/21/2021 4:30:00 PM 2.71 36.878 0.092 7.46 16.67 13.95
12/21/2021 4:45:00 PM 2.68 36.824 0.092 7.45 16.93 13.86
12/21/2021 5:00:00 PM 2.65 36.77 0.092 7.42 16.97 13.77
12/21/2021 5:15:00 PM 2.61 36.698 0.092 7.4 17.04 13.7
12/21/2021 5:30:00 PM 2.57 36.626 0.092 7.37 17.51 13.65
12/21/2021 5:45:00 PM 2.53 36.554 0.092 7.36 18.63 13.63
12/21/2021 6:00:00 PM 2.5 36.5 0.092 7.34 17.42 13.62
12/21/2021 6:15:00 PM 2.47 36.446 0.092 7.33 17.35 13.6
12/21/2021 6:30:00 PM 2.45 36.41 0.092 7.32 17.4 13.6
12/21/2021 6:45:00 PM 2.42 36.356 0.092 7.31 17.06 13.59
12/21/2021 7:00:00 PM 2.4 36.32 0.092 7.3 17.34 13.59
12/21/2021 7:15:00 PM 2.39 36.302 0.092 7.29 17.17 13.58
12/21/2021 7:30:00 PM 2.37 36.266 0.092 7.29 17.07 13.58
12/21/2021 7:45:00 PM 2.35 36.23 0.092 7.29 17.58 13.59
12/21/2021 8:00:00 PM 2.32 36.176 0.092 7.28 17.04 13.59
12/21/2021 8:15:00 PM 2.3 36.14 0.092 7.27 17.79 13.59
12/21/2021 8:30:00 PM 2.27 36.086 0.092 7.27 17.27 13.6
12/21/2021 8:45:00 PM 2.25 36.05 0.092 7.27 17.42 13.6
12/21/2021 9:00:00 PM 2.22 35.996 0.093 7.27 17.33 13.61
12/21/2021 9:15:00 PM 2.19 35.942 0.093 7.26 17.5 13.62
12/21/2021 9:30:00 PM 2.16 35.888 0.093 7.27 17.15 13.63
12/21/2021 9:45:00 PM 2.13 35.834 0.093 7.26 17.74 13.64
12/21/2021 10:00:00 PM 2.09 35.762 0.093 7.26 18.09 13.65
12/21/2021 10:15:00 PM 2.06 35.708 0.093 7.25 17.58 13.66
12/21/2021 10:30:00 PM 2.03 35.654 0.093 7.26 17.41 13.67
12/21/2021 10:45:00 PM 2 35.6 0.093 7.25 17.25 13.68
12/21/2021 11:00:00 PM 1.97 35.546 0.093 7.25 17.33 13.69
12/21/2021 11:15:00 PM 1.93 35.474 0.093 7.26 20.02 13.7
12/21/2021 11:30:00 PM 1.9 35.42 0.093 7.25 19.81 13.7
12/21/2021 11:45:00 PM 1.87 35.366 0.093 7.25 19.33 13.71
12/22/2021 12:00:00 AM 1.83 35.294 0.093 7.24 19.23 13.73
12/22/2021 12:15:00 AM 1.8 35.24 0.093 7.25 19.12 13.73
12/22/2021 12:30:00 AM 1.77 35.186 0.093 7.24 18.61 13.75
12/22/2021 12:45:00 AM 1.73 35.114 0.093 7.25 17.87 13.76
12/22/2021 1:00:00 AM 1.7 35.06 0.093 7.24 17.67 13.76
12/22/2021 1:15:00 AM 1.67 35.006 0.093 7.24 18.1 13.77
12/22/2021 1:30:00 AM 1.64 34.952 0.093 7.25 17.49 13.79
12/22/2021 1:45:00 AM 1.61 34.898 0.093 7.24 17.77 13.79
12/22/2021 2:00:00 AM 1.58 34.844 0.093 7.24 17.14 13.8
12/22/2021 2:15:00 AM 1.56 34.808 0.093 7.24 17.09 13.81
12/22/2021 2:30:00 AM 1.54 34.772 0.093 7.24 17.17 13.81
12/22/2021 2:45:00 AM 1.52 34.736 0.093 7.23 17.19 13.82
12/22/2021 3:00:00 AM 1.49 34.682 0.093 7.23 17.76 13.83
12/22/2021 3:15:00 AM 1.47 34.646 0.093 7.23 17.6 13.83
12/22/2021 3:30:00 AM 1.45 34.61 0.093 7.23 17.56 13.85
12/22/2021 3:45:00 AM 1.43 34.574 0.093 7.23 17.23 13.85
12/22/2021 4:00:00 AM 1.4 34.52 0.093 7.23 17.29 13.86
12/22/2021 4:15:00 AM 1.4 34.52 0.093 7.23 17.33 13.87
12/22/2021 4:30:00 AM 1.39 34.502 0.093 7.23 17.29 13.87
12/22/2021 4:45:00 AM 1.39 34.502 0.093 7.23 17.44 13.88
12/22/2021 5:00:00 AM 1.39 34.502 0.093 7.23 17.44 13.88
12/22/2021 5:15:00 AM 1.41 34.538 0.093 7.23 17.58 13.87
12/22/2021 5:30:00 AM 1.42 34.556 0.093 7.24 17.63 13.88
12/22/2021 5:45:00 AM 1.43 34.574 0.093 7.24 17.46 13.87
12/22/2021 6:00:00 AM 1.43 34.574 0.093 7.24 17.55 13.87
12/22/2021 6:15:00 AM 1.44 34.592 0.093 7.24 17.28 13.87
12/22/2021 6:30:00 AM 1.44 34.592 0.093 7.23 17.69 13.87
12/22/2021 6:45:00 AM 1.45 34.61 0.093 7.23 17.23 13.87
12/22/2021 7:00:00 AM 1.46 34.628 0.093 7.23 17.25 13.85
12/22/2021 7:15:00 AM 1.48 34.664 0.093 7.23 17.37 13.85
12/22/2021 7:30:00 AM 1.49 34.682 0.093 7.24 17.38 13.85
12/22/2021 7:45:00 AM 1.5 34.7 0.093 7.24 17.77 13.86
12/22/2021 8:00:00 AM 1.52 34.736 0.093 7.24 17.6 13.88
12/22/2021 8:15:00 AM 1.54 34.772 0.093 7.24 17.14 13.94
12/22/2021 8:30:00 AM 1.56 34.808 0.093 7.26 17.56 14.01
12/22/2021 8:45:00 AM 1.59 34.862 0.093 7.26 18.07 14.04
12/22/2021 9:00:00 AM 1.61 34.898 0.093 7.27 17.24 14.06
12/22/2021 9:15:00 AM 1.64 34.952 0.093 7.29 17.3 14.16
12/22/2021 9:30:00 AM 1.67 35.006 0.093 7.31 17.52 14.3
12/22/2021 9:45:00 AM 1.71 35.078 0.093 7.32 17.11 14.37
12/22/2021 10:00:00 AM 1.76 35.168 0.092 7.34 16.86 14.36
12/22/2021 10:15:00 AM 1.8 35.24 0.092 7.36 17.16 14.39
12/22/2021 10:30:00 AM 1.88 35.384 0.092 7.38 17.33 14.45
12/22/2021 10:45:00 AM 1.95 35.51 0.092 7.4 17.15 14.5
12/22/2021 11:00:00 AM 1.99 35.582 0.092 7.41 17.31 14.46
12/22/2021 11:15:00 AM 2.04 35.672 0.092 7.42 17.56 14.43
12/22/2021 11:30:00 AM 2.1 35.78 0.092 7.43 16.83 14.46
12/22/2021 11:45:00 AM 2.14 35.852 0.092 7.45 16.96 14.51
12/22/2021 12:00:00 PM 2.2 35.96 0.092 7.49 17.17 14.54
12/22/2021 12:15:00 PM 2.24 36.032 0.092 7.49 16.87 14.52
12/22/2021 12:30:00 PM 2.27 36.086 0.092 7.5 16.76 14.48
12/22/2021 12:45:00 PM 2.36 36.248 0.092 7.51 16.64 14.48
12/22/2021 1:00:00 PM 2.38 36.284 0.091 7.52 16.91 14.47
12/22/2021 1:15:00 PM 2.38 36.284 0.091 7.53 16.98 14.47
12/22/2021 1:30:00 PM 2.42 36.356 0.091 7.54 16.75 14.46
12/22/2021 1:45:00 PM 2.46 36.428 0.091 7.55 16.75 14.46
12/22/2021 2:00:00 PM 2.47 36.446 0.091 7.55 16.72 14.41
12/22/2021 2:15:00 PM 2.49 36.482 0.091 7.54 17.51 14.37
12/22/2021 2:30:00 PM 2.49 36.482 0.091 7.54 16.88 14.36
12/22/2021 2:45:00 PM 2.5 36.5 0.091 7.56 16.74 14.36
12/22/2021 3:00:00 PM 2.48 36.464 0.091 7.55 16.49 14.3
12/22/2021 3:15:00 PM 2.45 36.41 0.091 7.54 16.92 14.31
12/22/2021 3:30:00 PM 2.42 36.356 0.091 7.54 17.62 14.29
12/22/2021 3:45:00 PM 2.4 36.32 0.091 7.53 17.19 14.23
12/22/2021 4:00:00 PM 2.39 36.302 0.091 7.51 16.89 14.18
12/22/2021 4:15:00 PM 2.36 36.248 0.091 7.5 16.92 14.09
12/22/2021 4:30:00 PM 2.32 36.176 0.091 7.47 17.63 13.99
12/22/2021 4:45:00 PM 2.28 36.104 0.091 7.45 17.12 13.89
12/22/2021 5:00:00 PM 2.25 36.05 0.091 7.43 16.98 13.83
12/22/2021 5:15:00 PM 2.22 35.996 0.091 7.4 17.18 13.77
12/22/2021 5:30:00 PM 2.21 35.978 0.091 7.38 17.04 13.74
12/22/2021 5:45:00 PM 2.18 35.924 0.091 7.36 16.98 13.72
12/22/2021 6:00:00 PM 2.14 35.852 0.091 7.35 18.28 13.72
12/22/2021 6:15:00 PM 2.1 35.78 0.091 7.34 17.52 13.72
12/22/2021 6:30:00 PM 2.06 35.708 0.091 7.32 17.24 13.73
12/22/2021 6:45:00 PM 2.04 35.672 0.091 7.31 17.13 13.73
12/22/2021 7:00:00 PM 2 35.6 0.091 7.31 17.81 13.74
12/22/2021 7:15:00 PM 1.98 35.564 0.091 7.3 17.9 13.75
12/22/2021 7:30:00 PM 1.94 35.492 0.091 7.3 17.7 13.75
12/22/2021 7:45:00 PM 1.93 35.474 0.091 7.29 17.19 13.76
12/22/2021 8:00:00 PM 1.92 35.456 0.091 7.29 18 13.77
12/22/2021 8:15:00 PM 1.88 35.384 0.091 7.28 17.67 13.78
12/22/2021 8:30:00 PM 1.87 35.366 0.091 7.28 17.06 13.79
12/22/2021 8:45:00 PM 1.84 35.312 0.091 7.28 17.33 13.8
12/22/2021 9:00:00 PM 1.82 35.276 0.091 7.27 17.54 13.82
12/22/2021 9:15:00 PM 1.82 35.276 0.092 7.27 17.48 13.83
12/22/2021 9:30:00 PM 1.81 35.258 0.091 7.27 17.63 13.83
12/22/2021 9:45:00 PM 1.77 35.186 0.092 7.26 17.69 13.84
12/22/2021 10:00:00 PM 1.73 35.114 0.092 7.26 17.64 13.85
12/22/2021 10:15:00 PM 1.71 35.078 0.092 7.26 17.86 13.86
12/22/2021 10:30:00 PM 1.7 35.06 0.092 7.26 17.33 13.87
12/22/2021 10:45:00 PM 1.68 35.024 0.092 7.26 17.31 13.88
12/22/2021 11:00:00 PM 1.66 34.988 0.092 7.25 17.33 13.89
12/22/2021 11:15:00 PM 1.65 34.97 0.092 7.25 17.36 13.9
12/22/2021 11:30:00 PM 1.64 34.952 0.092 7.25 17.55 13.91
12/22/2021 11:45:00 PM 1.62 34.916 0.092 7.25 17.76 13.92
12/23/2021 12:00:00 AM 1.61 34.898 0.092 7.25 17.75 13.92
12/23/2021 12:15:00 AM 1.61 34.898 0.092 7.25 17.78 13.93
12/23/2021 12:30:00 AM 1.6 34.88 0.092 7.25 17.68 13.93
12/23/2021 12:45:00 AM 1.59 34.862 0.092 7.25 18.18 13.94
12/23/2021 1:00:00 AM 1.57 34.826 0.092 7.25 17.42 13.96
12/23/2021 1:15:00 AM 1.56 34.808 0.092 7.24 17.34 13.96
12/23/2021 1:30:00 AM 1.55 34.79 0.092 7.25 17.63 13.96
12/23/2021 1:45:00 AM 1.54 34.772 0.092 7.24 17.79 13.97
12/23/2021 2:00:00 AM 1.52 34.736 0.092 7.24 17.73 13.98
12/23/2021 2:15:00 AM 1.5 34.7 0.092 7.25 17.88 13.99
12/23/2021 2:30:00 AM 1.47 34.646 0.092 7.24 17.41 14
12/23/2021 2:45:00 AM 1.43 34.574 0.092 7.24 17.5 14.01
12/23/2021 3:00:00 AM 1.39 34.502 0.092 7.24 17.77 14.03
12/23/2021 3:15:00 AM 1.35 34.43 0.092 7.25 17.7 14.04
12/23/2021 3:30:00 AM 1.32 34.376 0.092 7.24 17.48 14.06
12/23/2021 3:45:00 AM 1.27 34.286 0.092 7.24 17.6 14.08
12/23/2021 4:00:00 AM 1.24 34.232 0.092 7.24 17.52 14.09
12/23/2021 4:15:00 AM 1.21 34.178 0.092 7.24 17.67 14.11
12/23/2021 4:30:00 AM 1.2 34.16 0.092 7.24 17.68 14.12
12/23/2021 4:45:00 AM 1.19 34.142 0.092 7.24 17.32 14.13
12/23/2021 5:00:00 AM 1.17 34.106 0.092 7.24 17.99 14.14
12/23/2021 5:15:00 AM 1.16 34.088 0.092 7.24 17.72 14.16
12/23/2021 5:30:00 AM 1.15 34.07 0.092 7.24 17.67 14.16
12/23/2021 5:45:00 AM 1.14 34.052 0.092 7.24 17.47 14.17
12/23/2021 6:00:00 AM 1.12 34.016 0.093 7.24 17.49 14.18
12/23/2021 6:15:00 AM 1.11 33.998 0.093 7.24 18.27 14.19
12/23/2021 6:30:00 AM 1.09 33.962 0.093 7.24 17.61 14.2
12/23/2021 6:45:00 AM 1.07 33.926 0.093 7.24 17.79 14.21
12/23/2021 7:00:00 AM 1.05 33.89 0.093 7.24 17.57 14.22
12/23/2021 7:15:00 AM 1.03 33.854 0.093 7.24 17.59 14.23
12/23/2021 7:30:00 AM 1.02 33.836 0.093 7.24 17.51 14.25
12/23/2021 7:45:00 AM 1.01 33.818 0.093 7.24 17.87 14.29
12/23/2021 8:00:00 AM 1 33.8 0.093 7.25 17.41 14.36
12/23/2021 8:15:00 AM 0.99 33.782 0.092 7.26 17.72 14.46
12/23/2021 8:30:00 AM 1 33.8 0.092 7.28 18.05 14.59
12/23/2021 8:45:00 AM 1 33.8 0.092 7.29 18.24 14.71
12/23/2021 9:00:00 AM 1 33.8 0.092 7.32 18.43 14.81
12/23/2021 9:15:00 AM 1 33.8 0.092 7.33 18.07 14.88
12/23/2021 9:30:00 AM 1.01 33.818 0.092 7.35 17.95 14.94
12/23/2021 9:45:00 AM 1.02 33.836 0.092 7.37 17.48 14.98
12/23/2021 10:00:00 AM 1.03 33.854 0.092 7.38 17.42 14.99
12/23/2021 10:15:00 AM 1.05 33.89 0.092 7.4 17.54 15.03
12/23/2021 10:30:00 AM 1.08 33.944 0.092 7.41 16.82 15.06
12/23/2021 10:45:00 AM 1.16 34.088 0.092 7.42 17.61 15.1
12/23/2021 11:00:00 AM 1.21 34.178 0.091 7.44 17.54 15.1
12/23/2021 11:15:00 AM 1.27 34.286 0.091 7.45 17.17 15.09
12/23/2021 11:30:00 AM 1.32 34.376 0.091 7.46 17.09 15.09
12/23/2021 11:45:00 AM 1.38 34.484 0.091 7.47 16.67 15.1
12/23/2021 12:00:00 PM 1.45 34.61 0.091 7.48 17.28 15.09
12/23/2021 12:15:00 PM 1.53 34.754 0.091 7.49 16.96 15.06
12/23/2021 12:30:00 PM 1.6 34.88 0.091 7.49 17.13 15
12/23/2021 12:45:00 PM 1.67 35.006 0.091 7.49 17 14.96
12/23/2021 1:00:00 PM 1.73 35.114 0.091 7.49 17.27 14.92
12/23/2021 1:15:00 PM 1.78 35.204 0.091 7.5 17.03 14.83
12/23/2021 1:30:00 PM 1.81 35.258 0.091 7.5 16.41 14.81
12/23/2021 1:45:00 PM 1.86 35.348 0.091 7.5 16.21 14.8
12/23/2021 2:00:00 PM 1.93 35.474 0.09 7.5 17.14 14.83
12/23/2021 2:15:00 PM 2 35.6 0.09 7.51 18.08 14.84
12/23/2021 2:30:00 PM 2.08 35.744 0.09 7.52 16.94 14.81
12/23/2021 2:45:00 PM 2.14 35.852 0.09 7.54 16.38 14.77
12/23/2021 3:00:00 PM 2.18 35.924 0.09 7.54 16.59 14.73
12/23/2021 3:15:00 PM 2.19 35.942 0.09 7.53 16.92 14.69
12/23/2021 3:30:00 PM 2.19 35.942 0.09 7.53 16.84 14.65
12/23/2021 3:45:00 PM 2.19 35.942 0.09 7.53 16.5 14.6
12/23/2021 4:00:00 PM 2.17 35.906 0.09 7.52 16.76 14.54
12/23/2021 4:15:00 PM 2.15 35.87 0.09 7.5 16.84 14.44
12/23/2021 4:30:00 PM 2.13 35.834 0.09 7.48 16.72 14.31
12/23/2021 4:45:00 PM 2.11 35.798 0.09 7.45 16.76 14.19
12/23/2021 5:00:00 PM 2.1 35.78 0.091 7.42 16.97 14.09
12/23/2021 5:15:00 PM 2.08 35.744 0.091 7.4 17.05 14.02
12/23/2021 5:30:00 PM 2.07 35.726 0.091 7.37 17.57 13.96
12/23/2021 5:45:00 PM 2.08 35.744 0.091 7.35 16.78 13.93
12/23/2021 6:00:00 PM 2.07 35.726 0.091 7.34 17.13 13.9
12/23/2021 6:15:00 PM 2.07 35.726 0.091 7.33 16.94 13.87
12/23/2021 6:30:00 PM 2.07 35.726 0.091 7.32 17.19 13.86
12/23/2021 6:45:00 PM 2.06 35.708 0.091 7.31 17.47 13.85
12/23/2021 7:00:00 PM 2.06 35.708 0.091 7.31 17.38 13.83
12/23/2021 7:15:00 PM 2.05 35.69 0.091 7.29 17.13 13.83
12/23/2021 7:30:00 PM 2.05 35.69 0.091 7.29 17.23 13.82
12/23/2021 7:45:00 PM 2.05 35.69 0.09 7.29 17.25 13.81
12/23/2021 8:00:00 PM 2.04 35.672 0.091 7.28 17.28 13.8
12/23/2021 8:15:00 PM 2.03 35.654 0.091 7.28 17.29 13.8
12/23/2021 8:30:00 PM 2.01 35.618 0.091 7.27 17.17 13.8
12/23/2021 8:45:00 PM 2 35.6 0.091 7.26 17.25 13.8
12/23/2021 9:00:00 PM 2 35.6 0.091 7.27 17.26 13.8
12/23/2021 9:15:00 PM 1.99 35.582 0.091 7.27 17.39 13.8
12/23/2021 9:30:00 PM 1.99 35.582 0.091 7.27 17.54 13.8
12/23/2021 9:45:00 PM 1.98 35.564 0.091 7.26 17.09 13.8
12/23/2021 10:00:00 PM 1.96 35.528 0.091 7.26 17.48 13.81
12/23/2021 10:15:00 PM 1.95 35.51 0.091 7.26 16.81 13.81
12/23/2021 10:30:00 PM 1.94 35.492 0.091 7.26 17.32 13.81
12/23/2021 10:45:00 PM 1.95 35.51 0.091 7.26 17.29 13.81
12/23/2021 11:00:00 PM 1.94 35.492 0.091 7.25 17.27 13.81
12/23/2021 11:15:00 PM 1.92 35.456 0.091 7.26 17.16 13.81
12/23/2021 11:30:00 PM 1.91 35.438 0.091 7.25 17.16 13.82
12/23/2021 11:45:00 PM 1.9 35.42 0.091 7.25 17.63 13.82
12/24/2021 12:00:00 AM 1.89 35.402 0.091 7.25 17.47 13.82
12/24/2021 12:15:00 AM 1.86 35.348 0.091 7.25 17.44 13.82
12/24/2021 12:30:00 AM 1.83 35.294 0.091 7.25 17.69 13.83
12/24/2021 12:45:00 AM 1.79 35.222 0.091 7.25 17.76 13.84
12/24/2021 1:00:00 AM 1.78 35.204 0.091 7.24 17.4 13.85
12/24/2021 1:15:00 AM 1.77 35.186 0.091 7.24 17.49 13.86
12/24/2021 1:30:00 AM 1.76 35.168 0.091 7.24 17.34 13.86
12/24/2021 1:45:00 AM 1.75 35.15 0.091 7.24 17.28 13.87
12/24/2021 2:00:00 AM 1.74 35.132 0.091 7.25 17.21 13.87
12/24/2021 2:15:00 AM 1.74 35.132 0.091 7.25 17.8 13.88
12/24/2021 2:30:00 AM 1.74 35.132 0.091 7.24 17.22 13.88
12/24/2021 2:45:00 AM 1.75 35.15 0.091 7.24 17.21 13.88
12/24/2021 3:00:00 AM 1.75 35.15 0.092 7.25 17.27 13.87
12/24/2021 3:15:00 AM 1.75 35.15 0.092 7.24 17.62 13.87
12/24/2021 3:30:00 AM 1.76 35.168 0.092 7.24 17.53 13.87
12/24/2021 3:45:00 AM 1.76 35.168 0.092 7.24 17.69 13.86
12/24/2021 4:00:00 AM 1.77 35.186 0.092 7.24 17.37 13.87
12/24/2021 4:15:00 AM 1.77 35.186 0.092 7.24 17.57 13.87
12/24/2021 4:30:00 AM 1.77 35.186 0.092 7.24 17.75 13.86
12/24/2021 4:45:00 AM 1.77 35.186 0.092 7.24 17.55 13.87
12/24/2021 5:00:00 AM 1.78 35.204 0.092 7.24 17.42 13.87
12/24/2021 5:15:00 AM 1.78 35.204 0.092 7.24 17.76 13.87
12/24/2021 5:30:00 AM 1.79 35.222 0.092 7.24 17.82 13.86
12/24/2021 5:45:00 AM 1.79 35.222 0.092 7.24 17.35 13.86
12/24/2021 6:00:00 AM 1.79 35.222 0.092 7.24 17.68 13.86
12/24/2021 6:15:00 AM 1.8 35.24 0.092 7.24 17.55 13.86
12/24/2021 6:30:00 AM 1.8 35.24 0.092 7.24 17.44 13.87
12/24/2021 6:45:00 AM 1.81 35.258 0.092 7.24 17.68 13.86
12/24/2021 7:00:00 AM 1.81 35.258 0.092 7.24 17.42 13.87
12/24/2021 7:15:00 AM 1.82 35.276 0.092 7.23 17.54 13.87
12/24/2021 7:30:00 AM 1.82 35.276 0.092 7.24 17.5 13.87
12/24/2021 7:45:00 AM 1.83 35.294 0.092 7.24 17.58 13.87
12/24/2021 8:00:00 AM 1.84 35.312 0.092 7.24 18.03 13.88
12/24/2021 8:15:00 AM 1.85 35.33 0.092 7.24 17.58 13.92
12/24/2021 8:30:00 AM 1.86 35.348 0.092 7.25 17.65 13.96
12/24/2021 8:45:00 AM 1.88 35.384 0.092 7.26 17.85 14.03
12/24/2021 9:00:00 AM 1.89 35.402 0.092 7.27 17.69 14.11
12/24/2021 9:15:00 AM 1.91 35.438 0.092 7.28 17.78 14.17
12/24/2021 9:30:00 AM 1.94 35.492 0.092 7.29 17.29 14.25
12/24/2021 9:45:00 AM 1.97 35.546 0.092 7.31 17.52 14.35
12/24/2021 10:00:00 AM 2.01 35.618 0.091 7.33 17.79 14.43
12/24/2021 10:15:00 AM 2.06 35.708 0.091 7.36 17.66 14.51
12/24/2021 10:30:00 AM 2.11 35.798 0.091 7.39 17.33 14.56
12/24/2021 10:45:00 AM 2.18 35.924 0.091 7.4 17.5 14.61
12/24/2021 11:00:00 AM 2.25 36.05 0.091 7.42 17.63 14.65
12/24/2021 11:15:00 AM 2.32 36.176 0.091 7.45 17.25 14.66
12/24/2021 11:30:00 AM 2.36 36.248 0.091 7.46 17.38 14.63
12/24/2021 11:45:00 AM 2.37 36.266 0.091 7.47 17.32 14.61
12/24/2021 12:00:00 PM 2.43 36.374 0.091 7.48 17.47 14.59
12/24/2021 12:15:00 PM 2.51 36.518 0.091 7.48 17.36 14.56
12/24/2021 12:30:00 PM 2.61 36.698 0.091 7.49 17.43 14.54
12/24/2021 12:45:00 PM 2.71 36.878 0.091 7.51 16.8 14.51
12/24/2021 1:00:00 PM 2.8 37.04 0.091 7.51 16.8 14.47
12/24/2021 1:15:00 PM 2.9 37.22 0.091 7.52 16.81 14.45
12/24/2021 1:30:00 PM 3 37.4 0.09 7.53 17.03 14.43
12/24/2021 1:45:00 PM 3.05 37.49 0.09 7.55 17.33 14.38
12/24/2021 2:00:00 PM 3.07 37.526 0.09 7.55 17 14.35
12/24/2021 2:15:00 PM 3.1 37.58 0.09 7.56 16.84 14.34
12/24/2021 2:30:00 PM 3.17 37.706 0.09 7.56 16.94 14.31
12/24/2021 2:45:00 PM 3.23 37.814 0.09 7.57 16.85 14.27
12/24/2021 3:00:00 PM 3.28 37.904 0.09 7.57 17.01 14.22
12/24/2021 3:15:00 PM 3.31 37.958 0.09 7.57 17.06 14.17
12/24/2021 3:30:00 PM 3.32 37.976 0.09 7.56 16.83 14.13
12/24/2021 3:45:00 PM 3.32 37.976 0.09 7.56 17.34 14.12
12/24/2021 4:00:00 PM 3.29 37.922 0.09 7.55 17.18 14.08
12/24/2021 4:15:00 PM 3.25 37.85 0.09 7.54 17.05 13.96
12/24/2021 4:30:00 PM 3.21 37.778 0.09 7.51 17.15 13.81
12/24/2021 4:45:00 PM 3.16 37.688 0.091 7.47 16.98 13.69
12/24/2021 5:00:00 PM 3.12 37.616 0.091 7.44 17.53 13.59
12/24/2021 5:15:00 PM 3.08 37.544 0.091 7.41 16.92 13.52
12/24/2021 5:30:00 PM 3.05 37.49 0.091 7.39 17.57 13.47
12/24/2021 5:45:00 PM 3.03 37.454 0.091 7.37 17.56 13.44
12/24/2021 6:00:00 PM 3.02 37.436 0.091 7.35 17.02 13.42
12/24/2021 6:15:00 PM 3.03 37.454 0.091 7.34 17.18 13.4
12/24/2021 6:30:00 PM 3.03 37.454 0.091 7.33 17.14 13.38
12/24/2021 6:45:00 PM 3.03 37.454 0.091 7.32 17.31 13.37
12/24/2021 7:00:00 PM 3.04 37.472 0.091 7.31 17.26 13.35
12/24/2021 7:15:00 PM 3.05 37.49 0.091 7.3 17.05 13.34
12/24/2021 7:30:00 PM 3.05 37.49 0.091 7.3 17.49 13.33
12/24/2021 7:45:00 PM 3.06 37.508 0.087 7.29 17.23 13.32
12/24/2021 8:00:00 PM 3.06 37.508 0.091 7.29 17.4 13.31
12/24/2021 8:15:00 PM 3.07 37.526 0.091 7.28 17.16 13.3
12/24/2021 8:30:00 PM 3.09 37.562 0.091 7.27 17.69 13.29
12/24/2021 8:45:00 PM 3.1 37.58 0.091 7.27 17.42 13.29
12/24/2021 9:00:00 PM 3.11 37.598 0.091 7.27 17.35 13.28
12/24/2021 9:15:00 PM 3.12 37.616 0.09 7.27 17.05 13.28
12/24/2021 9:30:00 PM 3.13 37.634 0.091 7.26 17.68 13.27
12/24/2021 9:45:00 PM 3.13 37.634 0.091 7.26 17.77 13.27
12/24/2021 10:00:00 PM 3.14 37.652 0.09 7.26 17.52 13.26
12/24/2021 10:15:00 PM 3.15 37.67 0.09 7.26 17.33 13.26
12/24/2021 10:30:00 PM 3.15 37.67 0.091 7.26 17.44 13.25
12/24/2021 10:45:00 PM 3.16 37.688 0.09 7.26 17.17 13.25
12/24/2021 11:00:00 PM 3.16 37.688 0.091 7.26 17.42 13.24
12/24/2021 11:15:00 PM 3.17 37.706 0.091 7.25 17.45 13.24
12/24/2021 11:30:00 PM 3.17 37.706 0.091 7.25 17.71 13.24
12/24/2021 11:45:00 PM 3.18 37.724 0.091 7.25 17.69 13.23
12/25/2021 12:00:00 AM 3.19 37.742 0.091 7.25 18.13 13.23
12/25/2021 12:15:00 AM 3.19 37.742 0.091 7.26 17.46 13.23
12/25/2021 12:30:00 AM 3.19 37.742 0.091 7.25 17.72 13.23
12/25/2021 12:45:00 AM 3.2 37.76 0.091 7.26 18.04 13.22
12/25/2021 1:00:00 AM 3.2 37.76 0.091 7.25 17.55 13.21
12/25/2021 1:15:00 AM 3.2 37.76 0.091 7.25 17.92 13.2
12/25/2021 1:30:00 AM 3.21 37.778 0.092 7.25 17.65 13.19
12/25/2021 1:45:00 AM 3.22 37.796 0.092 7.25 17.55 13.19
12/25/2021 2:00:00 AM 3.23 37.814 0.092 7.25 17.61 13.18
12/25/2021 2:15:00 AM 3.24 37.832 0.092 7.25 17.35 13.17
12/25/2021 2:30:00 AM 3.25 37.85 0.092 7.24 17.29 13.17
12/25/2021 2:45:00 AM 3.26 37.868 0.092 7.25 17.52 13.16
12/25/2021 3:00:00 AM 3.27 37.886 0.092 7.25 17.44 13.15
12/25/2021 3:15:00 AM 3.29 37.922 0.092 7.25 17.95 13.14
12/25/2021 3:30:00 AM 3.3 37.94 0.092 7.25 17.6 13.13
12/25/2021 3:45:00 AM 3.31 37.958 0.092 7.25 17.65 13.12
12/25/2021 4:00:00 AM 3.32 37.976 0.092 7.25 17.46 13.11
12/25/2021 4:15:00 AM 3.34 38.012 0.092 7.25 17.93 13.1
12/25/2021 4:30:00 AM 3.35 38.03 0.092 7.24 17.66 13.09
12/25/2021 4:45:00 AM 3.37 38.066 0.092 7.25 17.57 13.08
12/25/2021 5:00:00 AM 3.38 38.084 0.092 7.25 17.67 13.07
12/25/2021 5:15:00 AM 3.4 38.12 0.092 7.25 17.6 13.06
12/25/2021 5:30:00 AM 3.41 38.138 0.092 7.24 17.51 13.05
12/25/2021 5:45:00 AM 3.42 38.156 0.092 7.25 17.84 13.05
12/25/2021 6:00:00 AM 3.43 38.174 0.092 7.25 17.61 13.05
12/25/2021 6:15:00 AM 3.44 38.192 0.092 7.25 17.66 13.04
12/25/2021 6:30:00 AM 3.45 38.21 0.092 7.25 17.66 13.03
12/25/2021 6:45:00 AM 3.46 38.228 0.092 7.26 18.15 13.03
12/25/2021 7:00:00 AM 3.47 38.246 0.092 7.25 17.72 13.02
12/25/2021 7:15:00 AM 3.48 38.264 0.092 7.25 18.36 13.02
12/25/2021 7:30:00 AM 3.49 38.282 0.092 7.25 17.93 13.01
12/25/2021 7:45:00 AM 3.5 38.3 0.092 7.24 17.69 13.01
12/25/2021 8:00:00 AM 3.51 38.318 0.092 7.25 17.84 13.02
12/25/2021 8:15:00 AM 3.52 38.336 0.092 7.26 17.82 13.03
12/25/2021 8:30:00 AM 3.53 38.354 0.091 7.26 18.18 13.07
12/25/2021 8:45:00 AM 3.54 38.372 0.091 7.27 17.81 13.1
12/25/2021 9:00:00 AM 3.56 38.408 0.091 7.28 17.79 13.17
12/25/2021 9:15:00 AM 3.58 38.444 0.091 7.29 17.76 13.24
12/25/2021 9:30:00 AM 3.59 38.462 0.091 7.3 17.46 13.22
12/25/2021 9:45:00 AM 3.61 38.498 0.091 7.3 17.9 13.25
12/25/2021 10:00:00 AM 3.63 38.534 0.091 7.31 17.8 13.3
12/25/2021 10:15:00 AM 3.66 38.588 0.091 7.33 18.22 13.41
12/25/2021 10:30:00 AM 3.7 38.66 0.091 7.35 18 13.52
12/25/2021 10:45:00 AM 3.76 38.768 0.091 7.37 18.02 13.62
12/25/2021 11:00:00 AM 3.79 38.822 0.091 7.39 18.22 13.64
12/25/2021 11:15:00 AM 3.83 38.894 0.091 7.42 18.36 13.65
12/25/2021 11:30:00 AM 3.86 38.948 0.091 7.42 18.17 13.61
12/25/2021 11:45:00 AM 3.88 38.984 0.091 7.44 18.81 13.54
12/25/2021 12:00:00 PM 3.9 39.02 0.091 7.44 18.15 13.53
12/25/2021 12:15:00 PM 3.92 39.056 0.091 7.44 18.44 13.52
12/25/2021 12:30:00 PM 3.95 39.11 0.091 7.45 18.47 13.52
12/25/2021 12:45:00 PM 3.98 39.164 0.091 7.45 18.61 13.5
12/25/2021 1:00:00 PM 4.02 39.236 0.091 7.46 18.42 13.53
12/25/2021 1:15:00 PM 4.07 39.326 0.09 7.47 18.68 13.59
12/25/2021 1:30:00 PM 4.11 39.398 0.09 7.48 18.55 13.54
12/25/2021 1:45:00 PM 4.15 39.47 0.09 7.49 18.63 13.54
12/25/2021 2:00:00 PM 4.19 39.542 0.09 7.5 18.37 13.53
12/25/2021 2:15:00 PM 4.24 39.632 0.09 7.5 18.41 13.53
12/25/2021 2:30:00 PM 4.28 39.704 0.09 7.51 18.14 13.52
12/25/2021 2:45:00 PM 4.32 39.776 0.09 7.52 18.92 13.51
12/25/2021 3:00:00 PM 4.36 39.848 0.09 7.52 17.89 13.5
12/25/2021 3:15:00 PM 4.4 39.92 0.09 7.52 17.41 13.46
12/25/2021 3:30:00 PM 4.44 39.992 0.09 7.53 17.73 13.44
12/25/2021 3:45:00 PM 4.47 40.046 0.09 7.52 17.3 13.38
12/25/2021 4:00:00 PM 4.49 40.082 0.091 7.5 17.96 13.17
12/25/2021 4:15:00 PM 4.51 40.118 0.091 7.48 18.07 13.12
12/25/2021 4:30:00 PM 4.52 40.136 0.091 7.46 18.33 13.05
12/25/2021 4:45:00 PM 4.53 40.154 0.091 7.44 18.62 12.94
12/25/2021 5:00:00 PM 4.54 40.172 0.091 7.41 17.71 12.84
12/25/2021 5:15:00 PM 4.55 40.19 0.092 7.39 17.87 12.77
12/25/2021 5:30:00 PM 4.57 40.226 0.092 7.37 17.98 12.72
12/25/2021 5:45:00 PM 4.57 40.226 0.092 7.35 18.19 12.68
12/25/2021 6:00:00 PM 4.57 40.226 0.092 7.34 18.18 12.67
12/25/2021 6:15:00 PM 4.58 40.244 0.093 7.32 18.44 12.66
12/25/2021 6:30:00 PM 4.58 40.244 0.093 7.32 18.05 12.64
12/25/2021 6:45:00 PM 4.59 40.262 0.093 7.31 18.22 12.63
12/25/2021 7:00:00 PM 4.58 40.244 0.093 7.3 18.73 12.63
12/25/2021 7:15:00 PM 4.58 40.244 0.094 7.3 18.25 12.62
12/25/2021 7:30:00 PM 4.58 40.244 0.094 7.29 18.24 12.61
12/25/2021 7:45:00 PM 4.58 40.244 0.094 7.29 18.52 12.61
12/25/2021 8:00:00 PM 4.58 40.244 0.094 7.28 18.59 12.61
12/25/2021 8:15:00 PM 4.58 40.244 0.094 7.28 18.26 12.61
12/25/2021 8:30:00 PM 4.59 40.262 0.094 7.28 18.04 12.61
12/25/2021 8:45:00 PM 4.59 40.262 0.094 7.27 18.38 12.61
12/25/2021 9:00:00 PM 4.59 40.262 0.094 7.27 17.96 12.62
12/25/2021 9:15:00 PM 4.6 40.28 0.094 7.27 18.28 12.62
12/25/2021 9:30:00 PM 4.6 40.28 0.095 7.27 18.37 12.62
12/25/2021 9:45:00 PM 4.61 40.298 0.095 7.27 18.73 12.61
12/25/2021 10:00:00 PM 4.61 40.298 0.095 7.26 18.25 12.61
12/25/2021 10:15:00 PM 4.61 40.298 0.095 7.26 18.2 12.61
12/25/2021 10:30:00 PM 4.62 40.316 0.095 7.27 18.67 12.62
12/25/2021 10:45:00 PM 4.62 40.316 0.095 7.26 19.09 12.63
12/25/2021 11:00:00 PM 4.61 40.298 0.095 7.26 18.45 12.63
12/25/2021 11:15:00 PM 4.61 40.298 0.096 7.26 18.31 12.63
12/25/2021 11:30:00 PM 4.59 40.262 0.096 7.26 18.5 12.62
12/25/2021 11:45:00 PM 4.58 40.244 0.096 7.26 18.67 12.64
12/26/2021 12:00:00 AM 4.57 40.226 0.096 7.26 18.84 12.65
12/26/2021 12:15:00 AM 4.56 40.208 0.097 7.26 18.3 12.65
12/26/2021 12:30:00 AM 4.57 40.226 0.097 7.26 18.46 12.65
12/26/2021 12:45:00 AM 4.58 40.244 0.097 7.26 18.42 12.66
12/26/2021 1:00:00 AM 4.58 40.244 0.098 7.26 18.49 12.65
12/26/2021 1:15:00 AM 4.58 40.244 0.098 7.26 18.39 12.65
12/26/2021 1:30:00 AM 4.58 40.244 0.098 7.26 18.49 12.65
12/26/2021 1:45:00 AM 4.56 40.208 0.098 7.26 18.79 12.67
12/26/2021 2:00:00 AM 4.53 40.154 0.099 7.26 18.53 12.67
12/26/2021 2:15:00 AM 4.51 40.118 0.099 7.27 18.35 12.69
12/26/2021 2:30:00 AM 4.5 40.1 0.099 7.27 18.43 12.7
12/26/2021 2:45:00 AM 4.49 40.082 0.099 7.26 18.65 12.7
12/26/2021 3:00:00 AM 4.47 40.046 0.099 7.26 18.6 12.72
12/26/2021 3:15:00 AM 4.46 40.028 0.099 7.26 18.7 12.73
12/26/2021 3:30:00 AM 4.44 39.992 0.1 7.26 18.55 12.74
12/26/2021 3:45:00 AM 4.42 39.956 0.1 7.26 18.92 12.75
12/26/2021 4:00:00 AM 4.4 39.92 0.1 7.27 18.88 12.76
12/26/2021 4:15:00 AM 4.38 39.884 0.1 7.27 18.84 12.77
12/26/2021 4:30:00 AM 4.36 39.848 0.1 7.27 18.63 12.78
12/26/2021 4:45:00 AM 4.34 39.812 0.1 7.27 18.34 12.79
12/26/2021 5:00:00 AM 4.31 39.758 0.1 7.27 18.54 12.8
12/26/2021 5:15:00 AM 4.28 39.704 0.1 7.27 18.51 12.81
12/26/2021 5:30:00 AM 4.24 39.632 0.1 7.27 18.92 12.82
12/26/2021 5:45:00 AM 4.19 39.542 0.1 7.27 18.7 12.84
12/26/2021 6:00:00 AM 4.15 39.47 0.1 7.27 19.15 12.84
12/26/2021 6:15:00 AM 4.11 39.398 0.1 7.28 18.56 12.86
12/26/2021 6:30:00 AM 4.08 39.344 0.1 7.27 18.87 12.87
12/26/2021 6:45:00 AM 4.06 39.308 0.1 7.27 18.86 12.89
12/26/2021 7:00:00 AM 4.05 39.29 0.1 7.27 19.01 12.89
12/26/2021 7:15:00 AM 4.03 39.254 0.1 7.28 18.8 12.9
12/26/2021 7:30:00 AM 4 39.2 0.1 7.27 18.82 12.92
12/26/2021 7:45:00 AM 3.96 39.128 0.1 7.27 18.61 12.96
12/26/2021 8:00:00 AM 3.93 39.074 0.101 7.28 18.77 13.03
12/26/2021 8:15:00 AM 3.89 39.002 0.101 7.29 19.19 13.13
12/26/2021 8:30:00 AM 3.87 38.966 0.101 7.3 18.87 13.23
12/26/2021 8:45:00 AM 3.85 38.93 0.101 7.32 18.58 13.32
12/26/2021 9:00:00 AM 3.83 38.894 0.101 7.33 19.09 13.39
12/26/2021 9:15:00 AM 3.82 38.876 0.101 7.35 18.58 13.45
12/26/2021 9:30:00 AM 3.81 38.858 0.101 7.36 18.52 13.5
12/26/2021 9:45:00 AM 3.82 38.876 0.101 7.38 18.92 13.57
12/26/2021 10:00:00 AM 3.82 38.876 0.101 7.4 18.57 13.6
12/26/2021 10:15:00 AM 3.84 38.912 0.101 7.41 18.5 13.64
12/26/2021 10:30:00 AM 3.88 38.984 0.101 7.42 18.18 13.68
12/26/2021 10:45:00 AM 3.93 39.074 0.101 7.44 18.35 13.72
12/26/2021 11:00:00 AM 3.99 39.182 0.101 7.46 18.33 13.76
12/26/2021 11:15:00 AM 4.05 39.29 0.101 7.47 18.47 13.8
12/26/2021 11:30:00 AM 4.09 39.362 0.101 7.49 18.44 13.79
12/26/2021 11:45:00 AM 4.17 39.506 0.101 7.5 17.84 13.81
12/26/2021 12:00:00 PM 4.25 39.65 0.101 7.52 18.77 13.81
12/26/2021 12:15:00 PM 4.32 39.776 0.1 7.53 19.23 13.82
12/26/2021 12:30:00 PM 4.38 39.884 0.1 7.55 18.86 13.8
12/26/2021 12:45:00 PM 4.46 40.028 0.1 7.56 18.25 13.82
12/26/2021 1:00:00 PM 4.55 40.19 0.1 7.58 17.94 13.85
12/26/2021 1:15:00 PM 4.67 40.406 0.1 7.6 18.23 13.86
12/26/2021 1:30:00 PM 4.68 40.424 0.1 7.62 18.38 13.82
12/26/2021 1:45:00 PM 4.67 40.406 0.099 7.62 18.23 13.78
12/26/2021 2:00:00 PM 4.68 40.424 0.099 7.63 18.35 13.78
12/26/2021 2:15:00 PM 4.7 40.46 0.099 7.63 18.1 13.74
12/26/2021 2:30:00 PM 4.73 40.514 0.099 7.64 18.3 13.72
12/26/2021 2:45:00 PM 4.76 40.568 0.099 7.65 18.83 13.71
12/26/2021 3:00:00 PM 4.78 40.604 0.099 7.65 18.81 13.66
12/26/2021 3:15:00 PM 4.82 40.676 0.098 7.64 18.72 13.64
12/26/2021 3:30:00 PM 4.82 40.676 0.098 7.64 18.88 13.61
12/26/2021 3:45:00 PM 4.78 40.604 0.098 7.62 19.83 13.54
12/26/2021 4:00:00 PM 4.75 40.55 0.098 7.61 18.78 13.47
12/26/2021 4:15:00 PM 4.68 40.424 0.098 7.58 18.78 13.33
12/26/2021 4:30:00 PM 4.63 40.334 0.098 7.55 19.49 13.2
12/26/2021 4:45:00 PM 4.58 40.244 0.098 7.51 19.14 13.1
12/26/2021 5:00:00 PM 4.54 40.172 0.098 7.48 18.65 13.02
12/26/2021 5:15:00 PM 4.48 40.064 0.098 7.45 18.69 12.96
12/26/2021 5:30:00 PM 4.43 39.974 0.098 7.42 18.79 12.93
12/26/2021 5:45:00 PM 4.38 39.884 0.098 7.4 18.61 12.91
12/26/2021 6:00:00 PM 4.32 39.776 0.098 7.38 19.1 12.9
12/26/2021 6:15:00 PM 4.26 39.668 0.098 7.37 19.09 12.91
12/26/2021 6:30:00 PM 4.2 39.56 0.098 7.35 19.01 12.92
12/26/2021 6:45:00 PM 4.15 39.47 0.098 7.34 19.31 12.93
12/26/2021 7:00:00 PM 4.1 39.38 0.098 7.33 18.94 12.94
12/26/2021 7:15:00 PM 4.04 39.272 0.098 7.32 19.1 12.96
12/26/2021 7:30:00 PM 3.98 39.164 0.098 7.32 18.89 12.97
12/26/2021 7:45:00 PM 3.92 39.056 0.098 7.31 19.05 13
12/26/2021 8:00:00 PM 3.87 38.966 0.098 7.3 19 13.02
12/26/2021 8:15:00 PM 3.84 38.912 0.098 7.3 19.09 13.04
12/26/2021 8:30:00 PM 3.78 38.804 0.098 7.29 19.39 13.05
12/26/2021 8:45:00 PM 3.7 38.66 0.098 7.29 19.28 13.08
12/26/2021 9:00:00 PM 3.64 38.552 0.098 7.29 19.04 13.11
12/26/2021 9:15:00 PM 3.59 38.462 0.098 7.29 19.24 13.13
12/26/2021 9:30:00 PM 3.56 38.408 0.098 7.28 18.81 13.14
12/26/2021 9:45:00 PM 3.53 38.354 0.098 7.28 19.27 13.16
12/26/2021 10:00:00 PM 3.51 38.318 0.098 7.27 19.06 13.18
12/26/2021 10:15:00 PM 3.49 38.282 0.098 7.28 19.7 13.19
12/26/2021 10:30:00 PM 3.46 38.228 0.098 7.27 19 13.21
12/26/2021 10:45:00 PM 3.45 38.21 0.098 7.27 18.97 13.21
12/26/2021 11:00:00 PM 3.44 38.192 0.098 7.27 19.12 13.22
12/26/2021 11:15:00 PM 3.41 38.138 0.098 7.26 18.82 13.24
12/26/2021 11:30:00 PM 3.39 38.102 0.098 7.27 19.2 13.25
12/26/2021 11:45:00 PM 3.38 38.084 0.098 7.27 18.84 13.26
12/27/2021 12:00:00 AM 3.37 38.066 0.098 7.27 19.36 13.26
12/27/2021 12:15:00 AM 3.37 38.066 0.098 7.27 19.07 13.26
12/27/2021 12:30:00 AM 3.36 38.048 0.098 7.27 18.66 13.27
12/27/2021 12:45:00 AM 3.36 38.048 0.098 7.27 18.83 13.27
12/27/2021 1:00:00 AM 3.36 38.048 0.098 7.26 18.95 13.27
12/27/2021 1:15:00 AM 3.34 38.012 0.098 7.27 18.86 13.27
12/27/2021 1:30:00 AM 3.3 37.94 0.098 7.27 19.33 13.27
12/27/2021 1:45:00 AM 3.28 37.904 0.098 7.27 18.43 13.29
12/27/2021 2:00:00 AM 3.27 37.886 0.098 7.26 19.16 13.3
12/27/2021 2:15:00 AM 3.25 37.85 0.098 7.26 18.77 13.3
12/27/2021 2:30:00 AM 3.22 37.796 0.098 7.26 19.16 13.31
12/27/2021 2:45:00 AM 3.19 37.742 0.098 7.26 18.86 13.31
12/27/2021 3:00:00 AM 3.14 37.652 0.098 7.27 18.99 13.33
12/27/2021 3:15:00 AM 3.1 37.58 0.098 7.26 18.64 13.35
12/27/2021 3:30:00 AM 3.07 37.526 0.098 7.26 18.96 13.35
12/27/2021 3:45:00 AM 3.05 37.49 0.098 7.26 18.72 13.36
12/27/2021 4:00:00 AM 3.03 37.454 0.098 7.26 18.71 13.37
12/27/2021 4:15:00 AM 3.01 37.418 0.098 7.26 18.86 13.38
12/27/2021 4:30:00 AM 3 37.4 0.098 7.26 19.38 13.39
12/27/2021 4:45:00 AM 2.98 37.364 0.098 7.26 18.93 13.39
12/27/2021 5:00:00 AM 2.97 37.346 0.098 7.26 19.01 13.4
12/27/2021 5:15:00 AM 2.96 37.328 0.098 7.26 18.91 13.4
12/27/2021 5:30:00 AM 2.95 37.31 0.098 7.26 19.01 13.41
12/27/2021 5:45:00 AM 2.93 37.274 0.098 7.26 18.59 13.41
12/27/2021 6:00:00 AM 2.92 37.256 0.098 7.26 18.97 13.41
12/27/2021 6:15:00 AM 2.91 37.238 0.098 7.26 18.89 13.41
12/27/2021 6:30:00 AM 2.9 37.22 0.098 7.27 18.67 13.41
12/27/2021 6:45:00 AM 2.89 37.202 0.098 7.26 18.74 13.43
12/27/2021 7:00:00 AM 2.88 37.184 0.098 7.26 19.1 13.43
12/27/2021 7:15:00 AM 2.87 37.166 0.098 7.26 18.96 13.43
12/27/2021 7:30:00 AM 2.86 37.148 0.098 7.27 19.08 13.43
12/27/2021 7:45:00 AM 2.86 37.148 0.098 7.27 18.89 13.44
12/27/2021 8:00:00 AM 2.86 37.148 0.098 7.26 18.86 13.45
12/27/2021 8:15:00 AM 2.86 37.148 0.098 7.27 18.77 13.48
12/27/2021 8:30:00 AM 2.86 37.148 0.098 7.27 18.96 13.49
12/27/2021 8:45:00 AM 2.86 37.148 0.098 7.27 19.04 13.5
12/27/2021 9:00:00 AM 2.86 37.148 0.098 7.28 18.9 13.55
12/27/2021 9:15:00 AM 2.85 37.13 0.098 7.29 18.94 13.64
12/27/2021 9:30:00 AM 2.86 37.148 0.098 7.3 19.41 13.71
12/27/2021 9:45:00 AM 2.89 37.202 0.098 7.32 19.08 13.86
12/27/2021 10:00:00 AM 2.91 37.238 0.097 7.34 19.18 14
12/27/2021 10:15:00 AM 2.92 37.256 0.097 7.37 18.99 14.07
12/27/2021 10:30:00 AM 2.93 37.274 0.097 7.39 19.36 14.11
12/27/2021 10:45:00 AM 2.87 37.166 0.097 7.41 18.94 14.17
12/27/2021 11:00:00 AM 2.88 37.184 0.097 7.43 19.02 14.19
12/27/2021 11:15:00 AM 2.9 37.22 0.097 7.44 18.9 14.19
12/27/2021 11:30:00 AM 2.93 37.274 0.097 7.46 18.87 14.25
12/27/2021 11:45:00 AM 2.97 37.346 0.097 7.49 18.57 14.3
12/27/2021 12:00:00 PM 3.02 37.436 0.097 7.51 18.58 14.32
12/27/2021 12:15:00 PM 3.05 37.49 0.097 7.52 18.61 14.29
12/27/2021 12:30:00 PM 3.06 37.508 0.097 7.53 18.95 14.24
12/27/2021 12:45:00 PM 3.04 37.472 0.097 7.52 18.36 14.14
12/27/2021 1:00:00 PM 2.97 37.346 0.096 7.51 19.18 14.09
12/27/2021 1:15:00 PM 2.98 37.364 0.096 7.51 18.46 14.05
12/27/2021 1:30:00 PM 2.99 37.382 0.096 7.51 18.51 14.07
12/27/2021 1:45:00 PM 2.99 37.382 0.096 7.51 18.65 14.08
12/27/2021 2:00:00 PM 2.99 37.382 0.096 7.5 19.32 14.06
12/27/2021 2:15:00 PM 3.01 37.418 0.096 7.52 18.7 14.1
12/27/2021 2:30:00 PM 3.02 37.436 0.096 7.51 18.95 14.03
12/27/2021 2:45:00 PM 3.02 37.436 0.096 7.5 18.77 13.97
12/27/2021 3:00:00 PM 3.02 37.436 0.096 7.5 18.5 13.98
12/27/2021 3:15:00 PM 3.02 37.436 0.096 7.49 18.99 13.87
12/27/2021 3:30:00 PM 3.02 37.436 0.096 7.47 19.37 13.8
12/27/2021 3:45:00 PM 3.01 37.418 0.096 7.46 18.86 13.7
12/27/2021 4:00:00 PM 3.01 37.418 0.096 7.44 19.33 13.63
12/27/2021 4:15:00 PM 3 37.4 0.096 7.42 19.07 13.57
12/27/2021 4:30:00 PM 2.99 37.382 0.096 7.41 19.1 13.52
12/27/2021 4:45:00 PM 2.98 37.364 0.096 7.39 19.02 13.47
12/27/2021 5:00:00 PM 2.97 37.346 0.096 7.37 19.38 13.43
12/27/2021 5:15:00 PM 2.96 37.328 0.096 7.36 19.67 13.41
12/27/2021 5:30:00 PM 2.96 37.328 0.096 7.35 19.47 13.38
12/27/2021 5:45:00 PM 2.95 37.31 0.096 7.33 19.53 13.37
12/27/2021 6:00:00 PM 2.94 37.292 0.096 7.33 19.28 13.36
12/27/2021 6:15:00 PM 2.94 37.292 0.096 7.32 19.56 13.34
12/27/2021 6:30:00 PM 2.92 37.256 0.095 7.31 20.01 13.35
12/27/2021 6:45:00 PM 2.93 37.274 0.095 7.31 19.49 13.34
12/27/2021 7:00:00 PM 2.93 37.274 0.095 7.3 19.96 13.33
12/27/2021 7:15:00 PM 2.93 37.274 0.095 7.3 19.3 13.32
12/27/2021 7:30:00 PM 2.93 37.274 0.095 7.3 19.29 13.32
12/27/2021 7:45:00 PM 2.93 37.274 0.095 7.29 19.07 13.32
12/27/2021 8:00:00 PM 2.93 37.274 0.096 7.29 19.86 13.31
12/27/2021 8:15:00 PM 2.92 37.256 0.095 7.28 19.27 13.31
12/27/2021 8:30:00 PM 2.91 37.238 0.095 7.29 19.36 13.31
12/27/2021 8:45:00 PM 2.92 37.256 0.096 7.28 19.53 13.31
12/27/2021 9:00:00 PM 2.91 37.238 0.096 7.29 19.51 13.31
12/27/2021 9:15:00 PM 2.91 37.238 0.096 7.28 19.24 13.31
12/27/2021 9:30:00 PM 2.9 37.22 0.096 7.28 19.36 13.31
12/27/2021 9:45:00 PM 2.9 37.22 0.096 7.28 19.46 13.31
12/27/2021 10:00:00 PM 2.9 37.22 0.096 7.27 19.28 13.31
12/27/2021 10:15:00 PM 2.9 37.22 0.096 7.28 19.52 13.31
12/27/2021 10:30:00 PM 2.9 37.22 0.096 7.28 19.52 13.31
12/27/2021 10:45:00 PM 2.89 37.202 0.096 7.27 20 13.31
12/27/2021 11:00:00 PM 2.89 37.202 0.096 7.27 19.68 13.31
12/27/2021 11:15:00 PM 2.89 37.202 0.096 7.28 19.65 13.32
12/27/2021 11:30:00 PM 2.89 37.202 0.096 7.27 19.82 13.31
12/27/2021 11:45:00 PM 2.9 37.22 0.096 7.27 19.93 13.31
12/28/2021 12:00:00 AM 2.9 37.22 0.096 7.27 19.66 13.31
12/28/2021 12:15:00 AM 2.9 37.22 0.096 7.27 19.71 13.31
12/28/2021 12:30:00 AM 2.91 37.238 0.096 7.27 19.52 13.31
12/28/2021 12:45:00 AM 2.91 37.238 0.096 7.27 19.96 13.31
12/28/2021 1:00:00 AM 2.91 37.238 0.096 7.27 19.59 13.3
12/28/2021 1:15:00 AM 2.92 37.256 0.096 7.27 19.8 13.3
12/28/2021 1:30:00 AM 2.92 37.256 0.096 7.27 19.74 13.3
12/28/2021 1:45:00 AM 2.93 37.274 0.096 7.27 19.45 13.31
12/28/2021 2:00:00 AM 2.93 37.274 0.096 7.27 20.07 13.31
12/28/2021 2:15:00 AM 2.94 37.292 0.096 7.27 19.27 13.3
12/28/2021 2:30:00 AM 2.94 37.292 0.096 7.27 19.85 13.3
12/28/2021 2:45:00 AM 2.94 37.292 0.096 7.27 19.87 13.3
12/28/2021 3:00:00 AM 2.95 37.31 0.096 7.27 19.51 13.3
12/28/2021 3:15:00 AM 2.96 37.328 0.097 7.27 19.9 13.3
12/28/2021 3:30:00 AM 2.96 37.328 0.097 7.26 20.15 13.3
12/28/2021 3:45:00 AM 2.96 37.328 0.097 7.27 19.81 13.3
12/28/2021 4:00:00 AM 2.95 37.31 0.097 7.27 19.55 13.3
12/28/2021 4:15:00 AM 2.95 37.31 0.097 7.27 20.01 13.3
12/28/2021 4:30:00 AM 2.95 37.31 0.097 7.27 19.47 13.3
12/28/2021 4:45:00 AM 2.94 37.292 0.097 7.26 19.9 13.3
12/28/2021 5:00:00 AM 2.94 37.292 0.097 7.27 19.71 13.3
12/28/2021 5:15:00 AM 2.93 37.274 0.097 7.26 19.72 13.3
12/28/2021 5:30:00 AM 2.91 37.238 0.098 7.26 19.66 13.31
12/28/2021 5:45:00 AM 2.87 37.166 0.098 7.26 19.76 13.32
12/28/2021 6:00:00 AM 2.85 37.13 0.098 7.26 19.6 13.33
12/28/2021 6:15:00 AM 2.83 37.094 0.098 7.26 19.86 13.34
12/28/2021 6:30:00 AM 2.83 37.094 0.098 7.26 19.87 13.35
12/28/2021 6:45:00 AM 2.85 37.13 0.098 7.26 19.44 13.35
12/28/2021 7:00:00 AM 2.86 37.148 0.098 7.26 19.8 13.35
12/28/2021 7:15:00 AM 2.87 37.166 0.098 7.26 19.97 13.35
12/28/2021 7:30:00 AM 2.88 37.184 0.098 7.27 19.73 13.35
12/28/2021 7:45:00 AM 2.89 37.202 0.098 7.27 19.84 13.37
12/28/2021 8:00:00 AM 2.88 37.184 0.098 7.27 19.85 13.42
12/28/2021 8:15:00 AM 2.88 37.184 0.098 7.28 20.28 13.47
12/28/2021 8:30:00 AM 2.88 37.184 0.098 7.29 19.78 13.57
12/28/2021 8:45:00 AM 2.88 37.184 0.098 7.31 19.59 13.65
12/28/2021 9:00:00 AM 2.88 37.184 0.098 7.32 19.7 13.74
12/28/2021 9:15:00 AM 2.88 37.184 0.098 7.34 19.61 13.86
12/28/2021 9:30:00 AM 2.9 37.22 0.098 7.36 19.74 13.95
12/28/2021 9:45:00 AM 2.92 37.256 0.098 7.38 19.68 14.04
12/28/2021 10:00:00 AM 2.96 37.328 0.098 7.41 19.66 14.13
12/28/2021 10:15:00 AM 2.99 37.382 0.098 7.43 19.46 14.17
12/28/2021 10:30:00 AM 3 37.4 0.098 7.45 19.65 14.18
12/28/2021 10:45:00 AM 3.01 37.418 0.098 7.46 19.28 14.18
12/28/2021 11:00:00 AM 3.06 37.508 0.098 7.48 19.33 14.23
12/28/2021 11:15:00 AM 3.14 37.652 0.098 7.5 19.54 14.27
12/28/2021 11:30:00 AM 3.22 37.796 0.098 7.52 19.59 14.29
12/28/2021 11:45:00 AM 3.32 37.976 0.098 7.54 19.22 14.28
12/28/2021 12:00:00 PM 3.42 38.156 0.098 7.56 19.77 14.26
12/28/2021 12:15:00 PM 3.49 38.282 0.098 7.57 19.13 14.22
12/28/2021 12:30:00 PM 3.52 38.336 0.098 7.58 19.4 14.19
12/28/2021 12:45:00 PM 3.5 38.3 0.099 7.58 19.34 14.1
12/28/2021 1:00:00 PM 3.48 38.264 0.099 7.57 20.13 14.01
12/28/2021 1:15:00 PM 3.45 38.21 0.099 7.56 19.55 13.97
12/28/2021 1:30:00 PM 3.44 38.192 0.099 7.55 19.84 13.91
12/28/2021 1:45:00 PM 3.44 38.192 0.099 7.54 19.48 13.86
12/28/2021 2:00:00 PM 3.46 38.228 0.099 7.52 19.66 13.82
12/28/2021 2:15:00 PM 3.49 38.282 0.099 7.53 19.6 13.85
12/28/2021 2:30:00 PM 3.53 38.354 0.099 7.53 19.57 13.88
12/28/2021 2:45:00 PM 3.56 38.408 0.099 7.54 19.34 13.86
12/28/2021 3:00:00 PM 3.57 38.426 0.099 7.53 19.44 13.75
12/28/2021 3:15:00 PM 3.57 38.426 0.099 7.51 19.56 13.65
12/28/2021 3:30:00 PM 3.56 38.408 0.099 7.49 20.03 13.56
12/28/2021 3:45:00 PM 3.55 38.39 0.099 7.46 19.5 13.48
12/28/2021 4:00:00 PM 3.54 38.372 0.099 7.44 19.69 13.43
12/28/2021 4:15:00 PM 3.54 38.372 0.099 7.43 19.86 13.38
12/28/2021 4:30:00 PM 3.54 38.372 0.099 7.41 19.53 13.33
12/28/2021 4:45:00 PM 3.55 38.39 0.099 7.39 19.96 13.27
12/28/2021 5:00:00 PM 3.56 38.408 0.099 7.37 19.75 13.23
12/28/2021 5:15:00 PM 3.57 38.426 0.099 7.36 19.95 13.19
12/28/2021 5:30:00 PM 3.58 38.444 0.099 7.35 20 13.16
12/28/2021 5:45:00 PM 3.6 38.48 0.099 7.33 19.99 13.13
12/28/2021 6:00:00 PM 3.6 38.48 0.099 7.33 19.56 13.12
12/28/2021 6:15:00 PM 3.61 38.498 0.099 7.32 19.82 13.11
12/28/2021 6:30:00 PM 3.58 38.444 0.098 7.31 20.41 13.1
12/28/2021 6:45:00 PM 3.51 38.318 0.098 7.31 20.09 13.1
12/28/2021 7:00:00 PM 3.41 38.138 0.098 7.3 20.06 13.11
12/28/2021 7:15:00 PM 3.35 38.03 0.098 7.3 20.25 13.11
12/28/2021 7:30:00 PM 3.24 37.832 0.098 7.29 20.15 13.12
12/28/2021 7:45:00 PM 3.1 37.58 0.098 7.29 19.98 13.14
12/28/2021 8:00:00 PM 3.03 37.454 0.098 7.29 20.02 13.17
12/28/2021 8:15:00 PM 2.98 37.364 0.098 7.29 20.28 13.19
12/28/2021 8:30:00 PM 2.92 37.256 0.097 7.28 19.75 13.21
12/28/2021 8:45:00 PM 2.61 36.698 0.097 7.28 20.33 13.25
12/28/2021 9:00:00 PM 2.55 36.59 0.097 7.28 20.66 13.29
12/28/2021 9:15:00 PM 2.59 36.662 0.097 7.27 20.44 13.34
12/28/2021 9:30:00 PM 2.62 36.716 0.098 7.28 20.41 13.36
12/28/2021 9:45:00 PM 2.63 36.734 0.098 7.27 20.34 13.37
12/28/2021 10:00:00 PM 2.68 36.824 0.098 7.27 20.37 13.37
12/28/2021 10:15:00 PM 2.7 36.86 0.098 7.27 20.67 13.38
12/28/2021 10:30:00 PM 2.67 36.806 0.098 7.27 20.58 13.39
12/28/2021 10:45:00 PM 2.66 36.788 0.098 7.27 20.65 13.39
12/28/2021 11:00:00 PM 2.66 36.788 0.098 7.26 5.74 13.4
12/28/2021 11:15:00 PM 2.66 36.788 0.098 7.27 5.49 13.4
12/28/2021 11:30:00 PM 2.66 36.788 0.098 7.27 5.77 13.4
12/28/2021 11:45:00 PM 2.67 36.806 0.098 7.27 6.05 13.4
12/29/2021 12:00:00 AM 2.69 36.842 0.098 7.26 5.32 13.4
12/29/2021 12:15:00 AM 2.71 36.878 0.098 7.27 5.64 13.39
12/29/2021 12:30:00 AM 2.72 36.896 0.098 7.26 5.56 13.38
12/29/2021 12:45:00 AM 2.74 36.932 0.098 7.27 5.32 13.37
12/29/2021 1:00:00 AM 2.77 36.986 0.098 7.26 5.5 13.36
12/29/2021 1:15:00 AM 2.79 37.022 0.098 7.26 7.58 13.35
12/29/2021 1:30:00 AM 2.81 37.058 0.098 7.26 8.28 13.34
12/29/2021 1:45:00 AM 2.83 37.094 0.098 7.26 7.61 13.33
12/29/2021 2:00:00 AM 2.84 37.112 0.098 7.26 7.95 13.32
12/29/2021 2:15:00 AM 2.85 37.13 0.098 7.26 7.54 13.31
12/29/2021 2:30:00 AM 2.86 37.148 0.098 7.26 7.8 13.31
12/29/2021 2:45:00 AM 2.87 37.166 0.098 7.26 8.19 13.31
12/29/2021 3:00:00 AM 2.87 37.166 0.098 7.26 9.33 13.31
12/29/2021 3:15:00 AM 2.88 37.184 0.098 7.26 7.9 13.31
12/29/2021 3:30:00 AM 2.89 37.202 0.099 7.26 9.34 13.31
12/29/2021 3:45:00 AM 2.89 37.202 0.099 7.26 8.81 13.31
12/29/2021 4:00:00 AM 2.9 37.22 0.099 7.26 8.91 13.3
12/29/2021 4:15:00 AM 2.91 37.238 0.099 7.26 8.62 13.3
12/29/2021 4:30:00 AM 2.92 37.256 0.099 7.26 7.61 13.3
12/29/2021 4:45:00 AM 2.93 37.274 0.1 7.25 8.82 13.29
12/29/2021 5:00:00 AM 2.94 37.292 0.1 7.26 8.43 13.29
12/29/2021 5:15:00 AM 2.95 37.31 0.1 7.25 8.46 13.28
12/29/2021 5:30:00 AM 2.96 37.328 0.1 7.25 8.32 13.28
12/29/2021 5:45:00 AM 2.97 37.346 0.101 7.26 7.42 13.27
12/29/2021 6:00:00 AM 2.98 37.364 0.101 7.26 8.32 13.27
12/29/2021 6:15:00 AM 2.99 37.382 0.101 7.26 7.73 13.27
12/29/2021 6:30:00 AM 3.01 37.418 0.102 7.26 7.63 13.27
12/29/2021 6:45:00 AM 3.02 37.436 0.102 7.26 7.75 13.26
12/29/2021 7:00:00 AM 3.02 37.436 0.103 7.26 7.8 13.27
12/29/2021 7:15:00 AM 3.04 37.472 0.103 7.26 9.22 13.26
12/29/2021 7:30:00 AM 3.04 37.472 0.103 7.25 7.05 13.27
12/29/2021 7:45:00 AM 3.05 37.49 0.104 7.25 8.72 13.27
12/29/2021 8:00:00 AM 3.07 37.526 0.104 7.26 7.58 13.28
12/29/2021 8:15:00 AM 3.08 37.544 0.104 7.26 8.93 13.29
12/29/2021 8:30:00 AM 3.09 37.562 0.104 7.26 7.51 13.32
12/29/2021 8:45:00 AM 3.11 37.598 0.104 7.27 7.95 13.39
12/29/2021 9:00:00 AM 3.12 37.616 0.104 7.28 7.74 13.45
12/29/2021 9:15:00 AM 3.15 37.67 0.104 7.29 9.02 13.54
12/29/2021 9:30:00 AM 3.17 37.706 0.104 7.31 8.08 13.61
12/29/2021 9:45:00 AM 3.2 37.76 0.104 7.32 8.69 13.68
12/29/2021 10:00:00 AM 3.23 37.814 0.105 7.34 7.89 13.74
12/29/2021 10:15:00 AM 3.26 37.868 0.105 7.35 8.01 13.77
12/29/2021 10:30:00 AM 3.29 37.922 0.105 7.38 9.21 13.82
12/29/2021 10:45:00 AM 3.34 38.012 0.105 7.39 7.59 13.88
12/29/2021 11:00:00 AM 3.39 38.102 0.105 7.41 7.24 13.92
12/29/2021 11:15:00 AM 3.42 38.156 0.105 7.43 8.36 13.93
12/29/2021 11:30:00 AM 3.46 38.228 0.105 7.44 8.52 13.91
12/29/2021 11:45:00 AM 3.51 38.318 0.105 7.45 8.36 13.93
12/29/2021 12:00:00 PM 3.56 38.408 0.105 7.47 7.71 13.95
12/29/2021 12:15:00 PM 3.6 38.48 0.106 7.48 7.75 13.91
12/29/2021 12:30:00 PM 3.63 38.534 0.106 7.48 5.01 13.87
12/29/2021 12:45:00 PM 3.67 38.606 0.106 7.48 4.75 13.85
12/29/2021 1:00:00 PM 3.7 38.66 0.106 7.49 5.05 13.84
12/29/2021 1:15:00 PM 3.75 38.75 0.107 7.49 5.33 13.85
12/29/2021 1:30:00 PM 3.8 38.84 0.107 7.51 4.95 13.85
12/29/2021 1:45:00 PM 3.84 38.912 0.107 7.51 4.71 13.84
12/29/2021 2:00:00 PM 3.88 38.984 0.107 7.52 4.78 13.83
12/29/2021 2:15:00 PM 3.92 39.056 0.108 7.53 4.71 13.8
12/29/2021 2:30:00 PM 3.96 39.128 0.108 7.53 4.75 13.77
12/29/2021 2:45:00 PM 3.99 39.182 0.108 7.53 4.74 13.74
12/29/2021 3:00:00 PM 4.03 39.254 0.108 7.53 4.72 13.73
12/29/2021 3:15:00 PM 4.06 39.308 0.108 7.53 4.85 13.68
12/29/2021 3:30:00 PM 4.09 39.362 0.109 7.52 4.71 13.65
12/29/2021 3:45:00 PM 4.11 39.398 0.109 7.52 4.85 13.59
12/29/2021 4:00:00 PM 4.13 39.434 0.109 7.5 4.73 13.48
12/29/2021 4:15:00 PM 4.15 39.47 0.109 7.48 4.73 13.38
12/29/2021 4:30:00 PM 4.16 39.488 0.11 7.46 4.73 13.27
12/29/2021 4:45:00 PM 4.17 39.506 0.11 7.44 4.8 13.16
12/29/2021 5:00:00 PM 4.18 39.524 0.11 7.41 5.21 13.09
12/29/2021 5:15:00 PM 4.19 39.542 0.11 7.39 4.93 13.04
12/29/2021 5:30:00 PM 4.19 39.542 0.111 7.38 4.95 12.99
12/29/2021 5:45:00 PM 4.2 39.56 0.111 7.36 4.91 12.97
12/29/2021 6:00:00 PM 4.21 39.578 0.112 7.35 4.79 12.95
12/29/2021 6:15:00 PM 4.21 39.578 0.112 7.34 5.08 12.94
12/29/2021 6:30:00 PM 4.22 39.596 0.113 7.33 5.09 12.94
12/29/2021 6:45:00 PM 4.22 39.596 0.113 7.33 4.94 12.93
12/29/2021 7:00:00 PM 4.22 39.596 0.114 7.32 4.98 12.92
12/29/2021 7:15:00 PM 4.23 39.614 0.114 7.31 5.01 12.91
12/29/2021 7:30:00 PM 4.23 39.614 0.115 7.3 4.89 12.91
12/29/2021 7:45:00 PM 4.23 39.614 0.115 7.3 5.13 12.91
12/29/2021 8:00:00 PM 4.24 39.632 0.116 7.3 7.65 12.91
12/29/2021 8:15:00 PM 4.24 39.632 0.116 7.3 4.64 12.91
12/29/2021 8:30:00 PM 4.25 39.65 0.116 7.29 4.78 12.9
12/29/2021 8:45:00 PM 4.25 39.65 0.117 7.3 4.89 12.9
12/29/2021 9:00:00 PM 4.26 39.668 0.117 7.3 4.9 12.9
12/29/2021 9:15:00 PM 4.26 39.668 0.118 7.3 4.74 12.9
12/29/2021 9:30:00 PM 4.27 39.686 0.118 7.29 4.89 12.89
12/29/2021 9:45:00 PM 4.27 39.686 0.118 7.29 8.26 12.89
12/29/2021 10:00:00 PM 4.28 39.704 0.119 7.29 4.7 12.88
12/29/2021 10:15:00 PM 4.28 39.704 0.119 7.29 4.83 12.88
12/29/2021 10:30:00 PM 4.28 39.704 0.12 7.29 7.67 12.88
12/29/2021 10:45:00 PM 4.29 39.722 0.12 7.29 4.84 12.89
12/29/2021 11:00:00 PM 4.29 39.722 0.12 7.29 4.66 12.89
12/29/2021 11:15:00 PM 4.29 39.722 0.121 7.29 5.19 12.88
12/29/2021 11:30:00 PM 4.29 39.722 0.121 7.29 4.8 12.88
12/29/2021 11:45:00 PM 4.3 39.74 0.122 7.29 5.13 12.88
12/30/2021 12:00:00 AM 4.3 39.74 0.122 7.29 5.17 12.88
12/30/2021 12:15:00 AM 4.3 39.74 0.122 7.29 4.83 12.88
12/30/2021 12:30:00 AM 4.3 39.74 0.123 7.29 4.81 12.87
12/30/2021 12:45:00 AM 4.3 39.74 0.123 7.29 4.77 12.87
12/30/2021 1:00:00 AM 4.3 39.74 0.124 7.29 4.87 12.87
12/30/2021 1:15:00 AM 4.3 39.74 0.124 7.29 5.02 12.86
12/30/2021 1:30:00 AM 4.3 39.74 0.124 7.29 4.89 12.86
12/30/2021 1:45:00 AM 4.31 39.758 0.125 7.29 4.81 12.86
12/30/2021 2:00:00 AM 4.31 39.758 0.125 7.29 4.87 12.86
12/30/2021 2:15:00 AM 4.31 39.758 0.126 7.29 4.82 12.86
12/30/2021 2:30:00 AM 4.31 39.758 0.126 7.29 4.98 12.85
12/30/2021 2:45:00 AM 4.31 39.758 0.127 7.29 4.73 12.86
12/30/2021 3:00:00 AM 4.31 39.758 0.127 7.29 4.76 12.85
12/30/2021 3:15:00 AM 4.31 39.758 0.128 7.29 4.87 12.85
12/30/2021 3:30:00 AM 4.31 39.758 0.129 7.29 4.82 12.85
12/30/2021 3:45:00 AM 4.31 39.758 0.129 7.29 5.01 12.85
12/30/2021 4:00:00 AM 4.31 39.758 0.13 7.29 5.14 12.85
12/30/2021 4:15:00 AM 4.32 39.776 0.13 7.29 5.04 12.84
12/30/2021 4:30:00 AM 4.32 39.776 0.131 7.29 5.05 12.84
12/30/2021 4:45:00 AM 4.32 39.776 0.131 7.29 5.19 12.83
12/30/2021 5:00:00 AM 4.33 39.794 0.132 7.29 5.16 12.83
12/30/2021 5:15:00 AM 4.33 39.794 0.132 7.29 5.31 12.82
12/30/2021 5:30:00 AM 4.33 39.794 0.132 7.29 5.41 12.82
12/30/2021 5:45:00 AM 4.34 39.812 0.132 7.29 8.07 12.83
12/30/2021 6:00:00 AM 4.34 39.812 0.133 7.29 5.32 12.83
12/30/2021 6:15:00 AM 4.35 39.83 0.133 7.29 5.36 12.83
12/30/2021 6:30:00 AM 4.35 39.83 0.133 7.3 5.19 12.82
12/30/2021 6:45:00 AM 4.36 39.848 0.133 7.29 5.34 12.82
12/30/2021 7:00:00 AM 4.36 39.848 0.133 7.29 5.39 12.82
12/30/2021 7:15:00 AM 4.36 39.848 0.133 7.29 5.45 12.82
12/30/2021 7:30:00 AM 4.37 39.866 0.133 7.29 5.53 12.81
12/30/2021 7:45:00 AM 4.37 39.866 0.133 7.29 5.38 12.82
12/30/2021 8:00:00 AM 4.38 39.884 0.133 7.29 5.39 12.83
12/30/2021 8:15:00 AM 4.39 39.902 0.133 7.29 5.39 12.85
12/30/2021 8:30:00 AM 4.4 39.92 0.133 7.3 5.37 12.88
12/30/2021 8:45:00 AM 4.41 39.938 0.133 7.3 5.78 12.92
12/30/2021 9:00:00 AM 4.42 39.956 0.132 7.31 5.58 12.94
12/30/2021 9:15:00 AM 4.43 39.974 0.132 7.32 5.82 12.97
12/30/2021 9:30:00 AM 4.44 39.992 0.132 7.32 6.56 13.02
12/30/2021 9:45:00 AM 4.46 40.028 0.131 7.34 5.95 13.07
12/30/2021 10:00:00 AM 4.48 40.064 0.131 7.35 5.96 13.12
12/30/2021 10:15:00 AM 4.51 40.118 0.131 7.36 5.8 13.2
12/30/2021 10:30:00 AM 4.54 40.172 0.13 7.38 5.83 13.26
12/30/2021 10:45:00 AM 4.57 40.226 0.13 7.39 6.08 13.3
12/30/2021 11:00:00 AM 4.59 40.262 0.13 7.4 5.86 13.31
12/30/2021 11:15:00 AM 4.63 40.334 0.129 7.42 5.85 13.35
12/30/2021 11:30:00 AM 4.66 40.388 0.129 7.43 5.77 13.37
12/30/2021 11:45:00 AM 4.71 40.478 0.129 7.45 5.92 13.43
12/30/2021 12:00:00 PM 4.76 40.568 0.128 7.47 5.59 13.44
12/30/2021 12:15:00 PM 4.8 40.64 0.128 7.48 5.76 13.45
12/30/2021 12:30:00 PM 4.83 40.694 0.128 7.49 5.36 13.42
12/30/2021 12:45:00 PM 4.86 40.748 0.128 7.5 5.39 13.38
12/30/2021 1:00:00 PM 4.89 40.802 0.127 7.5 5.52 13.37
12/30/2021 1:15:00 PM 4.92 40.856 0.127 7.51 5.32 13.36
12/30/2021 1:30:00 PM 4.94 40.892 0.127 7.5 5.45 13.3
12/30/2021 1:45:00 PM 4.96 40.928 0.126 7.5 5.1 13.29
12/30/2021 2:00:00 PM 4.99 40.982 0.126 7.51 5.1 13.27
12/30/2021 2:15:00 PM 5.02 41.036 0.126 7.51 4.69 13.23
12/30/2021 2:30:00 PM 5.04 41.072 0.125 7.5 4.82 13.21
12/30/2021 2:45:00 PM 5.06 41.108 0.125 7.5 4.81 13.14
12/30/2021 3:00:00 PM 5.08 41.144 0.125 7.48 4.75 13.08
12/30/2021 3:15:00 PM 5.09 41.162 0.124 7.47 4.81 12.99
12/30/2021 3:30:00 PM 5.1 41.18 0.124 7.46 4.8 12.91
12/30/2021 3:45:00 PM 5.11 41.198 0.124 7.44 7.23 12.88
12/30/2021 4:00:00 PM 5.13 41.234 0.124 7.43 4.87 12.87
12/30/2021 4:15:00 PM 5.15 41.27 0.123 7.42 5.02 12.82
12/30/2021 4:30:00 PM 5.15 41.27 0.123 7.4 4.86 12.77
12/30/2021 4:45:00 PM 5.16 41.288 0.123 7.39 5.15 12.7
12/30/2021 5:00:00 PM 5.17 41.306 0.123 7.37 4.97 12.65
12/30/2021 5:15:00 PM 5.18 41.324 0.123 7.36 4.75 12.61
12/30/2021 5:30:00 PM 5.19 41.342 0.122 7.35 4.93 12.58
12/30/2021 5:45:00 PM 5.19 41.342 0.122 7.34 5.03 12.57
12/30/2021 6:00:00 PM 5.19 41.342 0.122 7.33 4.82 12.54
12/30/2021 6:15:00 PM 5.2 41.36 0.122 7.32 5.02 12.54
12/30/2021 6:30:00 PM 5.2 41.36 0.122 7.32 4.79 12.53
12/30/2021 6:45:00 PM 5.2 41.36 0.122 7.3 5.02 12.53
12/30/2021 7:00:00 PM 5.21 41.378 0.122 7.3 4.77 12.52
12/30/2021 7:15:00 PM 5.22 41.396 0.122 7.3 5.05 12.52
12/30/2021 7:30:00 PM 5.22 41.396 0.122 7.3 4.92 12.51
12/30/2021 7:45:00 PM 5.23 41.414 0.121 7.29 5.14 12.51
12/30/2021 8:00:00 PM 5.23 41.414 0.121 7.29 4.99 12.5
12/30/2021 8:15:00 PM 5.23 41.414 0.121 7.28 5.58 12.5
12/30/2021 8:30:00 PM 5.24 41.432 0.121 7.28 6.07 12.5
12/30/2021 8:45:00 PM 5.24 41.432 0.121 7.28 5.21 12.5
12/30/2021 9:00:00 PM 5.23 41.414 0.121 7.28 4.89 12.49
12/30/2021 9:15:00 PM 5.23 41.414 0.121 7.27 4.77 12.49
12/30/2021 9:30:00 PM 5.22 41.396 0.121 7.28 4.98 12.49
12/30/2021 9:45:00 PM 5.22 41.396 0.121 7.27 5.06 12.5
12/30/2021 10:00:00 PM 5.21 41.378 0.121 7.27 4.9 12.5
12/30/2021 10:15:00 PM 5.21 41.378 0.121 7.27 4.76 12.5
12/30/2021 10:30:00 PM 5.21 41.378 0.121 7.27 4.89 12.5
12/30/2021 10:45:00 PM 5.21 41.378 0.121 7.27 5.15 12.5
12/30/2021 11:00:00 PM 5.21 41.378 0.121 7.27 4.94 12.5
12/30/2021 11:15:00 PM 5.22 41.396 0.12 7.27 4.74 12.5
12/30/2021 11:30:00 PM 5.22 41.396 0.12 7.26 277.23 12.5
12/30/2021 11:45:00 PM 5.23 41.414 0.12 7.26 4.73 12.5
12/31/2021 12:00:00 AM 5.23 41.414 0.12 7.26 5.96 12.5
12/31/2021 12:15:00 AM 5.23 41.414 0.12 7.26 4.75 12.49
12/31/2021 12:30:00 AM 5.23 41.414 0.12 7.26 4.78 12.5
12/31/2021 12:45:00 AM 5.23 41.414 0.12 7.27 5.12 12.5
12/31/2021 1:00:00 AM 5.24 41.432 0.12 7.26 4.77 12.5
12/31/2021 1:15:00 AM 5.24 41.432 0.12 7.26 5.11 12.49
12/31/2021 1:30:00 AM 5.24 41.432 0.12 7.26 4.87 12.49
12/31/2021 1:45:00 AM 5.24 41.432 0.12 7.26 4.94 12.49
12/31/2021 2:00:00 AM 5.25 41.45 0.12 7.26 6.02 12.49
12/31/2021 2:15:00 AM 5.25 41.45 0.12 7.26 4.98 12.49
12/31/2021 2:30:00 AM 5.25 41.45 0.12 7.26 5.07 12.49
12/31/2021 2:45:00 AM 5.25 41.45 0.12 7.26 5.03 12.49
12/31/2021 3:00:00 AM 5.25 41.45 0.12 7.26 5.45 12.49
12/31/2021 3:15:00 AM 5.25 41.45 0.12 7.26 10.03 12.5
12/31/2021 3:30:00 AM 5.25 41.45 0.12 7.26 5.17 12.49
12/31/2021 3:45:00 AM 5.25 41.45 0.12 7.26 5.12 12.5
12/31/2021 4:00:00 AM 5.25 41.45 0.12 7.26 5.1 12.5
12/31/2021 4:15:00 AM 5.25 41.45 0.121 7.26 5.56 12.49
12/31/2021 4:30:00 AM 5.25 41.45 0.121 7.26 5.65 12.5
12/31/2021 4:45:00 AM 5.25 41.45 0.121 7.26 5.17 12.49
12/31/2021 5:00:00 AM 5.25 41.45 0.121 7.27 5.26 12.49
12/31/2021 5:15:00 AM 5.25 41.45 0.121 7.26 5.67 12.49
12/31/2021 5:30:00 AM 5.25 41.45 0.121 7.27 5.18 12.49
12/31/2021 5:45:00 AM 5.25 41.45 0.121 7.27 5.55 12.48
12/31/2021 6:00:00 AM 5.25 41.45 0.121 7.27 9.22 12.48
12/31/2021 6:15:00 AM 5.24 41.432 0.121 7.27 8.53 12.48
12/31/2021 6:30:00 AM 5.24 41.432 0.121 7.27 8.55 12.48
12/31/2021 6:45:00 AM 5.24 41.432 0.121 7.27 5.58 12.49
12/31/2021 7:00:00 AM 5.24 41.432 0.121 7.27 5.4 12.49
12/31/2021 7:15:00 AM 5.24 41.432 0.121 7.27 5.66 12.49
12/31/2021 7:30:00 AM 5.23 41.414 0.121 7.28 5.37 12.5
12/31/2021 7:45:00 AM 5.23 41.414 0.121 7.27 5.47 12.52
12/31/2021 8:00:00 AM 5.22 41.396 0.121 7.28 5.42 12.55
12/31/2021 8:15:00 AM 5.23 41.414 0.12 7.28 5.5 12.64
12/31/2021 8:30:00 AM 5.24 41.432 0.12 7.3 5.47 12.71
12/31/2021 8:45:00 AM 5.25 41.45 0.12 7.31 5.41 12.77
12/31/2021 9:00:00 AM 5.27 41.486 0.12 7.33 5.29 12.87
12/31/2021 9:15:00 AM 5.3 41.54 0.12 7.35 5.33 12.96
12/31/2021 9:30:00 AM 5.36 41.648 0.12 7.37 5.26 13.07
12/31/2021 9:45:00 AM 5.38 41.684 0.12 7.4 5.08 13.09
12/31/2021 10:00:00 AM 5.39 41.702 0.12 7.41 5.47 13.08
12/31/2021 10:15:00 AM 5.4 41.72 0.12 7.42 5.11 13.09
12/31/2021 10:30:00 AM 5.43 41.774 0.12 7.44 5.44 13.11
12/31/2021 10:45:00 AM 5.44 41.792 0.12 7.45 5.06 13.1
12/31/2021 11:00:00 AM 5.48 41.864 0.121 7.46 5.14 13.12
12/31/2021 11:15:00 AM 5.57 42.026 0.121 7.48 5.21 13.16
12/31/2021 11:30:00 AM 5.67 42.206 0.121 7.5 5.01 13.2
12/31/2021 11:45:00 AM 5.79 42.422 0.121 7.52 5.07 13.23
12/31/2021 12:00:00 PM 5.87 42.566 0.121 7.54 5.27 13.21
12/31/2021 12:15:00 PM 5.92 42.656 0.121 7.55 5.33 13.14
12/31/2021 12:30:00 PM 6 42.8 0.12 7.56 4.94 13.18
12/31/2021 12:45:00 PM 6.06 42.908 0.12 7.57 4.95 13.17
12/31/2021 1:00:00 PM 6.08 42.944 0.12 7.58 4.86 13.16
12/31/2021 1:15:00 PM 6.18 43.124 0.12 7.6 5.1 13.16
12/31/2021 1:30:00 PM 6.26 43.268 0.12 7.61 5.21 13.1
12/31/2021 1:45:00 PM 6.33 43.394 0.12 7.61 5.15 13.06
12/31/2021 2:00:00 PM 6.38 43.484 0.12 7.62 5.7 13.02
12/31/2021 2:15:00 PM 6.46 43.628 0.12 7.62 5.78 13.02
12/31/2021 2:30:00 PM 6.54 43.772 0.12 7.63 5.31 13.01
12/31/2021 2:45:00 PM 6.58 43.844 0.12 7.64 5.29 12.98
12/31/2021 3:00:00 PM 6.62 43.916 0.119 7.64 5.37 12.96
12/31/2021 3:15:00 PM 6.65 43.97 0.119 7.64 5.33 12.88
12/31/2021 3:30:00 PM 6.65 43.97 0.119 7.62 6.03 12.75
12/31/2021 3:45:00 PM 6.65 43.97 0.119 7.6 5.25 12.64
12/31/2021 4:00:00 PM 6.64 43.952 0.119 7.57 5.42 12.57
12/31/2021 4:15:00 PM 6.61 43.898 0.119 7.54 5.36 12.47
12/31/2021 4:30:00 PM 6.58 43.844 0.119 7.51 5.67 12.37
12/31/2021 4:45:00 PM 6.55 43.79 0.119 7.48 5.43 12.28
12/31/2021 5:00:00 PM 6.53 43.754 0.119 7.46 76.66 12.2
12/31/2021 5:15:00 PM 6.51 43.718 0.119 7.43 5.29 12.16
12/31/2021 5:30:00 PM 6.5 43.7 0.119 7.41 5.91 12.13
12/31/2021 5:45:00 PM 6.49 43.682 0.118 7.39 6.24 12.11
12/31/2021 6:00:00 PM 6.48 43.664 0.118 7.37 8.27 12.1
12/31/2021 6:15:00 PM 6.47 43.646 0.118 7.36 5.43 12.09
12/31/2021 6:30:00 PM 6.46 43.628 0.118 7.35 6.22 12.08
12/31/2021 6:45:00 PM 6.45 43.61 0.118 7.34 5.81 12.08
12/31/2021 7:00:00 PM 6.44 43.592 0.117 7.33 7.31 12.08
12/31/2021 7:15:00 PM 6.44 43.592 0.117 7.32 6.44 12.07
12/31/2021 7:30:00 PM 6.44 43.592 0.117 7.32 7.34 12.06
12/31/2021 7:45:00 PM 6.45 43.61 0.117 7.31 7.07 12.06
12/31/2021 8:00:00 PM 6.45 43.61 0.117 7.31 10.26 12.05
12/31/2021 8:15:00 PM 6.46 43.628 0.116 7.3 8.7 12.05
12/31/2021 8:30:00 PM 6.46 43.628 0.116 7.3 35.53 12.04
12/31/2021 8:45:00 PM 6.47 43.646 0.116 7.3 9.66 12.04
12/31/2021 9:00:00 PM 6.47 43.646 0.116 7.29 15.75 12.04
12/31/2021 9:15:00 PM 6.47 43.646 0.116 7.29 13.74 12.04
12/31/2021 9:30:00 PM 6.47 43.646 0.116 7.29 6.23 12.04
12/31/2021 9:45:00 PM 6.46 43.628 0.115 7.29 5.97 12.03
12/31/2021 10:00:00 PM 6.46 43.628 0.115 7.29 5.41 12.03
12/31/2021 10:15:00 PM 6.46 43.628 0.115 7.29 4.92 12.04
12/31/2021 10:30:00 PM 6.45 43.61 0.115 7.29 4.96 12.03
12/31/2021 10:45:00 PM 6.46 43.628 0.115 7.29 15.82 12.03
12/31/2021 11:00:00 PM 6.46 43.628 0.115 7.28 118.89 12.03
12/31/2021 11:15:00 PM 6.45 43.61 0.115 7.29 21.4 12.03
12/31/2021 11:30:00 PM 6.45 43.61 0.115 7.28 8.94 12.03
12/31/2021 11:45:00 PM 6.44 43.592 0.115 7.28 54.91 12.03
1/1/2022 12:00:00 AM 6.44 43.592 0.114 7.28 211.9 12.02
1/1/2022 12:15:00 AM 6.45 43.61 0.114 7.28 53.54 12.02
1/1/2022 12:30:00 AM 6.45 43.61 0.114 7.28 44.42 12.02
1/1/2022 12:45:00 AM 6.45 43.61 0.114 7.28 5.59 12.01
1/1/2022 1:00:00 AM 6.45 43.61 0.114 7.28 13.39 12.01
1/1/2022 1:15:00 AM 6.46 43.628 0.114 7.28 7.81 12.01
1/1/2022 1:30:00 AM 6.46 43.628 0.114 7.27 9.12 12.01
1/1/2022 1:45:00 AM 6.47 43.646 0.114 7.28 14.1 12.01
1/1/2022 2:00:00 AM 6.47 43.646 0.113 7.28 9.4 12.01
1/1/2022 2:15:00 AM 6.48 43.664 0.113 7.28 6.13 12
1/1/2022 2:30:00 AM 6.48 43.664 0.113 7.28 8.58 12
1/1/2022 2:45:00 AM 6.48 43.664 0.113 7.28 10.7 11.99
1/1/2022 3:00:00 AM 6.49 43.682 0.113 7.28 12.84 12
1/1/2022 3:15:00 AM 6.49 43.682 0.113 7.28 4.96 11.99
1/1/2022 3:30:00 AM 6.49 43.682 0.113 7.27 10.78 11.99
1/1/2022 3:45:00 AM 6.5 43.7 0.113 7.27 10.62 11.99
1/1/2022 4:00:00 AM 6.5 43.7 0.113 7.27 8.36 11.99
1/1/2022 4:15:00 AM 6.5 43.7 0.113 7.27 10.86 11.99
1/1/2022 4:30:00 AM 6.5 43.7 0.113 7.27 7.61 11.98
1/1/2022 4:45:00 AM 6.5 43.7 0.113 7.28 5.36 11.98
1/1/2022 5:00:00 AM 6.5 43.7 0.113 7.28 5.56 11.97
1/1/2022 5:15:00 AM 6.5 43.7 0.113 7.27 5.52 11.98
1/1/2022 5:30:00 AM 6.5 43.7 0.113 7.28 5.58 11.97
1/1/2022 5:45:00 AM 6.51 43.718 0.113 7.27 5.52 11.98
1/1/2022 6:00:00 AM 6.51 43.718 0.113 7.28 5.51 11.97
1/1/2022 6:15:00 AM 6.51 43.718 0.113 7.27 5.68 11.97
1/1/2022 6:30:00 AM 6.51 43.718 0.113 7.27 5.52 11.97
1/1/2022 6:45:00 AM 6.51 43.718 0.112 7.27 5.5 11.97
1/1/2022 7:00:00 AM 6.52 43.736 0.112 7.27 5.65 11.97
1/1/2022 7:15:00 AM 6.52 43.736 0.112 7.27 5.64 11.97
1/1/2022 7:30:00 AM 6.52 43.736 0.112 7.27 5.52 11.97
1/1/2022 7:45:00 AM 6.52 43.736 0.112 7.27 5.6 11.97
1/1/2022 8:00:00 AM 6.52 43.736 0.112 7.28 5.45 12
1/1/2022 8:15:00 AM 6.53 43.754 0.112 7.27 5.82 12.02
1/1/2022 8:30:00 AM 6.53 43.754 0.112 7.28 5.77 12.05
1/1/2022 8:45:00 AM 6.54 43.772 0.112 7.28 5.61 12.07
1/1/2022 9:00:00 AM 6.55 43.79 0.112 7.29 5.45 12.12
1/1/2022 9:15:00 AM 6.57 43.826 0.111 7.3 5.92 12.18
1/1/2022 9:30:00 AM 6.59 43.862 0.111 7.31 5.39 12.25
1/1/2022 9:45:00 AM 6.62 43.916 0.111 7.33 5.78 12.33
1/1/2022 10:00:00 AM 6.64 43.952 0.111 7.35 5.57 12.39
1/1/2022 10:15:00 AM 6.67 44.006 0.111 7.36 5.77 12.45
1/1/2022 10:30:00 AM 6.71 44.078 0.111 7.39 5.58 12.5
1/1/2022 10:45:00 AM 6.73 44.114 0.11 7.4 5.73 12.51
1/1/2022 11:00:00 AM 6.76 44.168 0.11 7.41 5.77 12.48
1/1/2022 11:15:00 AM 6.79 44.222 0.11 7.42 5.51 12.51
1/1/2022 11:30:00 AM 6.83 44.294 0.11 7.44 5.83 12.58
1/1/2022 11:45:00 AM 6.86 44.348 0.11 7.45 5.69 12.59
1/1/2022 12:00:00 PM 6.89 44.402 0.11 7.47 5.77 12.6
1/1/2022 12:15:00 PM 6.92 44.456 0.11 7.48 5.6 12.59
1/1/2022 12:30:00 PM 6.95 44.51 0.11 7.5 5.54 12.61
1/1/2022 12:45:00 PM 6.99 44.582 0.109 7.5 5.59 12.62
1/1/2022 1:00:00 PM 7.03 44.654 0.109 7.51 5.83 12.62
1/1/2022 1:15:00 PM 7.08 44.744 0.109 7.53 5.67 12.63
1/1/2022 1:30:00 PM 7.11 44.798 0.109 7.53 5.68 12.59
1/1/2022 1:45:00 PM 7.14 44.852 0.109 7.54 5.65 12.56
1/1/2022 2:00:00 PM 7.18 44.924 0.109 7.55 5.91 12.53
1/1/2022 2:15:00 PM 7.19 44.942 0.109 7.54 5.71 12.47
1/1/2022 2:30:00 PM 7.2 44.96 0.109 7.53 5.47 12.42
1/1/2022 2:45:00 PM 7.21 44.978 0.108 7.52 5.69 12.32
1/1/2022 3:00:00 PM 7.21 44.978 0.108 7.5 5.8 12.24
1/1/2022 3:15:00 PM 7.22 44.996 0.108 7.49 5.71 12.16
1/1/2022 3:30:00 PM 7.23 45.014 0.108 7.46 5.75 12.1
1/1/2022 3:45:00 PM 7.23 45.014 0.108 7.44 5.71 12.06
1/1/2022 4:00:00 PM 7.24 45.032 0.108 7.42 5.81 11.99
1/1/2022 4:15:00 PM 7.25 45.05 0.108 7.4 6.75 11.94
1/1/2022 4:30:00 PM 7.25 45.05 0.108 7.39 7.09 11.89
1/1/2022 4:45:00 PM 7.25 45.05 0.107 7.37 6.82 11.84
1/1/2022 5:00:00 PM 7.25 45.05 0.107 7.36 6.85 11.8
1/1/2022 5:15:00 PM 7.24 45.032 0.107 7.34 6.66 11.76
1/1/2022 5:30:00 PM 7.24 45.032 0.107 7.33 6.13 11.74
1/1/2022 5:45:00 PM 7.23 45.014 0.107 7.32 6.18 11.74
1/1/2022 6:00:00 PM 7.23 45.014 0.107 7.31 6.64 11.73
1/1/2022 6:15:00 PM 7.22 44.996 0.107 7.29 5.67 11.72
1/1/2022 6:30:00 PM 7.21 44.978 0.107 7.29 5.92 11.72
1/1/2022 6:45:00 PM 7.2 44.96 0.107 7.28 6.94 11.72
1/1/2022 7:00:00 PM 7.2 44.96 0.107 7.27 7.5 11.71
1/1/2022 7:15:00 PM 7.19 44.942 0.106 7.27 7.28 11.71
1/1/2022 7:30:00 PM 7.19 44.942 0.106 7.27 6.1 11.71
1/1/2022 7:45:00 PM 7.18 44.924 0.106 7.26 6.97 11.71
1/1/2022 8:00:00 PM 7.18 44.924 0.106 7.26 9.65 11.71
1/1/2022 8:15:00 PM 7.17 44.906 0.106 7.26 6.49 11.71
1/1/2022 8:30:00 PM 7.17 44.906 0.106 7.25 6.22 11.71
1/1/2022 8:45:00 PM 7.16 44.888 0.106 7.25 6.12 11.71
1/1/2022 9:00:00 PM 7.16 44.888 0.106 7.24 6.33 11.71
1/1/2022 9:15:00 PM 7.16 44.888 0.106 7.24 6.62 11.7
1/1/2022 9:30:00 PM 7.16 44.888 0.106 7.25 10.4 11.7
1/1/2022 9:45:00 PM 7.15 44.87 0.106 7.25 7.25 11.7
1/1/2022 10:00:00 PM 7.15 44.87 0.106 7.25 6.16 11.7
1/1/2022 10:15:00 PM 7.14 44.852 0.106 7.25 6.39 11.7
1/1/2022 10:30:00 PM 7.13 44.834 0.106 7.24 6.8 11.7
1/1/2022 10:45:00 PM 7.13 44.834 0.106 7.24 7.04 11.7
1/1/2022 11:00:00 PM 7.12 44.816 0.105 7.24 7.13 11.7
1/1/2022 11:15:00 PM 7.12 44.816 0.105 7.25 6.38 11.7
1/1/2022 11:30:00 PM 7.12 44.816 0.105 7.24 6.79 11.7
1/1/2022 11:45:00 PM 7.12 44.816 0.105 7.24 11.27 11.7
1/2/2022 12:00:00 AM 7.12 44.816 0.105 7.24 6.34 11.7
1/2/2022 12:15:00 AM 7.13 44.834 0.105 7.24 6.6 11.7
1/2/2022 12:30:00 AM 7.12 44.816 0.105 7.25 6.08 11.71
1/2/2022 12:45:00 AM 7.1 44.78 0.105 7.25 7.83 11.71
1/2/2022 1:00:00 AM 7.09 44.762 0.105 7.25 7.16 11.72
1/2/2022 1:15:00 AM 7.06 44.708 0.105 7.25 7.99 11.73
1/2/2022 1:30:00 AM 7.04 44.672 0.105 7.25 6.91 11.74
1/2/2022 1:45:00 AM 7.02 44.636 0.105 7.25 8.02 11.75
1/2/2022 2:00:00 AM 7 44.6 0.105 7.26 7.74 11.74
1/2/2022 2:15:00 AM 6.98 44.564 0.105 7.26 11.66 11.75
1/2/2022 2:30:00 AM 6.96 44.528 0.105 7.26 7.55 11.76
1/2/2022 2:45:00 AM 6.94 44.492 0.106 7.26 8.21 11.77
1/2/2022 3:00:00 AM 6.91 44.438 0.105 7.26 7.55 11.77
1/2/2022 3:15:00 AM 6.89 44.402 0.106 7.26 8.22 11.78
1/2/2022 3:30:00 AM 6.86 44.348 0.106 7.26 7.8 11.79
1/2/2022 3:45:00 AM 6.84 44.312 0.106 7.26 8.37 11.8
1/2/2022 4:00:00 AM 6.81 44.258 0.106 7.26 7.47 11.81
1/2/2022 4:15:00 AM 6.79 44.222 0.106 7.27 8.23 11.82
1/2/2022 4:30:00 AM 6.76 44.168 0.107 7.26 8.32 11.83
1/2/2022 4:45:00 AM 6.74 44.132 0.107 7.27 8.13 11.84
1/2/2022 5:00:00 AM 6.72 44.096 0.107 7.27 7.18 11.85
1/2/2022 5:15:00 AM 6.69 44.042 0.108 7.26 9.92 11.85
1/2/2022 5:30:00 AM 6.67 44.006 0.108 7.27 14.04 11.86
1/2/2022 5:45:00 AM 6.64 43.952 0.108 7.27 13.38 11.87
1/2/2022 6:00:00 AM 6.61 43.898 0.108 7.27 9.94 11.88
1/2/2022 6:15:00 AM 6.58 43.844 0.108 7.27 8.98 11.9
1/2/2022 6:30:00 AM 6.55 43.79 0.109 7.27 8.85 11.91
1/2/2022 6:45:00 AM 6.52 43.736 0.109 7.27 7.25 11.92
1/2/2022 7:00:00 AM 6.49 43.682 0.109 7.28 9.66 11.93
1/2/2022 7:15:00 AM 6.47 43.646 0.11 7.27 8 11.94
1/2/2022 7:30:00 AM 6.44 43.592 0.111 7.27 8.57 11.96
1/2/2022 7:45:00 AM 6.41 43.538 0.111 7.27 10.61 11.98
1/2/2022 8:00:00 AM 6.38 43.484 0.112 7.28 9.57 12
1/2/2022 8:15:00 AM 6.35 43.43 0.112 7.28 8.13 12.04
1/2/2022 8:30:00 AM 6.33 43.394 0.113 7.3 9.17 12.12
1/2/2022 8:45:00 AM 6.3 43.34 0.113 7.31 9.17 12.19
1/2/2022 9:00:00 AM 6.29 43.322 0.113 7.32 7.12 12.27
1/2/2022 9:15:00 AM 6.28 43.304 0.114 7.33 8.13 12.36
1/2/2022 9:30:00 AM 6.28 43.304 0.114 7.35 7.7 12.43
1/2/2022 9:45:00 AM 6.27 43.286 0.114 7.37 8 12.47
1/2/2022 10:00:00 AM 6.26 43.268 0.115 7.38 6.54 12.48
1/2/2022 10:15:00 AM 6.25 43.25 0.115 7.39 6.9 12.52
1/2/2022 10:30:00 AM 6.24 43.232 0.115 7.41 6.76 12.55
1/2/2022 10:45:00 AM 6.21 43.178 0.115 7.41 6.8 12.49
1/2/2022 11:00:00 AM 6.19 43.142 0.116 7.41 6.54 12.53
1/2/2022 11:15:00 AM 6.18 43.124 0.116 7.43 6.42 12.61
1/2/2022 11:30:00 AM 6.18 43.124 0.116 7.44 6.7 12.67
1/2/2022 11:45:00 AM 6.16 43.088 0.116 7.45 6.76 12.69
1/2/2022 12:00:00 PM 6.14 43.052 0.116 7.46 6.47 12.68
1/2/2022 12:15:00 PM 6.13 43.034 0.116 7.47 6.86 12.71
1/2/2022 12:30:00 PM 6.12 43.016 0.116 7.48 6.9 12.72
1/2/2022 12:45:00 PM 6.11 42.998 0.116 7.48 7.74 12.75
1/2/2022 1:00:00 PM 6.13 43.034 0.116 7.5 6.54 12.81
1/2/2022 1:15:00 PM 6.15 43.07 0.116 7.51 6.63 12.83
1/2/2022 1:30:00 PM 6.14 43.052 0.116 7.52 9.34 12.81
1/2/2022 1:45:00 PM 6.12 43.016 0.116 7.52 7.82 12.78
1/2/2022 2:00:00 PM 6.11 42.998 0.116 7.52 6.73 12.79
1/2/2022 2:15:00 PM 6.08 42.944 0.117 7.52 7.7 12.75
1/2/2022 2:30:00 PM 6.05 42.89 0.117 7.51 8.66 12.71
1/2/2022 2:45:00 PM 6.02 42.836 0.117 7.5 7.2 12.67
1/2/2022 3:00:00 PM 5.98 42.764 0.117 7.5 7.29 12.63
1/2/2022 3:15:00 PM 5.94 42.692 0.117 7.48 7.51 12.63
1/2/2022 3:30:00 PM 5.91 42.638 0.117 7.47 6.61 12.62
1/2/2022 3:45:00 PM 5.87 42.566 0.117 7.46 7.16 12.59
1/2/2022 4:00:00 PM 5.82 42.476 0.117 7.46 7.15 12.56
1/2/2022 4:15:00 PM 5.75 42.35 0.117 7.44 6.46 12.53
1/2/2022 4:30:00 PM 5.71 42.278 0.117 7.43 6.62 12.5
1/2/2022 4:45:00 PM 5.65 42.17 0.117 7.41 7.21 12.47
1/2/2022 5:00:00 PM 5.6 42.08 0.117 7.4 8.16 12.46
1/2/2022 5:15:00 PM 5.55 41.99 0.117 7.39 7.26 12.44
1/2/2022 5:30:00 PM 5.51 41.918 0.117 7.38 11.08 12.44
1/2/2022 5:45:00 PM 5.46 41.828 0.117 7.36 6.64 12.44
1/2/2022 6:00:00 PM 5.42 41.756 0.117 7.36 11.56 12.46
1/2/2022 6:15:00 PM 5.36 41.648 0.117 7.35 9.92 12.47
1/2/2022 6:30:00 PM 5.31 41.558 0.117 7.35 9.58 12.49
1/2/2022 6:45:00 PM 5.25 41.45 0.117 7.34 6.83 12.5
1/2/2022 7:00:00 PM 5.19 41.342 0.117 7.34 12.3 12.53
1/2/2022 7:15:00 PM 5.15 41.27 0.117 7.33 13.39 12.54
1/2/2022 7:30:00 PM 5.11 41.198 0.117 7.33 8.28 12.56
1/2/2022 7:45:00 PM 5.06 41.108 0.117 7.32 11.95 12.57
1/2/2022 8:00:00 PM 5.02 41.036 0.117 7.33 6.24 12.6
1/2/2022 8:15:00 PM 4.97 40.946 0.117 7.32 9.42 12.63
1/2/2022 8:30:00 PM 4.91 40.838 0.117 7.32 12.45 12.64
1/2/2022 8:45:00 PM 4.86 40.748 0.116 7.32 7.41 12.65
1/2/2022 9:00:00 PM 4.82 40.676 0.116 7.32 8.43 12.67
1/2/2022 9:15:00 PM 4.77 40.586 0.116 7.31 8.13 12.69
1/2/2022 9:30:00 PM 4.72 40.496 0.116 7.32 88.9 12.71
1/2/2022 9:45:00 PM 4.67 40.406 0.116 7.31 59.64 12.74
1/2/2022 10:00:00 PM 4.62 40.316 0.116 7.31 16.26 12.75
1/2/2022 10:15:00 PM 4.59 40.262 0.116 7.31 7.12 12.76
1/2/2022 10:30:00 PM 4.56 40.208 0.116 7.31 6.19 12.78
1/2/2022 10:45:00 PM 4.52 40.136 0.116 7.3 6.05 12.79
1/2/2022 11:00:00 PM 4.47 40.046 0.116 7.31 75.19 12.82
1/2/2022 11:15:00 PM 4.42 39.956 0.116 7.3 20.96 12.83
1/2/2022 11:30:00 PM 4.37 39.866 0.116 7.3 6.22 12.85
1/2/2022 11:45:00 PM 4.32 39.776 0.116 7.31 6.03 12.87
1/3/2022 12:00:00 AM 4.27 39.686 0.116 7.3 34.77 12.89
1/3/2022 12:15:00 AM 4.22 39.596 0.115 7.31 7.06 12.9
1/3/2022 12:30:00 AM 4.17 39.506 0.115 7.3 68.98 12.93
1/3/2022 12:45:00 AM 4.12 39.416 0.115 7.3 47.52 12.95
1/3/2022 1:00:00 AM 4.09 39.362 0.115 7.3 13.71 12.96
1/3/2022 1:15:00 AM 4.05 39.29 0.115 7.3 6.75 12.98
1/3/2022 1:30:00 AM 4 39.2 0.115 7.3 36.6 13
1/3/2022 1:45:00 AM 3.95 39.11 0.115 7.3 10.93 13.02
1/3/2022 2:00:00 AM 3.91 39.038 0.115 7.29 9.55 13.05
1/3/2022 2:15:00 AM 3.86 38.948 0.115 7.29 13.63 13.07
1/3/2022 2:30:00 AM 3.81 38.858 0.115 7.3 22.85 13.09
1/3/2022 2:45:00 AM 3.77 38.786 0.115 7.29 61.45 13.11
1/3/2022 3:00:00 AM 3.73 38.714 0.114 7.29 31.85 13.12
1/3/2022 3:15:00 AM 3.68 38.624 0.114 7.3 6.37 13.14
1/3/2022 3:30:00 AM 3.64 38.552 0.114 7.29 39.46 13.16
1/3/2022 3:45:00 AM 3.58 38.444 0.114 7.29 74.47 13.18
1/3/2022 4:00:00 AM 3.54 38.372 0.114 7.29 6.38 13.2
1/3/2022 4:15:00 AM 3.51 38.318 0.114 7.29 38.13 13.21
1/3/2022 4:30:00 AM 3.47 38.246 0.114 7.29 46.27 13.23
1/3/2022 4:45:00 AM 3.4 38.12 0.114 7.29 124.61 13.26
1/3/2022 5:00:00 AM 3.36 38.048 0.113 7.29 9.71 13.27
1/3/2022 5:15:00 AM 3.3 37.94 0.113 7.28 14.45 13.29
1/3/2022 5:30:00 AM 3.23 37.814 0.113 7.28 6.98 13.31
1/3/2022 5:45:00 AM 3.17 37.706 0.113 7.29 10.39 13.33
1/3/2022 6:00:00 AM 3.1 37.58 0.113 7.28 45.76 13.35
1/3/2022 6:15:00 AM 3.05 37.49 0.113 7.28 53.16 13.37
1/3/2022 6:30:00 AM 3.01 37.418 0.113 7.28 23.96 13.39
1/3/2022 6:45:00 AM 2.95 37.31 0.113 7.28 10.03 13.42
1/3/2022 7:00:00 AM 2.9 37.22 0.113 7.28 63.56 13.44
1/3/2022 7:15:00 AM 2.84 37.112 0.112 7.28 6.33 13.46
1/3/2022 7:30:00 AM 2.78 37.004 0.112 7.28 5.71 13.49
1/3/2022 7:45:00 AM 2.73 36.914 0.112 7.28 6.11 13.52
1/3/2022 8:00:00 AM 2.68 36.824 0.112 7.28 18.68 13.56
1/3/2022 8:15:00 AM 2.61 36.698 0.112 7.29 116.5 13.6
1/3/2022 8:30:00 AM 2.55 36.59 0.112 7.29 36.7 13.67
1/3/2022 8:45:00 AM 2.5 36.5 0.112 7.29 19.95 13.75
1/3/2022 9:00:00 AM 2.46 36.428 0.111 7.3 11.95 13.82
1/3/2022 9:15:00 AM 2.42 36.356 0.111 7.31 7.78 13.9
1/3/2022 9:30:00 AM 2.38 36.284 0.111 7.32 74.41 13.99
1/3/2022 9:45:00 AM 2.35 36.23 0.111 7.33 7.66 14.07
1/3/2022 10:00:00 AM 2.33 36.194 0.111 7.35 6.18 14.14
1/3/2022 10:15:00 AM 2.32 36.176 0.11 7.36 7.31 14.19
1/3/2022 10:30:00 AM 2.32 36.176 0.11 7.37 11.11 14.23
1/3/2022 10:45:00 AM 2.33 36.194 0.11 7.38 6.37 14.28
1/3/2022 11:00:00 AM 2.33 36.194 0.11 7.39 6.71 14.29
1/3/2022 11:15:00 AM 2.32 36.176 0.11 7.4 9.73 14.32
1/3/2022 11:30:00 AM 2.32 36.176 0.109 7.41 6.53 14.34
1/3/2022 11:45:00 AM 2.32 36.176 0.109 7.42 6.25 14.35
1/3/2022 12:00:00 PM 2.33 36.194 0.109 7.42 146.65 14.36
1/3/2022 12:15:00 PM 2.35 36.23 0.109 7.43 6.33 14.36
1/3/2022 12:30:00 PM 2.37 36.266 0.109 7.44 5.68 14.37
1/3/2022 12:45:00 PM 2.4 36.32 0.109 7.44 5.99 14.36
1/3/2022 1:00:00 PM 2.4 36.32 0.108 7.44 52.59 14.35
1/3/2022 1:15:00 PM 2.43 36.374 0.108 7.45 6.86 14.35
1/3/2022 1:30:00 PM 2.41 36.338 0.108 7.45 5.37 14.34
1/3/2022 1:45:00 PM 2.41 36.338 0.108 7.45 7.07 14.33
1/3/2022 2:00:00 PM 2.41 36.338 0.108 7.45 102.87 14.32
1/3/2022 2:15:00 PM 2.38 36.284 0.108 7.45 158.81 14.28
1/3/2022 2:30:00 PM 2.37 36.266 0.107 7.44 8.11 14.24
1/3/2022 2:45:00 PM 2.36 36.248 0.107 7.44 74.68 14.19
1/3/2022 3:00:00 PM 2.34 36.212 0.107 7.43 16.35 14.15
1/3/2022 3:15:00 PM 2.33 36.194 0.107 7.42 44.42 14.12
1/3/2022 3:30:00 PM 2.32 36.176 0.107 7.42 42.32 14.1
1/3/2022 3:45:00 PM 2.29 36.122 0.107 7.41 12.59 14.09
1/3/2022 4:00:00 PM 2.26 36.068 0.107 7.4 9.88 14.06
1/3/2022 4:15:00 PM 2.2 35.96 0.107 7.39 10.67 14.07
1/3/2022 4:30:00 PM 2.16 35.888 0.107 7.39 36.44 14.06
1/3/2022 4:45:00 PM 2.1 35.78 0.106 7.38 11.31 14.03
1/3/2022 5:00:00 PM 2.04 35.672 0.107 7.36 39.24 13.99
1/3/2022 5:15:00 PM 1.95 35.51 0.106 7.36 56.1 13.98
1/3/2022 5:30:00 PM 1.88 35.384 0.106 7.34 102.47 13.97
1/3/2022 5:45:00 PM 1.81 35.258 0.106 7.33 37.64 13.98
1/3/2022 6:00:00 PM 1.75 35.15 0.106 7.32 10.56 13.99
1/3/2022 6:15:00 PM 1.7 35.06 0.106 7.25 49.74 14
1/3/2022 6:30:00 PM 1.64 34.952 0.106 7.25 68.53 14.03
1/3/2022 6:45:00 PM 1.58 34.844 0.106 7.22 7.96 14.05
1/3/2022 7:00:00 PM 1.52 34.736 0.106 7.24 9.27 14.06
1/3/2022 7:15:00 PM 1.47 34.646 0.106 7.25 41.53 14.08
1/3/2022 7:30:00 PM 1.41 34.538 0.106 7.26 27.7 14.1
1/3/2022 7:45:00 PM 1.36 34.448 0.106 7.26 10.52 14.13
1/3/2022 8:00:00 PM 1.32 34.376 0.105 7.27 9.15 14.15
1/3/2022 8:15:00 PM 1.28 34.304 0.105 7.27 9.14 14.18
1/3/2022 8:30:00 PM 1.23 34.214 0.105 7.27 5.92 14.19
1/3/2022 8:45:00 PM 1.17 34.106 0.105 7.27 6.2 14.21
1/3/2022 9:00:00 PM 1.12 34.016 0.105 7.26 7.32 14.24
1/3/2022 9:15:00 PM 1.07 33.926 0.105 7.27 6.74 14.26
1/3/2022 9:30:00 PM 1.02 33.836 0.105 7.26 20.14 14.29
1/3/2022 9:45:00 PM 0.98 33.764 0.105 7.26 10.87 14.31
1/3/2022 10:00:00 PM 0.93 33.674 0.105 7.26 65.71 14.33
1/3/2022 10:15:00 PM 0.89 33.602 0.105 7.26 39.94 14.34
1/3/2022 10:30:00 PM 0.85 33.53 0.105 7.26 5.51 14.37
1/3/2022 10:45:00 PM 0.81 33.458 0.105 7.26 6.04 14.39
1/3/2022 11:00:00 PM 0.76 33.368 0.105 7.26 22.33 14.4
1/3/2022 11:15:00 PM 0.72 33.296 0.105 7.26 29.57 14.43
1/3/2022 11:30:00 PM 0.67 33.206 0.105 7.27 8.89 14.45
1/3/2022 11:45:00 PM 0.64 33.152 0.104 7.26 11.46 14.47
1/4/2022 12:00:00 AM 0.6 33.08 0.104 7.26 16.96 14.48
1/4/2022 12:15:00 AM 0.56 33.008 0.104 7.25 12.03 14.49
1/4/2022 12:30:00 AM 0.53 32.954 0.104 7.26 192.5 14.51
1/4/2022 12:45:00 AM 0.49 32.882 0.104 7.26 11.94 14.53
1/4/2022 1:00:00 AM 0.45 32.81 0.104 7.25 16.2 14.55
1/4/2022 1:15:00 AM 0.41 32.738 0.104 7.25 68.5 14.56
1/4/2022 1:30:00 AM 0.38 32.684 0.104 7.25 73.31 14.58
1/4/2022 1:45:00 AM 0.36 32.648 0.104 7.25 53.79 14.6
1/4/2022 2:00:00 AM 0.33 32.594 0.104 7.25 11.09 14.61
1/4/2022 2:15:00 AM 0.3 32.54 0.104 7.24 12.32 14.63
1/4/2022 2:30:00 AM 0.28 32.504 0.103 7.25 6.02 14.64
1/4/2022 2:45:00 AM 0.26 32.468 0.103 7.25 34.27 14.66
1/4/2022 3:00:00 AM 0.25 32.45 0.103 7.25 6.45 14.66
1/4/2022 3:15:00 AM 0.23 32.414 0.103 7.26 13.8 14.68
1/4/2022 3:30:00 AM 0.22 32.396 0.103 7.25 12.77 14.68
1/4/2022 3:45:00 AM 0.21 32.378 0.103 7.25 8.32 14.69
1/4/2022 4:00:00 AM 0.18 32.324 0.103 7.25 6.1 14.69
1/4/2022 4:15:00 AM 0.14 32.252 0.103 7.24 70.54 14.7
1/4/2022 4:30:00 AM 0.13 32.234 0.102 7.24 6.8 14.72
1/4/2022 4:45:00 AM 0.12 32.216 0.102 7.24 7.43 14.72
1/4/2022 5:00:00 AM 0.1 32.18 0.102 7.24 84.78 14.73
1/4/2022 5:15:00 AM 0.07 32.126 0.102 7.24 120.58 14.74
1/4/2022 5:30:00 AM 0.05 32.09 0.102 7.23 6.42 14.75
1/4/2022 5:45:00 AM 0.03 32.054 0.102 7.23 5.81 14.75
1/4/2022 6:00:00 AM 0 32 0.101 7.23 67.77 14.77
1/4/2022 6:15:00 AM -0.02 31.964 0.101 7.22 43.92 14.78
1/4/2022 6:30:00 AM -0.03 31.946 0.101 7.23 119.85 14.78
1/4/2022 6:45:00 AM -0.04 31.928 0.101 7.23 13.92 14.79
1/4/2022 7:00:00 AM -0.04 31.928 0.101 7.22 73.66 14.8
1/4/2022 7:15:00 AM -0.04 31.928 0.101 7.22 5.97 14.81
1/4/2022 7:30:00 AM -0.04 31.928 0.101 7.22 6.02 14.83
1/4/2022 7:45:00 AM -0.04 31.928 0.1 7.22 6.28 14.86
1/4/2022 8:00:00 AM -0.04 31.928 0.1 7.24 6.79 14.89
1/4/2022 8:15:00 AM -0.03 31.946 0.1 7.24 7.15 14.95
1/4/2022 8:30:00 AM -0.03